Provisional Data: Conodoguinet Creek near Schlusser, PA


Please select a monitoring station.
Please select start date.
Please select start date.

<
Toggle Unit: C/F Toggle Unit: C/F
Sample Time Temperature (C) Temperature (F) Specific Conductivity (mS/cm) pH   Turbidity (NTU+) DO (mg/L)
9/6/2021 12:00:00 AM 18.72 65.696 7.9 295.2 66.93 3.5
9/6/2021 12:15:00 AM 18.71 65.67799 7.86 295.2 68.63 4.7
9/6/2021 12:30:00 AM 18.7 65.66 7.85 295.5 76.2 5.6
9/6/2021 12:45:00 AM 18.68 65.624 7.85 295.7 71.2 6.1
9/6/2021 1:00:00 AM 18.67 65.606 7.89 295.9 116.9 6
9/6/2021 1:15:00 AM 18.66 65.588 7.87 296.2 85.97 6.6
9/6/2021 1:30:00 AM 18.65 65.57 7.86 294.6 73.42 6.9
9/6/2021 1:45:00 AM 18.63 65.534 7.91 296.7 62.33 7
9/6/2021 2:00:00 AM 18.62 65.516 7.87 296.9 84.96 8.4
9/6/2021 2:15:00 AM 18.61 65.498 7.86 297.2 61.84 8
9/6/2021 2:30:00 AM 18.61 65.498 7.88 297.4 62.04 8.1
9/6/2021 2:45:00 AM 18.61 65.498 7.85 297.6 66.65 7.2
9/6/2021 3:00:00 AM 18.61 65.498 7.86 297.9 66.97 6.6
9/6/2021 3:15:00 AM 18.61 65.498 7.85 298 33.1 6.3
9/6/2021 3:30:00 AM 18.61 65.498 7.84 298.2 45.17 6.2
9/6/2021 3:45:00 AM 18.61 65.498 7.85 298.3 42.66 8.9
9/6/2021 4:00:00 AM 18.6 65.48 7.84 298.6 32.04 10.5
9/6/2021 4:15:00 AM 18.6 65.48 7.85 298.6 21.09 9.5
9/6/2021 4:30:00 AM 18.59 65.462 7.85 298.6 24.29 10
9/6/2021 4:45:00 AM 18.58 65.444 7.86 298.6 24.56 10.3
9/6/2021 5:00:00 AM 18.57 65.426 7.83 298.9 26.31 9.9
9/6/2021 5:15:00 AM 18.56 65.408 7.89 299.1 33.74 9.2
9/6/2021 5:30:00 AM 18.55 65.39 7.88 299.2 26.88 11
9/6/2021 5:45:00 AM 18.53 65.354 7.82 299.4 20.06 11.2
9/6/2021 6:00:00 AM 18.52 65.336 7.85 299.5 24.63 10.2
9/6/2021 6:15:00 AM 18.51 65.318 7.84 299.4 18.91 10
9/6/2021 6:30:00 AM 18.49 65.282 7.84 300 21.11 7.8
9/6/2021 6:45:00 AM 18.47 65.246 7.82 300 21.18 6
9/6/2021 7:00:00 AM 18.45 65.21 7.83 300.1 24.78 4.6
9/6/2021 7:15:00 AM 18.44 65.192 7.83 300.2 23.19 4
9/6/2021 7:30:00 AM 18.42 65.156 7.87 300.2 24.95 3.7
9/6/2021 7:45:00 AM 18.41 65.138 7.87 300.3 22.67 2.9
9/6/2021 8:00:00 AM 18.41 65.138 7.84 300.1 24.59 1.8
9/6/2021 8:15:00 AM 18.4 65.12 7.87 300.4 29.28 3.9
9/6/2021 8:30:00 AM 18.41 65.138 7.84 300.5 32.7 4.7
9/6/2021 8:45:00 AM 18.41 65.138 7.84 300.7 25.95 4.4
9/6/2021 9:00:00 AM 18.42 65.156 7.84 300.3 27.88 4.1
9/6/2021 9:15:00 AM 18.43 65.174 7.85 300.6 28.13 4.2
9/6/2021 9:30:00 AM 18.44 65.192 7.86 300.8 29.04 3.4
9/6/2021 9:45:00 AM 18.45 65.21 7.86 300.8 30.3 3.1
9/6/2021 10:00:00 AM 18.46 65.228 7.85 301 30.13 3.5
9/6/2021 10:15:00 AM 18.49 65.282 7.87 300.1 28.82 3.3
9/6/2021 10:30:00 AM 18.52 65.336 7.85 300.9 29.66 2.8
9/6/2021 10:45:00 AM 18.55 65.39 7.86 301.4 28.22 3.8
9/6/2021 11:00:00 AM 18.59 65.462 7.84 301.5 29.77 4.1
9/6/2021 11:15:00 AM 18.64 65.552 7.85 301.2 29.52 3.3
9/6/2021 11:30:00 AM 18.7 65.66 7.87 301 38.13 3.1
9/6/2021 11:45:00 AM 18.78 65.804 7.92 302.2 33.33 2
9/6/2021 12:00:00 PM 18.86 65.948 7.91 301.9 32.73 2.3
9/6/2021 12:15:00 PM 18.97 66.146 7.92 302.1 33.19 2.7
9/6/2021 12:30:00 PM 19.07 66.326 7.93 302.4 33.91 2.5
9/6/2021 12:45:00 PM 19.18 66.524 7.94 302.4 33.44 2.8
9/6/2021 1:00:00 PM 19.31 66.758 7.92 302.6 39.12 2.5
9/6/2021 1:15:00 PM 19.42 66.956 7.91 303 37.88 2.5
9/6/2021 1:30:00 PM 19.49 67.082 7.91 303.2 37.53 2.2
9/6/2021 1:45:00 PM 19.61 67.298 7.92 303.6 34.7 1.9
9/6/2021 2:00:00 PM 19.66 67.388 7.91 303.6 33.78 1.8
9/6/2021 2:15:00 PM 19.72 67.496 7.92 303.8 36.02 2
9/6/2021 2:30:00 PM 19.68 67.424 7.91 303.4 34.62 1.9
9/6/2021 2:45:00 PM 19.8 67.64 7.92 303.7 35.35 2
9/6/2021 3:00:00 PM 19.88 67.784 7.92 304.1 35.07 1.5
9/6/2021 3:15:00 PM 20.02 68.036 7.92 304.5 36.08 1.1
9/6/2021 3:30:00 PM 20.14 68.252 7.93 304.6 37.65 1.3
9/6/2021 3:45:00 PM 20.24 68.432 7.93 304.7 40.81 1.1
9/6/2021 4:00:00 PM 20.36 68.648 7.93 305 41.38 1.1
9/6/2021 4:15:00 PM 20.43 68.774 7.95 305.4 43.21 1.3
9/6/2021 4:30:00 PM 20.48 68.864 7.98 305.4 50.52 0.8
9/6/2021 4:45:00 PM 20.52 68.936 7.95 305.8 41.72 0.8
9/6/2021 5:00:00 PM 20.54 68.972 7.96 306 41.27 0.8
9/6/2021 5:15:00 PM 20.53 68.954 7.94 306.5 42.38 0.8
9/6/2021 5:30:00 PM 20.48 68.864 7.97 306.7 46.39 0.9
9/6/2021 5:45:00 PM 20.41 68.738 7.96 306.8 44.54 0.8
9/6/2021 6:00:00 PM 20.38 68.684 7.96 307.2 44.48 0.8
9/6/2021 6:15:00 PM 20.34 68.612 7.96 307.4 44.77 0.8
9/6/2021 6:30:00 PM 20.31 68.558 7.95 307.8 45.09 0.8
9/6/2021 6:45:00 PM 20.29 68.522 7.94 306.5 44.84 0.8
9/6/2021 7:00:00 PM 20.28 68.504 7.95 309.2 44.6 0.7
9/6/2021 7:15:00 PM 20.26 68.468 7.94 308.6 50.82 0.7
9/6/2021 7:30:00 PM 20.24 68.432 7.94 309.2 47.67 0.7
9/6/2021 7:45:00 PM 20.23 68.414 7.94 309.5 48.99 0.7
9/6/2021 8:00:00 PM 20.22 68.396 7.93 310 38.63 0.7
9/6/2021 8:15:00 PM 20.21 68.378 7.95 310.2 37.7 0.7
9/6/2021 8:30:00 PM 20.2 68.36 7.93 310.5 55.9 0.8
9/6/2021 8:45:00 PM 20.2 68.36 7.98 310.9 44.7 0.7
9/6/2021 9:00:00 PM 20.21 68.378 7.94 311.1 32.69 0.7
9/6/2021 9:15:00 PM 20.21 68.378 7.95 311.3 31.02 0.7
9/6/2021 9:30:00 PM 20.21 68.378 7.96 311.5 37.88 0.7
9/6/2021 9:45:00 PM 20.21 68.378 7.97 311.3 62.81 0.7
9/6/2021 10:00:00 PM 20.2 68.36 7.94 311.9 35.69 0.7
9/6/2021 10:15:00 PM 20.19 68.342 7.94 312.1 43.47 0.7
9/6/2021 10:30:00 PM 20.17 68.306 7.98 312.1 31.1 0.7
9/6/2021 10:45:00 PM 20.15 68.27 7.95 312.1 35.83 0.7
9/6/2021 11:00:00 PM 20.11 68.198 7.98 312.3 35.31 0.7
9/6/2021 11:15:00 PM 20.08 68.144 7.96 312.3 38.14 0.7
9/6/2021 11:30:00 PM 20.03 68.054 7.95 312.6 34.32 0.7
9/6/2021 11:45:00 PM 19.99 67.982 7.93 312.7 36.68 0.7
9/7/2021 12:00:00 AM 19.95 67.91 7.94 312.8 41.09 0.7
9/7/2021 12:15:00 AM 19.9 67.82 7.95 313 38.26 0.7
9/7/2021 12:30:00 AM 19.86 67.748 7.95 313.2 40.82 0.7
9/7/2021 12:45:00 AM 19.81 67.658 7.95 313.4 49.19 0.7
9/7/2021 1:00:00 AM 19.77 67.586 7.93 313.6 40.62 0.7
9/7/2021 1:15:00 AM 19.72 67.496 7.92 313.8 46.01 0.7
9/7/2021 1:30:00 AM 19.67 67.406 7.93 314 42.66 0.7
9/7/2021 1:45:00 AM 19.63 67.334 7.97 314.2 44.6 0.7
9/7/2021 2:00:00 AM 19.58 67.244 7.9 314.5 46.11 0.7
9/7/2021 2:15:00 AM 19.53 67.154 7.91 314.7 43.17 0.7
9/7/2021 2:30:00 AM 19.49 67.082 7.92 314.9 42.37 0.7
9/7/2021 2:45:00 AM 19.44 66.992 7.88 315.1 47.84 9
9/7/2021 3:00:00 AM 19.4 66.92 7.9 315.4 39.26 29.6
9/7/2021 3:15:00 AM 19.36 66.848 7.9 315.5 41.38 33.6
9/7/2021 3:30:00 AM 19.31 66.758 7.89 315.9 45.67 34.8
9/7/2021 3:45:00 AM 19.27 66.686 7.9 316 41.68 20.7
9/7/2021 4:00:00 AM 19.24 66.632 7.91 316.3 40.92 26.3
9/7/2021 4:15:00 AM 19.2 66.56 7.91 316.4 42.42 24.2
9/7/2021 4:30:00 AM 19.16 66.488 7.89 316.7 42 28.5
9/7/2021 4:45:00 AM 19.12 66.416 7.9 317 44.93 29.7
9/7/2021 5:00:00 AM 19.08 66.344 7.88 317.3 44.39 23.4
9/7/2021 5:15:00 AM 19.04 66.272 7.9 317.6 58.15 26.1
9/7/2021 5:30:00 AM 19 66.2 7.91 318 59.49 24.9
9/7/2021 5:45:00 AM 18.96 66.128 7.88 318.2 46.38 23.2
9/7/2021 6:00:00 AM 18.92 66.056 7.87 318.5 48.95 26.4
9/7/2021 6:15:00 AM 18.88 65.984 7.87 318.8 49.28 25.1
9/7/2021 6:30:00 AM 18.84 65.912 7.9 319.1 51.21 12.6
9/7/2021 6:45:00 AM 18.8 65.84 7.91 319.5 51.89 12.6
9/7/2021 7:00:00 AM 18.76 65.768 7.91 319.9 50.67 10.7
9/7/2021 7:15:00 AM 18.73 65.714 7.92 320.1 54.78 15.2
9/7/2021 7:30:00 AM 18.7 65.66 7.92 320.4 57.18 25.2
9/7/2021 7:45:00 AM 18.68 65.624 7.9 320.5 55.78 26.2
9/7/2021 8:00:00 AM 18.65 65.57 7.9 321 56.62 21.6
9/7/2021 8:15:00 AM 18.64 65.552 7.9 321.4 58.76 18.5
9/7/2021 8:30:00 AM 18.63 65.534 7.89 321.5 63.8 11
9/7/2021 8:45:00 AM 18.62 65.516 7.89 321.8 71.56 7.1
9/7/2021 9:00:00 AM 18.62 65.516 7.91 322.1 65.31 15.6
9/7/2021 9:15:00 AM 18.62 65.516 7.9 322.5 66.69 12.6
9/7/2021 9:30:00 AM 18.62 65.516 7.9 322.7 68.33 15.6
9/7/2021 9:45:00 AM 18.63 65.534 7.91 323.1 70.47 17.8
9/7/2021 10:00:00 AM 18.64 65.552 7.9 323.4 74.93 19.2
9/7/2021 10:15:00 AM 18.65 65.57 7.91 323.7 82.15 20.4
9/7/2021 10:30:00 AM 18.68 65.624 7.92 323.9 79.62 20.4
9/7/2021 10:45:00 AM 18.71 65.67799 7.92 324.2 80.54 20.4
9/7/2021 11:00:00 AM 18.75 65.75 7.92 324.5 85.73 18.9
9/7/2021 11:15:00 AM 18.81 65.858 7.93 324.9 87.44 18.5
9/7/2021 11:30:00 AM 18.87 65.966 7.95 325.1 93.15 12.4
9/7/2021 11:45:00 AM 18.95 66.11 7.95 325.4 93.35 8.8
9/7/2021 12:00:00 PM 19.05 66.29 7.94 325.7 90.48 14.4
9/7/2021 12:15:00 PM 19.16 66.488 7.94 325.8 91.22 16.1
9/7/2021 12:30:00 PM 19.27 66.686 7.94 326.1 91.36 18.8
9/7/2021 12:45:00 PM 19.4 66.92 7.94 326.6 95.67 16.5
9/7/2021 1:00:00 PM 19.54 67.172 7.95 326.9 94.68 17.7
9/7/2021 1:15:00 PM 19.68 67.424 7.96 327.2 102.8 8.3
9/7/2021 1:30:00 PM 19.8 67.64 7.96 327.4 100.3 12.6
9/7/2021 1:45:00 PM 19.92 67.856 7.96 327.7 101.9 16
9/7/2021 2:00:00 PM 20 68 7.97 328.1 104.8 15.4
9/7/2021 2:15:00 PM 20.08 68.144 7.97 328.4 115.5 16.7
9/7/2021 2:30:00 PM 20.06 68.108 7.98 328.5 134.2 13.4
9/7/2021 2:45:00 PM 20.03 68.054 7.98 328.8 132.9 10.8
9/7/2021 3:00:00 PM 20.01 68.018 7.99 328.9 144.5 14.2
9/7/2021 3:15:00 PM 20.1 68.18 7.97 329.4 142.9 15.1
9/7/2021 3:30:00 PM 20.22 68.396 7.98 329.7 149.8 14.3
9/7/2021 3:45:00 PM 20.36 68.648 8 329.7 158.9 13.8
9/7/2021 4:00:00 PM 20.48 68.864 7.98 330.2 156.1 13.2
9/7/2021 4:15:00 PM 20.59 69.062 7.99 330.5 156.7 13.8
9/7/2021 4:30:00 PM 20.62 69.116 8 330.7 168.5 12.2
9/7/2021 4:45:00 PM 20.6 69.08 7.99 331 176.1 9.4
9/7/2021 5:00:00 PM 20.6 69.08 7.99 331.2 158.5 8.9
9/7/2021 5:15:00 PM 20.6 69.08 8 331.7 163.9 9.2
9/7/2021 5:30:00 PM 20.6 69.08 8 332 159.3 6.8
9/7/2021 5:45:00 PM 20.58 69.044 8.01 332.2 166.1 10.5
9/7/2021 6:00:00 PM 20.56 69.008 8.01 332.5 164.4 12.1
9/7/2021 6:15:00 PM 20.54 68.972 8.01 332.7 178.1 10.7
9/7/2021 6:30:00 PM 20.53 68.954 8 332.9 195.4 10.1
9/7/2021 6:45:00 PM 20.52 68.936 8 333.1 200.4 9.9
9/7/2021 7:00:00 PM 20.52 68.936 8 333.3 216.7 11.1
9/7/2021 7:15:00 PM 20.53 68.954 8 333.6 237.6 13.6
9/7/2021 7:30:00 PM 20.53 68.954 8 334 307.5 6.2
9/7/2021 7:45:00 PM 20.55 68.99 7.99 334.3 331.7 3.3
9/7/2021 8:00:00 PM 20.56 69.008 8 334.6 374.4 3
9/7/2021 8:15:00 PM 20.58 69.044 7.99 334.8 432.1 3.3
9/7/2021 8:30:00 PM 20.59 69.062 7.99 335.1 470.3 2.7
9/7/2021 8:45:00 PM 20.61 69.098 7.99 335.4 586.5 0.6
9/7/2021 9:00:00 PM 20.62 69.116 7.99 335.8 398.3 0.6
9/7/2021 9:15:00 PM 20.63 69.134 7.99 336 436.1 0.4
9/7/2021 9:30:00 PM 20.63 69.134 7.99 336.4 467.8 0.5
9/7/2021 9:45:00 PM 20.64 69.152 8.01 336.8 513.5 0.4
9/7/2021 10:00:00 PM 20.64 69.152 8.01 337.1 764.2 0.9
9/7/2021 10:15:00 PM 20.64 69.152 7.99 337.4 690.9 0.8
9/7/2021 10:30:00 PM 20.63 69.134 8.03 337.5 347.2 0.6
9/7/2021 10:45:00 PM 20.62 69.116 8 337.8 446.6 0.8
9/7/2021 11:00:00 PM 20.6 69.08 7.99 338.2 466.6 2.1
9/7/2021 11:15:00 PM 20.59 69.062 8 338.4 465.5 1.1
9/7/2021 11:30:00 PM 20.56 69.008 8.02 338.6 430.2 2
9/7/2021 11:45:00 PM 20.54 68.972 8 338.9 441 3.5
9/8/2021 12:00:00 AM 20.51 68.918 8 339.2 535.2 4.5
9/8/2021 12:15:00 AM 20.48 68.864 8 339.4 635.5 5.3
9/8/2021 12:30:00 AM 20.44 68.792 8 339.5 738.3 11.6
9/8/2021 12:45:00 AM 20.4 68.72 8 340.1 875 14.9
9/8/2021 1:00:00 AM 20.37 68.666 8 340.5 1689 18.5
9/8/2021 1:15:00 AM 20.33 68.594 7.98 340.6 16.72 26.3
9/8/2021 1:30:00 AM 20.29 68.522 7.99 341 9.18 39.2
9/8/2021 1:45:00 AM 20.25 68.45 7.99 341.3 5.93 30.2
9/8/2021 2:00:00 AM 20.21 68.378 7.98 341.6 38.98 30.6
9/8/2021 2:15:00 AM 20.17 68.306 7.98 342 6.74 30.7
9/8/2021 2:30:00 AM 20.13 68.234 7.97 342 7.7 29.7
9/8/2021 2:45:00 AM 20.08 68.144 7.97 342.4 8.71 30.6
9/8/2021 3:00:00 AM 20.03 68.054 7.97 342.8 6.24 30.5
9/8/2021 3:15:00 AM 19.99 67.982 7.97 342.9 6.51 28.8
9/8/2021 3:30:00 AM 19.94 67.892 7.95 343.4 7.21 29.7
9/8/2021 3:45:00 AM 19.9 67.82 7.95 343.5 4757 29.5
9/8/2021 4:00:00 AM 19.86 67.748 7.95 344 32.81 29.4
9/8/2021 4:15:00 AM 19.82 67.676 7.95 344.3 6.57 28.6
9/8/2021 4:30:00 AM 19.78 67.604 7.95 344.3 7.44 27
9/8/2021 4:45:00 AM 19.73 67.514 8.02 344.8 7.42 27.5
9/8/2021 5:00:00 AM 19.69 67.442 7.95 345.1 8.98 27.2
9/8/2021 5:15:00 AM 19.66 67.388 7.99 345.4 7.6 27.3
9/8/2021 5:30:00 AM 19.63 67.334 7.94 345.5 7.51 27.4
9/8/2021 5:45:00 AM 19.59 67.262 7.93 345.9 6.04 26.5
9/8/2021 6:00:00 AM 19.55 67.19 7.93 346.4 12.84 59.7
9/8/2021 6:15:00 AM 19.51 67.118 7.93 346.7 6.47 83.1
9/8/2021 6:30:00 AM 19.48 67.064 7.92 347 6.27 84
9/8/2021 6:45:00 AM 19.44 66.992 7.92 347.2 8.15 83.9
9/8/2021 7:00:00 AM 19.41 66.938 7.93 347.5 5.96 84.3
9/8/2021 7:15:00 AM 19.38 66.884 7.92 347.5 6.6 84.2
9/8/2021 7:30:00 AM 19.35 66.83 7.93 348 6.16 83.5
9/8/2021 7:45:00 AM 19.33 66.794 7.93 348.5 5.12 84.3
9/8/2021 8:00:00 AM 19.31 66.758 7.93 348.6 6.26 84.8
9/8/2021 8:15:00 AM 19.31 66.758 7.93 346.4 6.72 84.7
9/8/2021 8:30:00 AM 19.3 66.74 7.93 349.2 7.45 85
9/8/2021 8:45:00 AM 19.31 66.758 7.94 349.2 7.25 85.2
9/8/2021 9:00:00 AM 19.31 66.758 7.94 349 6.79 86
9/8/2021 9:15:00 AM 19.33 66.794 7.94 349.9 5.88 86.7
9/8/2021 9:30:00 AM 19.34 66.812 7.94 350.2 5.66 86.6
9/8/2021 9:45:00 AM 19.35 66.83 7.95 350.4 6.51 87.2
9/8/2021 10:00:00 AM 19.37 66.866 7.95 350.6 5.16 87.2
9/8/2021 10:15:00 AM 19.39 66.902 7.95 351 5.99 87.3
9/8/2021 10:30:00 AM 19.41 66.938 7.96 351.3 4.56 88.2
9/8/2021 10:45:00 AM 19.44 66.992 7.97 351.5 4.59 88.9
9/8/2021 11:00:00 AM 19.47 67.046 7.97 351.7 4.37 89
9/8/2021 11:15:00 AM 19.52 67.136 7.98 352 5.55 89.2
9/8/2021 11:30:00 AM 19.58 67.244 7.98 352.2 4.85 90.2
9/8/2021 11:45:00 AM 19.66 67.388 7.98 352.5 4.68 90.4
9/8/2021 12:00:00 PM 19.76 67.568 7.99 353 6 90.5
9/8/2021 12:15:00 PM 19.87 67.766 7.99 353.2 4.68 91.6
9/8/2021 12:30:00 PM 19.94 67.892 7.99 353.4 5.25 91.8
9/8/2021 12:45:00 PM 20.05 68.09 8 353.9 5.36 93
9/8/2021 1:00:00 PM 20.17 68.306 8.01 354.3 5.05 93.3
9/8/2021 1:15:00 PM 20.27 68.486 8 354.5 6.05 93.5
9/8/2021 1:30:00 PM 20.36 68.648 8 354.9 5.36 92.9
9/8/2021 1:45:00 PM 20.53 68.954 8.01 355.3 5.43 93.9
9/8/2021 2:00:00 PM 20.65 69.17 8.01 355.5 5.37 94.2
9/8/2021 2:15:00 PM 20.72 69.296 8.01 356 5.98 94.4
9/8/2021 2:30:00 PM 20.8 69.44 8.12 356.4 5.84 94.4
9/8/2021 2:45:00 PM 20.83 69.494 8.1 356.8 4.24 94.5
9/8/2021 3:00:00 PM 20.96 69.728 8.1 357.3 5.96 94.8
9/8/2021 3:15:00 PM 21.05 69.89 8.09 357.8 6.18 95.1
9/8/2021 3:30:00 PM 21.02 69.836 8.09 357.7 6.75 95.9
9/8/2021 3:45:00 PM 21.12 70.016 8.09 357.9 6.37 95.7
9/8/2021 4:00:00 PM 21.16 70.088 8.09 358.1 6.68 96.4
9/8/2021 4:15:00 PM 21.21 70.17799 8.09 358.4 6.04 96.2
9/8/2021 4:30:00 PM 21.25 70.25 8.09 358.6 6.2 95.7
9/8/2021 4:45:00 PM 21.27 70.286 8.09 358.8 5.8 95.6
9/8/2021 5:00:00 PM 21.24 70.232 8.09 358.9 5.27 95.6
9/8/2021 5:15:00 PM 21.18 70.124 8.09 359.2 5.81 95
9/8/2021 5:30:00 PM 21.11 69.998 8.09 359.3 7.34 94.3
9/8/2021 5:45:00 PM 21.05 69.89 8.08 359.6 6.3 93.8
9/8/2021 6:00:00 PM 21 69.8 8.08 359.9 5.41 92.7
9/8/2021 6:15:00 PM 20.96 69.728 8.08 359.9 5.25 92.7
9/8/2021 6:30:00 PM 20.93 69.674 8.07 360.3 5.59 92.3
9/8/2021 6:45:00 PM 20.91 69.638 8.07 360.4 7.21 91.4
9/8/2021 7:00:00 PM 20.9 69.62 8.06 360.8 4.93 91.5
9/8/2021 7:15:00 PM 20.9 69.62 8.06 361 5.2 90.9
9/8/2021 7:30:00 PM 20.91 69.638 8.06 361.2 7.65 90.2
9/8/2021 7:45:00 PM 20.91 69.638 8.05 361.5 101.5 89.9
9/8/2021 8:00:00 PM 20.93 69.674 8.06 361.7 8.05 89.1
9/8/2021 8:15:00 PM 20.94 69.692 8.05 361.8 6.32 89.3
9/8/2021 8:30:00 PM 20.96 69.728 8.04 361.2 10.65 89.2
9/8/2021 8:45:00 PM 20.98 69.764 8.04 362.2 8.89 88.9
9/8/2021 9:00:00 PM 20.99 69.782 8.05 359.8 36.89 88.8
9/8/2021 9:15:00 PM 21 69.8 8.04 355.5 12.57 88.9
9/8/2021 9:30:00 PM 21.07 69.926 8.05 351.3 10.36 89.3
9/8/2021 9:45:00 PM 21.08 69.944 8.04 351.8 11.28 87.5
9/8/2021 10:00:00 PM 21.09 69.962 8.04 349.9 7.87 87.4
9/8/2021 10:15:00 PM 21.12 70.016 8.03 350.7 29.16 88.2
9/8/2021 10:30:00 PM 21.14 70.052 8.02 353.7 20.65 87.9
9/8/2021 10:45:00 PM 21.16 70.088 8.03 356.3 10.12 88.4
9/8/2021 11:00:00 PM 21.18 70.124 8.03 357.5 10.51 88.2
9/8/2021 11:15:00 PM 21.19 70.142 8.02 358.5 13.23 87.8
9/8/2021 11:30:00 PM 21.2 70.16 8.04 359.4 18.67 88.5
9/8/2021 11:45:00 PM 21.21 70.17799 8.03 360.2 16.72 88.6
9/9/2021 12:00:00 AM 21.22 70.196 8.03 361.2 13.78 88.9
9/9/2021 12:15:00 AM 21.23 70.214 8.03 362 17.7 89.2
9/9/2021 12:30:00 AM 21.24 70.232 8.04 362.7 17.23 88.9
9/9/2021 12:45:00 AM 21.24 70.232 8.04 363.2 11.38 89
9/9/2021 1:00:00 AM 21.24 70.232 8.04 363.8 14.52 89.2
9/9/2021 1:15:00 AM 21.24 70.232 8.04 364.1 13.2 89
9/9/2021 1:30:00 AM 21.23 70.214 8.04 364.7 14.33 88.9
9/9/2021 1:45:00 AM 21.22 70.196 8.04 365.1 13.4 88.7
9/9/2021 2:00:00 AM 21.2 70.16 8.03 365.4 14.29 89.1
9/9/2021 2:15:00 AM 21.19 70.142 8.03 365.6 15.71 88.7
9/9/2021 2:30:00 AM 21.17 70.106 8.03 365.8 12.58 88.9
9/9/2021 2:45:00 AM 21.15 70.07 8.02 366.1 13.33 88.7
9/9/2021 3:00:00 AM 21.12 70.016 8.02 366.4 12.79 88.4
9/9/2021 3:15:00 AM 21.1 69.98 8.02 367 11.64 88.6
9/9/2021 3:30:00 AM 21.08 69.944 8.02 367 13.4 88.4
9/9/2021 3:45:00 AM 21.06 69.908 8.01 367.2 17.91 88.3
9/9/2021 4:00:00 AM 21.03 69.854 8.01 367.2 16.73 88.1
9/9/2021 4:15:00 AM 21 69.8 8.01 367.2 15.94 88.1
9/9/2021 4:30:00 AM 20.98 69.764 8 367.3 15.94 87.3
9/9/2021 4:45:00 AM 20.95 69.71 8 367.7 14.75 87.5
9/9/2021 5:00:00 AM 20.93 69.674 8 367.8 16.82 87.5
9/9/2021 5:15:00 AM 20.89 69.602 7.99 368 18.13 87.4
9/9/2021 5:30:00 AM 20.86 69.548 7.99 368.4 16.16 87.2
9/9/2021 5:45:00 AM 20.83 69.494 7.98 368.5 17.27 87
9/9/2021 6:00:00 AM 20.8 69.44 7.98 368.8 11.2 86.5
9/9/2021 6:15:00 AM 20.76 69.368 7.98 369 11 86.8
9/9/2021 6:30:00 AM 20.73 69.314 7.98 369.5 14.95 86.9
9/9/2021 6:45:00 AM 20.7 69.26 7.97 369.4 11.24 86.5
9/9/2021 7:00:00 AM 20.67 69.206 7.97 369.4 11.46 86.2
9/9/2021 7:15:00 AM 20.64 69.152 7.96 366.2 12.35 86
9/9/2021 7:30:00 AM 20.61 69.098 7.96 367.4 13.24 86
9/9/2021 7:45:00 AM 20.59 69.062 7.96 369.2 14.04 86.1
9/9/2021 8:00:00 AM 20.56 69.008 7.96 369.1 12.51 86.6
9/9/2021 8:15:00 AM 20.54 68.972 7.96 369.5 12.49 86.7
9/9/2021 8:30:00 AM 20.52 68.936 7.96 369.4 11.28 86.6
9/9/2021 8:45:00 AM 20.51 68.918 7.96 369.3 12.59 86.8
9/9/2021 9:00:00 AM 20.49 68.882 7.96 369.3 12.27 86.8
9/9/2021 9:15:00 AM 20.48 68.864 7.96 368.9 11.94 86.6
9/9/2021 9:30:00 AM 20.47 68.846 7.96 368.3 13.12 86.9
9/9/2021 9:45:00 AM 20.47 68.846 7.95 368.5 11.7 86.9
9/9/2021 10:00:00 AM 20.46 68.828 7.95 368.3 11.94 87.4
9/9/2021 10:15:00 AM 20.45 68.81 7.96 368.3 13.25 88.1
9/9/2021 10:30:00 AM 20.44 68.792 7.96 368.4 12.54 88.3
9/9/2021 10:45:00 AM 20.43 68.774 7.96 368.4 22.46 88.3
9/9/2021 11:00:00 AM 20.43 68.774 7.96 368.5 12.46 88.6
9/9/2021 11:15:00 AM 20.44 68.792 7.96 368.6 12.4 89.3
9/9/2021 11:30:00 AM 20.44 68.792 7.97 368.8 16.87 89.1
9/9/2021 11:45:00 AM 20.44 68.792 7.97 368.9 12.18 89.7
9/9/2021 12:00:00 PM 20.45 68.81 7.96 369 12.67 90.3
9/9/2021 12:15:00 PM 20.46 68.828 7.96 368.7 11.48 90.7
9/9/2021 12:30:00 PM 20.47 68.846 7.97 368.6 12.41 91.1
9/9/2021 12:45:00 PM 20.48 68.864 7.97 369.3 12.32 91.4
9/9/2021 1:00:00 PM 20.45 68.81 7.98 370.1 12.39 91.6
9/9/2021 1:15:00 PM 20.44 68.792 7.97 370.1 11.43 91.6
9/9/2021 1:30:00 PM 20.44 68.792 7.97 370.3 11.42 91.8
9/9/2021 1:45:00 PM 20.49 68.882 7.98 370.3 11.01 91.3
9/9/2021 2:00:00 PM 20.49 68.882 7.98 370.5 11.59 91.9
9/9/2021 2:15:00 PM 20.53 68.954 7.98 370.7 11.58 92
9/9/2021 2:30:00 PM 20.58 69.044 7.99 370.9 10.84 92.2
9/9/2021 2:45:00 PM 20.77 69.386 8 371.1 13.16 93.3
9/9/2021 3:00:00 PM 20.92 69.656 8.01 371.7 12.06 94.4
9/9/2021 3:15:00 PM 21.08 69.944 8 371.8 12.03 95.5
9/9/2021 3:30:00 PM 21.16 70.088 8.01 372.2 12.91 95.1
9/9/2021 3:45:00 PM 21.26 70.268 8.02 372.1 10.8 95.6
9/9/2021 4:00:00 PM 21.34 70.412 8.01 372.3 11.53 96.3
9/9/2021 4:15:00 PM 21.2 70.16 8.03 372.4 10.79 95.5
9/9/2021 4:30:00 PM 21.06 69.908 8.04 372.4 11.14 94.5
9/9/2021 4:45:00 PM 20.93 69.674 8.05 371.9 10.94 93.7
9/9/2021 5:00:00 PM 20.8 69.44 8.03 371.7 11.31 91.6
9/9/2021 5:15:00 PM 20.68 69.224 8.03 371.5 12.85 90.5
9/9/2021 5:30:00 PM 20.58 69.044 8.03 371.2 13.46 89.8
9/9/2021 5:45:00 PM 20.53 68.954 8.01 371.1 11.12 89.4
9/9/2021 6:00:00 PM 20.51 68.918 8.01 371 12.93 89.2
9/9/2021 6:15:00 PM 20.51 68.918 8 371.3 15.63 89.5
9/9/2021 6:30:00 PM 20.51 68.918 8.01 371.3 11.74 89.5
9/9/2021 6:45:00 PM 20.52 68.936 8.02 371.3 11.52 90.1
9/9/2021 7:00:00 PM 20.51 68.918 8.02 371.2 12.32 90.1
9/9/2021 7:15:00 PM 20.48 68.864 8.02 371.2 11.76 89.8
9/9/2021 7:30:00 PM 20.45 68.81 8.01 371.1 13.36 89.8
9/9/2021 7:45:00 PM 20.41 68.738 8.02 371.1 81.5 89.6
9/9/2021 8:00:00 PM 20.38 68.684 8.02 371.3 11.3 87.9
9/9/2021 8:15:00 PM 20.36 68.648 8.01 371.2 34.33 88.5
9/9/2021 8:30:00 PM 20.33 68.594 8.02 371.2 18.4 88.9
9/9/2021 8:45:00 PM 20.32 68.576 8.03 371.2 13.89 88.4
9/9/2021 9:00:00 PM 20.3 68.54 8.02 371.2 16.03 88.2
9/9/2021 9:15:00 PM 20.3 68.54 8.02 371.2 15.47 88.2
9/9/2021 9:30:00 PM 20.29 68.522 8.02 371.3 16.35 89.3
9/9/2021 9:45:00 PM 20.28 68.504 8.01 371.4 23.76 88
9/9/2021 10:00:00 PM 20.27 68.486 8.02 371.6 15.96 88.2
9/9/2021 10:15:00 PM 20.27 68.486 8.03 371.8 17.03 88.5
9/9/2021 10:30:00 PM 20.25 68.45 8.03 371.8 36.39 88.3
9/9/2021 10:45:00 PM 20.24 68.432 8.04 372.1 170.6 88.9
9/9/2021 11:00:00 PM 20.23 68.414 8.03 372.3 13.91 89.5
9/9/2021 11:15:00 PM 20.23 68.414 8.04 372.4 20.4 89.5
9/9/2021 11:30:00 PM 20.21 68.378 8.05 372.5 11.22 89.8
9/9/2021 11:45:00 PM 20.2 68.36 8.03 372.6 12.55 89.6
9/10/2021 12:00:00 AM 20.18 68.324 8.04 372.9 14.39 89.9
9/10/2021 12:15:00 AM 20.15 68.27 8.04 373.1 15.89 89.4
9/10/2021 12:30:00 AM 20.13 68.234 8.04 373.4 16.5 89.6
9/10/2021 12:45:00 AM 20.09 68.162 8.03 373.7 8.92 90.1
9/10/2021 1:00:00 AM 20.06 68.108 8.03 373.6 8.56 89.8
9/10/2021 1:15:00 AM 20.02 68.036 8.04 373.9 12.76 89.5
9/10/2021 1:30:00 AM 19.98 67.964 8.03 374 10.7 89.4
9/10/2021 1:45:00 AM 19.93 67.874 8.03 374 12.64 89.5
9/10/2021 2:00:00 AM 19.89 67.802 8.03 374.1 11.89 89.1
9/10/2021 2:15:00 AM 19.85 67.73 8.04 374.4 16.44 89.4
9/10/2021 2:30:00 AM 19.8 67.64 8.03 374.2 15.86 89.2
9/10/2021 2:45:00 AM 19.76 67.568 8.02 374.3 14.97 89
9/10/2021 3:00:00 AM 19.71 67.478 8.02 374.3 13.53 89.1
9/10/2021 3:15:00 AM 19.66 67.388 8.02 374.5 14.09 88.6
9/10/2021 3:30:00 AM 19.61 67.298 8.02 374.6 13.21 89
9/10/2021 3:45:00 AM 19.56 67.208 8.02 374.9 9.25 89.1
9/10/2021 4:00:00 AM 19.52 67.136 8.04 375.1 9.59 88.9
9/10/2021 4:15:00 AM 19.47 67.046 8.07 375.3 15.29 88.7
9/10/2021 4:30:00 AM 19.43 66.974 8.08 375.5 12.85 88.5
9/10/2021 4:45:00 AM 19.39 66.902 8.08 375.5 8.92 88.8
9/10/2021 5:00:00 AM 19.34 66.812 8.04 375.7 18.74 88.5
9/10/2021 5:15:00 AM 19.3 66.74 8.04 375.9 16.15 88
9/10/2021 5:30:00 AM 19.25 66.65 8.04 376 17.7 88.3
9/10/2021 5:45:00 AM 19.2 66.56 8.02 376.5 17.25 88.5
9/10/2021 6:00:00 AM 19.14 66.452 8.06 375.5 15.53 88.5
9/10/2021 6:15:00 AM 19.1 66.38 8.08 377.1 8.1 87.2
9/10/2021 6:30:00 AM 19.05 66.29 8.01 377.5 7.11 86.8
9/10/2021 6:45:00 AM 19 66.2 8.03 377.8 6.53 87.6
9/10/2021 7:00:00 AM 18.95 66.11 8 376.6 6.39 87
9/10/2021 7:15:00 AM 18.91 66.038 8 378.3 5.67 87.2
9/10/2021 7:30:00 AM 18.87 65.966 8 378.6 10.79 87.5
9/10/2021 7:45:00 AM 18.84 65.912 8 378.7 7.12 88.3
9/10/2021 8:00:00 AM 18.81 65.858 8 379 7.4 87.4
9/10/2021 8:15:00 AM 18.77 65.786 8 378.5 6.55 87.8
9/10/2021 8:30:00 AM 18.74 65.732 8 379.4 7.85 88.2
9/10/2021 8:45:00 AM 18.71 65.67799 8.01 378.7 12.93 88.7
9/10/2021 9:00:00 AM 18.69 65.642 8.01 380.1 7.4 89.1
9/10/2021 9:15:00 AM 18.66 65.588 8.01 379.9 6.27 89.1
9/10/2021 9:30:00 AM 18.65 65.57 8 379.8 6.25 89
9/10/2021 9:45:00 AM 18.64 65.552 8.01 376.9 7.04 89.7
9/10/2021 10:00:00 AM 18.64 65.552 8.02 380.2 9.98 89.8
9/10/2021 10:15:00 AM 18.66 65.588 8.03 379.9 6.73 91
9/10/2021 10:30:00 AM 18.67 65.606 8.03 379.8 9.95 91.3
9/10/2021 10:45:00 AM 18.71 65.67799 8.03 380.4 11.02 92.5
9/10/2021 11:00:00 AM 18.75 65.75 8.04 381 5.72 93.1
9/10/2021 11:15:00 AM 18.78 65.804 8.04 380.3 5.93 93.2
9/10/2021 11:30:00 AM 18.83 65.894 8.04 379 5.4 93.5
9/10/2021 11:45:00 AM 18.87 65.966 8.05 380.5 7.55 94.1
9/10/2021 12:00:00 PM 18.94 66.092 8.09 380.8 5.71 94.5
9/10/2021 12:15:00 PM 18.97 66.146 8.06 380.7 6.73 95
9/10/2021 12:30:00 PM 19.03 66.254 8.06 380.3 6.04 95
9/10/2021 12:45:00 PM 19.08 66.344 8.07 380.6 7.27 95.8
9/10/2021 1:00:00 PM 19.14 66.452 8.07 380.7 9.34 95.5
9/10/2021 1:15:00 PM 19.16 66.488 8.08 380.9 12.39 95.1
9/10/2021 1:30:00 PM 19.22 66.596 8.08 380.8 8.82 96.1
9/10/2021 1:45:00 PM 19.33 66.794 8.08 380.9 8.26 96
9/10/2021 2:00:00 PM 19.48 67.064 8.08 380.9 9.66 97.2
9/10/2021 2:15:00 PM 19.59 67.262 8.08 380.2 12.32 97.7
9/10/2021 2:30:00 PM 19.67 67.406 8.08 380.8 9.69 98.1
9/10/2021 2:45:00 PM 19.83 67.694 8.09 381.3 6.8 99
9/10/2021 3:00:00 PM 19.93 67.874 8.1 381.6 7.15 99.8
9/10/2021 3:15:00 PM 19.94 67.892 8.1 381.8 4.92 100
9/10/2021 3:30:00 PM 20.01 68.018 8.11 381.7 4.95 100
9/10/2021 3:45:00 PM 20.05 68.09 8.13 381.7 4.83 100.5
9/10/2021 4:00:00 PM 20.11 68.198 8.11 381.1 8.07 100.3
9/10/2021 4:15:00 PM 20.12 68.216 8.14 381.5 6.55 100.5
9/10/2021 4:30:00 PM 20.12 68.216 8.16 381.6 4.77 100.3
9/10/2021 4:45:00 PM 20.1 68.18 8.12 381.4 6.97 100.1
9/10/2021 5:00:00 PM 20.03 68.054 8.12 381.4 5.77 98.1
9/10/2021 5:15:00 PM 19.94 67.892 8.12 380.7 4.69 98.9
9/10/2021 5:30:00 PM 19.86 67.748 8.12 380.6 4.92 99
9/10/2021 5:45:00 PM 19.75 67.55 8.12 381.4 5.46 98.2
9/10/2021 6:00:00 PM 19.64 67.352 8.13 380.6 11.12 97.2
9/10/2021 6:15:00 PM 19.57 67.226 8.13 381.6 10.98 96.6
9/10/2021 6:30:00 PM 19.5 67.1 8.12 381.6 8.21 96.1
9/10/2021 6:45:00 PM 19.45 67.01 8.13 381.6 8.43 95.5
9/10/2021 7:00:00 PM 19.41 66.938 8.13 381.7 8.61 95
9/10/2021 7:15:00 PM 19.38 66.884 8.13 381.8 18.7 93
9/10/2021 7:30:00 PM 19.35 66.83 8.14 381.9 12.69 93.5
9/10/2021 7:45:00 PM 19.32 66.776 8.12 382 12.91 92.3
9/10/2021 8:00:00 PM 19.3 66.74 8.14 382.5 1365 93
9/10/2021 8:15:00 PM 19.29 66.722 8.15 382.6 16.27 92.6
9/10/2021 8:30:00 PM 19.28 66.704 8.14 382.9 23.69 92.6
9/10/2021 8:45:00 PM 19.28 66.704 8.16 382.9 9.94 92.8
9/10/2021 9:00:00 PM 19.28 66.704 8.1 383.3 23.92 92.1
9/10/2021 9:15:00 PM 19.28 66.704 8.1 383.5 27.71 92.7
9/10/2021 9:30:00 PM 19.28 66.704 8.12 383.7 15.99 93.2
9/10/2021 9:45:00 PM 19.29 66.722 8.1 384.2 31.86 93
9/10/2021 10:00:00 PM 19.29 66.722 8.11 384.3 6.86 93
9/10/2021 10:15:00 PM 19.3 66.74 8.12 384.8 20.37 92.7
9/10/2021 10:30:00 PM 19.31 66.758 8.13 385.3 11.72 93
9/10/2021 10:45:00 PM 19.33 66.794 8.14 385.6 9.9 92.9
9/10/2021 11:00:00 PM 19.34 66.812 8.13 385.9 9.95 93.2
9/10/2021 11:15:00 PM 19.34 66.812 8.14 386.2 13.55 93.1
9/10/2021 11:30:00 PM 19.35 66.83 8.14 386.6 16.03 93.1
9/10/2021 11:45:00 PM 19.35 66.83 8.13 387 9.05 92.8
9/11/2021 12:00:00 AM 19.35 66.83 8.14 387.1 7.79 92.9
9/11/2021 12:15:00 AM 19.34 66.812 8.14 387.4 10.5 93
9/11/2021 12:30:00 AM 19.32 66.776 8.14 387.6 6.93 92.9
9/11/2021 12:45:00 AM 19.29 66.722 8.14 388 6.72 92.8
9/11/2021 1:00:00 AM 19.26 66.668 8.14 388.1 20.07 93.4
9/11/2021 1:15:00 AM 19.23 66.614 8.14 388.3 8.15 92.9
9/11/2021 1:30:00 AM 19.19 66.542 8.14 388.5 12.51 93.1
9/11/2021 1:45:00 AM 19.14 66.452 8.13 388.9 5.39 93
9/11/2021 2:00:00 AM 19.1 66.38 8.13 389 5.8 92.5
9/11/2021 2:15:00 AM 19.05 66.29 8.15 389.2 5.41 92.2
9/11/2021 2:30:00 AM 19 66.2 8.17 389.4 5.3 92.6
9/11/2021 2:45:00 AM 18.95 66.11 8.17 389.6 5.55 92.6
9/11/2021 3:00:00 AM 18.89 66.002 8.16 389.9 3.03 92.6
9/11/2021 3:15:00 AM 18.84 65.912 8.15 390.2 6 92.4
9/11/2021 3:30:00 AM 18.8 65.84 8.15 390.3 16.04 92.4
9/11/2021 3:45:00 AM 18.75 65.75 8.14 390.3 6.75 92.2
9/11/2021 4:00:00 AM 18.7 65.66 8.13 390.5 10.94 92
9/11/2021 4:15:00 AM 18.65 65.57 8.11 390.6 7.26 92
9/11/2021 4:30:00 AM 18.6 65.48 8.11 390.6 4.4 73.9
9/11/2021 4:45:00 AM 18.56 65.408 8.1 390.7 4.24 33.4
9/11/2021 5:00:00 AM 18.52 65.336 8.12 390.7 4.59 87.2
9/11/2021 5:15:00 AM 18.47 65.246 8.09 390.7 8.01 88.8
9/11/2021 5:30:00 AM 18.43 65.174 8.1 390.8 10.38 89.6
9/11/2021 5:45:00 AM 18.39 65.102 8.09 390.7 4.69 90.3
9/11/2021 6:00:00 AM 18.34 65.012 8.07 391 6.49 87.8
9/11/2021 6:15:00 AM 18.3 64.94 8.08 391 3.4 89.5
9/11/2021 6:30:00 AM 18.26 64.868 8.08 391.1 3.94 64.7
9/11/2021 6:45:00 AM 18.22 64.796 8.08 391.1 4.56 87.8
9/11/2021 7:00:00 AM 18.18 64.724 8.08 391 3.99 89.9
9/11/2021 7:15:00 AM 18.15 64.67 8.07 391 6.63 89.9
9/11/2021 7:30:00 AM 18.12 64.616 8.07 391.1 5.16 89.5
9/11/2021 7:45:00 AM 18.09 64.562 8.06 391.3 6.69 89.2
9/11/2021 8:00:00 AM 18.08 64.544 8.07 391.3 4.52 89.8
9/11/2021 8:15:00 AM 18.07 64.526 8.07 391.4 4.62 90.4
9/11/2021 8:30:00 AM 18.06 64.508 8.07 391.4 5.27 91.1
9/11/2021 8:45:00 AM 18.07 64.526 8.07 391.5 5 91.1
9/11/2021 9:00:00 AM 18.07 64.526 8.07 391.4 4.36 91.6
9/11/2021 9:15:00 AM 18.07 64.526 8.07 391.5 6.14 91.9
9/11/2021 9:30:00 AM 18.08 64.544 8.07 391.6 4.25 92.2
9/11/2021 9:45:00 AM 18.09 64.562 8.08 391.6 4.33 92.9
9/11/2021 10:00:00 AM 18.11 64.598 8.08 391.5 4.78 93
9/11/2021 10:15:00 AM 18.13 64.634 8.08 391.7 5.13 93.6
9/11/2021 10:30:00 AM 18.16 64.688 8.08 391.6 4.68 94.4
9/11/2021 10:45:00 AM 18.2 64.76 8.09 391.6 5.08 94.9
9/11/2021 11:00:00 AM 18.25 64.85 8.1 391.5 4.96 95.8
9/11/2021 11:15:00 AM 18.3 64.94 8.1 391.4 5.31 96.2
9/11/2021 11:30:00 AM 18.36 65.048 8.1 391.4 5.74 97
9/11/2021 11:45:00 AM 18.43 65.174 8.11 391.2 5.23 97.5
9/11/2021 12:00:00 PM 18.47 65.246 8.11 391.3 5.01 97.9
9/11/2021 12:15:00 PM 18.54 65.372 8.12 391.3 5.13 98.2
9/11/2021 12:30:00 PM 18.66 65.588 8.12 391.4 4.63 99
9/11/2021 12:45:00 PM 18.79 65.82201 8.12 391.6 5.81 99.6
9/11/2021 1:00:00 PM 18.98 66.164 8.12 391.1 4.68 100.3
9/11/2021 1:15:00 PM 19.08 66.344 8.12 391.5 5.45 100.6
9/11/2021 1:30:00 PM 19.25 66.65 8.13 391.4 5.32 101.3
9/11/2021 1:45:00 PM 19.37 66.866 8.13 391.7 4.92 101.5
9/11/2021 2:00:00 PM 19.53 67.154 8.13 391.7 4.96 102.2
9/11/2021 2:15:00 PM 19.53 67.154 8.13 392 4.78 102.2
9/11/2021 2:30:00 PM 19.6 67.28 8.14 391.9 4.63 102.1
9/11/2021 2:45:00 PM 19.71 67.478 8.13 393 4.43 102.3
9/11/2021 3:00:00 PM 19.64 67.352 8.13 392.4 4.83 101.9
9/11/2021 3:15:00 PM 19.54 67.172 8.13 392.4 4.54 101
9/11/2021 3:30:00 PM 19.53 67.154 8.13 392.4 5.52 101.4
9/11/2021 3:45:00 PM 19.55 67.19 8.13 392.9 4.34 101.3
9/11/2021 4:00:00 PM 19.72 67.496 8.14 393 5.19 101.6
9/11/2021 4:15:00 PM 19.69 67.442 8.14 393 4.47 102
9/11/2021 4:30:00 PM 19.74 67.532 8.13 393.3 8.16 101.8
9/11/2021 4:45:00 PM 19.73 67.514 8.2 392.9 3.53 102.2
9/11/2021 5:00:00 PM 19.69 67.442 8.16 393.2 2.78 101.8
9/11/2021 5:15:00 PM 19.64 67.352 8.17 393 2.62 101.5
9/11/2021 5:30:00 PM 19.53 67.154 8.16 393.1 3.08 101.1
9/11/2021 5:45:00 PM 19.41 66.938 8.16 393.3 3.16 100.5
9/11/2021 6:00:00 PM 19.3 66.74 8.15 393.4 3.05 99.3
9/11/2021 6:15:00 PM 19.2 66.56 8.15 393.5 3.3 98.4
9/11/2021 6:30:00 PM 19.12 66.416 8.14 393.5 5.62 97.5
9/11/2021 6:45:00 PM 19.06 66.308 8.13 393.7 6.86 96.8
9/11/2021 7:00:00 PM 19 66.2 8.13 393.8 7.71 95.7
9/11/2021 7:15:00 PM 18.97 66.146 8.12 393.9 2.46 95.4
9/11/2021 7:30:00 PM 18.93 66.074 8.11 394 2.3 94.6
9/11/2021 7:45:00 PM 18.9 66.02 8.12 394.3 22.05 94.4
9/11/2021 8:00:00 PM 18.88 65.984 8.12 394.2 5.19 92.4
9/11/2021 8:15:00 PM 18.86 65.948 8.12 394.2 3.48 91.9
9/11/2021 8:30:00 PM 18.85 65.93 8.12 394.3 4.68 90.8
9/11/2021 8:45:00 PM 18.84 65.912 8.09 394.3 3.24 90.7
9/11/2021 9:00:00 PM 18.83 65.894 8.1 394.5 5.06 86.3
9/11/2021 9:15:00 PM 18.83 65.894 8.12 394.5 11.81 89.6
9/11/2021 9:30:00 PM 18.82 65.876 8.11 394.8 3.31 91.5
9/11/2021 9:45:00 PM 18.82 65.876 8.12 395 3.45 91.7
9/11/2021 10:00:00 PM 18.83 65.894 8.16 395.3 3.86 91.8
9/11/2021 10:15:00 PM 18.84 65.912 8.14 395.4 3.66 90.7
9/11/2021 10:30:00 PM 18.85 65.93 8.15 395.6 27.9 91.5
9/11/2021 10:45:00 PM 18.86 65.948 8.15 395.8 6.56 92.6
9/11/2021 11:00:00 PM 18.88 65.984 8.15 396 5.01 93
9/11/2021 11:15:00 PM 18.89 66.002 8.15 396.2 24.43 93.2
9/11/2021 11:30:00 PM 18.91 66.038 8.16 396.4 3.9 67.2
9/11/2021 11:45:00 PM 18.93 66.074 8.17 396.6 9.85 90.9
9/12/2021 12:00:00 AM 18.96 66.128 8.18 396.7 4.09 91.4
9/12/2021 12:15:00 AM 18.97 66.146 8.18 397 8.67 91.3
9/12/2021 12:30:00 AM 18.99 66.182 8.17 397.1 9.13 93.8
9/12/2021 12:45:00 AM 19 66.2 8.18 397.4 4.99 93.8
9/12/2021 1:00:00 AM 19.01 66.218 8.18 397.6 6.67 93.9
9/12/2021 1:15:00 AM 19.03 66.254 8.19 397.9 4.9 93.6
9/12/2021 1:30:00 AM 19.04 66.272 8.17 398.1 9.35 91.3
9/12/2021 1:45:00 AM 19.05 66.29 8.17 398.3 11.28 93.6
9/12/2021 2:00:00 AM 19.05 66.29 8.23 398.6 4.86 93.5
9/12/2021 2:15:00 AM 19.05 66.29 8.22 398.9 11.85 93.9
9/12/2021 2:30:00 AM 19.05 66.29 8.21 399 9.37 93.7
9/12/2021 2:45:00 AM 19.05 66.29 8.19 399.3 8.28 93.6
9/12/2021 3:00:00 AM 19.03 66.254 8.21 399.6 6.6 93.5
9/12/2021 3:15:00 AM 19.02 66.236 8.19 399.8 6.72 93.4
9/12/2021 3:30:00 AM 19 66.2 8.16 400 4.4 93
9/12/2021 3:45:00 AM 18.99 66.182 8.16 400.3 5.71 93.6
9/12/2021 4:00:00 AM 18.96 66.128 8.16 400.6 5.15 93.2
9/12/2021 4:15:00 AM 18.93 66.074 8.15 400.7 6.2 93.1
9/12/2021 4:30:00 AM 18.91 66.038 8.14 401.1 6.41 92.8
9/12/2021 4:45:00 AM 18.88 65.984 8.13 401.3 6.33 92.9
9/12/2021 5:00:00 AM 18.85 65.93 8.14 401.7 10.74 92.5
9/12/2021 5:15:00 AM 18.82 65.876 8.15 402.1 8.69 92.6
9/12/2021 5:30:00 AM 18.79 65.82201 8.13 402.4 6.6 92.2
9/12/2021 5:45:00 AM 18.76 65.768 8.13 402.8 9.29 91.8
9/12/2021 6:00:00 AM 18.73 65.714 8.13 403.1 10.41 91.7
9/12/2021 6:15:00 AM 18.71 65.67799 8.11 403.5 4.49 91.4
9/12/2021 6:30:00 AM 18.68 65.624 8.1 403.7 4.54 91.2
9/12/2021 6:45:00 AM 18.65 65.57 8.13 404.1 4.01 91.4
9/12/2021 7:00:00 AM 18.62 65.516 8.1 404.4 4.19 91.2
9/12/2021 7:15:00 AM 18.59 65.462 8.11 404.6 4.66 90.7
9/12/2021 7:30:00 AM 18.56 65.408 8.13 405 6.48 91.2
9/12/2021 7:45:00 AM 18.55 65.39 8.11 405.4 4.36 91.2
9/12/2021 8:00:00 AM 18.54 65.372 8.11 405.6 3.88 91.5
9/12/2021 8:15:00 AM 18.54 65.372 8.1 405.9 4.65 91.7
9/12/2021 8:30:00 AM 18.54 65.372 8.1 406.3 3.5 92.2
9/12/2021 8:45:00 AM 18.54 65.372 8.09 406.6 4.83 92.5
9/12/2021 9:00:00 AM 18.55 65.39 8.12 406.8 3.95 93.1
9/12/2021 9:15:00 AM 18.58 65.444 8.11 407.2 4.41 93.3
9/12/2021 9:30:00 AM 18.6 65.48 8.14 407.5 4.69 93.6
9/12/2021 9:45:00 AM 18.62 65.516 8.1 407.8 3.95 93.9
9/12/2021 10:00:00 AM 18.64 65.552 8.11 408.1 4.02 95
9/12/2021 10:15:00 AM 18.65 65.57 8.13 408.5 3.71 95.4
9/12/2021 10:30:00 AM 18.68 65.624 8.14 408.6 3.97 96.2
9/12/2021 10:45:00 AM 18.72 65.696 8.14 409.1 3.66 96.8
9/12/2021 11:00:00 AM 18.78 65.804 8.15 409.2 3.8 97.4
9/12/2021 11:15:00 AM 18.84 65.912 8.16 409.6 3.6 98.2
9/12/2021 11:30:00 AM 18.93 66.074 8.16 409.8 3.72 99.1
9/12/2021 11:45:00 AM 19.04 66.272 8.16 410.2 3.57 99.6
9/12/2021 12:00:00 PM 19.16 66.488 8.16 410.4 4.54 100.6
9/12/2021 12:15:00 PM 19.3 66.74 8.17 410.7 3.57 101.6
9/12/2021 12:30:00 PM 19.35 66.83 8.2 410.8 3.41 102
9/12/2021 12:45:00 PM 19.5 67.1 8.18 411.3 3.7 102.9
9/12/2021 1:00:00 PM 19.64 67.352 8.18 411.5 3.96 103.7
9/12/2021 1:15:00 PM 19.74 67.532 8.2 411.9 3.47 103.3
9/12/2021 1:30:00 PM 19.87 67.766 8.17 412.3 4 104
9/12/2021 1:45:00 PM 20 68 8.2 412.5 3.72 104.7
9/12/2021 2:00:00 PM 20.14 68.252 8.18 412.7 3.32 104.1
9/12/2021 2:15:00 PM 20.17 68.306 8.17 413.1 4.04 104.5
9/12/2021 2:30:00 PM 20.24 68.432 8.18 413.7 3.84 105.3
9/12/2021 2:45:00 PM 20.4 68.72 8.17 414.3 4.13 106.3
9/12/2021 3:00:00 PM 20.5 68.9 8.18 414.6 3.8 106.4
9/12/2021 3:15:00 PM 20.6 69.08 8.18 414.7 3.99 106.7
9/12/2021 3:30:00 PM 20.67 69.206 8.18 414.6 3.94 106.9
9/12/2021 3:45:00 PM 20.74 69.332 8.18 415.1 4.1 106.9
9/12/2021 4:00:00 PM 20.78 69.404 8.18 414.9 3.56 106.3
9/12/2021 4:15:00 PM 20.8 69.44 8.18 415 4.85 106.5
9/12/2021 4:30:00 PM 20.79 69.422 8.18 415.3 4.25 105.1
9/12/2021 4:45:00 PM 20.75 69.35 8.18 415.6 6.21 104.2
9/12/2021 5:00:00 PM 20.64 69.152 8.18 415.6 6.61 102.8
9/12/2021 5:15:00 PM 20.53 68.954 8.17 415.7 5.78 102.9
9/12/2021 5:30:00 PM 20.44 68.792 8.17 415.7 8.04 101.2
9/12/2021 5:45:00 PM 20.34 68.612 8.16 415.7 6.14 101.1
9/12/2021 6:00:00 PM 20.23 68.414 8.16 415.6 5.69 100.3
9/12/2021 6:15:00 PM 20.15 68.27 8.15 415.8 6.89 99.6
9/12/2021 6:30:00 PM 20.06 68.108 8.15 415.6 6 98.6
9/12/2021 6:45:00 PM 20 68 8.14 415.9 4.73 97.9
9/12/2021 7:00:00 PM 19.93 67.874 8.15 416.2 7.55 97
9/12/2021 7:15:00 PM 19.86 67.748 8.13 416.3 12.78 96.3
9/12/2021 7:30:00 PM 19.81 67.658 8.13 416.4 11.92 94.4
9/12/2021 7:45:00 PM 19.76 67.568 8.11 417 7.26 92.7
9/12/2021 8:00:00 PM 19.72 67.496 8.12 417 8.15 93.7
9/12/2021 8:15:00 PM 19.69 67.442 8.12 416.6 4.58 91.5
9/12/2021 8:30:00 PM 19.67 67.406 8.11 416.6 4.52 92.5
9/12/2021 8:45:00 PM 19.65 67.37 8.1 416.8 9.71 92.2
9/12/2021 9:00:00 PM 19.64 67.352 8.11 416.6 7.14 91.5
9/12/2021 9:15:00 PM 19.63 67.334 8.1 416.8 3.93 91.5
9/12/2021 9:30:00 PM 19.63 67.334 8.1 416.2 7.48 92.1
9/12/2021 9:45:00 PM 19.63 67.334 8.11 416.6 4.66 92
9/12/2021 10:00:00 PM 19.64 67.352 8.11 416.7 11.38 92.5
9/12/2021 10:15:00 PM 19.65 67.37 8.12 416.8 17.46 92.3
9/12/2021 10:30:00 PM 19.66 67.388 8.14 416.9 44.82 91.9
9/12/2021 10:45:00 PM 19.68 67.424 8.15 417.1 1.9 92.6
9/12/2021 11:00:00 PM 19.7 67.46 8.16 417 2.45 93
9/12/2021 11:15:00 PM 19.72 67.496 8.17 417.1 6.3 92.6
9/12/2021 11:30:00 PM 19.75 67.55 8.16 417.2 5.29 93.2
9/12/2021 11:45:00 PM 19.77 67.586 8.16 417.1 3.51 93.4
9/13/2021 12:00:00 AM 19.8 67.64 8.17 417 98.45 93.3
9/13/2021 12:15:00 AM 19.82 67.676 8.17 417.1 35.05 93.7
9/13/2021 12:30:00 AM 19.85 67.73 8.17 417.1 5.96 93.6
9/13/2021 12:45:00 AM 19.87 67.766 8.17 417.1 29.73 93.8
9/13/2021 1:00:00 AM 19.89 67.802 8.17 417.2 5.67 92.5
9/13/2021 1:15:00 AM 19.92 67.856 8.17 417.2 3.6 93.5
9/13/2021 1:30:00 AM 19.95 67.91 8.17 417.3 4.01 93.8
9/13/2021 1:45:00 AM 19.98 67.964 8.17 417.4 3.83 93.6
9/13/2021 2:00:00 AM 20 68 8.17 417.6 9.98 93.7
9/13/2021 2:15:00 AM 20.02 68.036 8.18 417.7 5.84 93.1
9/13/2021 2:30:00 AM 20.03 68.054 8.17 417.7 19.9 93.3
9/13/2021 2:45:00 AM 20.05 68.09 8.17 417.8 5.25 93.3
9/13/2021 3:00:00 AM 20.07 68.126 8.17 417.9 4.09 93.7
9/13/2021 3:15:00 AM 20.07 68.126 8.17 418 4.57 93.3
9/13/2021 3:30:00 AM 20.08 68.144 8.16 418.3 5.29 93.1
9/13/2021 3:45:00 AM 20.08 68.144 8.17 418.2 7.97 93.3
9/13/2021 4:00:00 AM 20.08 68.144 8.17 418.5 8.94 93.4
9/13/2021 4:15:00 AM 20.07 68.126 8.16 418.6 8.57 93
9/13/2021 4:30:00 AM 20.07 68.126 8.14 418.6 55.67 93.4
9/13/2021 4:45:00 AM 20.06 68.108 8.12 418.8 21.1 92.9
9/13/2021 5:00:00 AM 20.04 68.07201 8.12 418.9 20.98 92.8
9/13/2021 5:15:00 AM 20.03 68.054 8.12 419 7.08 92.7
9/13/2021 5:30:00 AM 20.01 68.018 8.12 419.4 5.62 92.3
9/13/2021 5:45:00 AM 19.99 67.982 8.12 419.4 7.09 91.7
9/13/2021 6:00:00 AM 19.96 67.92799 8.12 419.4 12.16 91.9
9/13/2021 6:15:00 AM 19.94 67.892 8.12 419.5 6.77 91.6
9/13/2021 6:30:00 AM 19.92 67.856 8.11 419.6 11.07 90.7
9/13/2021 6:45:00 AM 19.9 67.82 8.12 419.6 5.11 91.4
9/13/2021 7:00:00 AM 19.87 67.766 8.12 419.9 4.24 90.2
9/13/2021 7:15:00 AM 19.85 67.73 8.12 420.2 4.34 90.3
9/13/2021 7:30:00 AM 19.83 67.694 8.12 420.4 5.07 91
9/13/2021 7:45:00 AM 19.82 67.676 8.11 420.7 5 91
9/13/2021 8:00:00 AM 19.81 67.658 8.11 420.9 3.91 90.5
9/13/2021 8:15:00 AM 19.81 67.658 8.11 421 4.21 91.5
9/13/2021 8:30:00 AM 19.82 67.676 8.12 421.3 3.76 89.6
9/13/2021 8:45:00 AM 19.83 67.694 8.12 421.6 5.65 88.8
9/13/2021 9:00:00 AM 19.85 67.73 8.12 421.8 4.81 92.8
9/13/2021 9:15:00 AM 19.88 67.784 8.13 421.9 5.2 94
9/13/2021 9:30:00 AM 19.91 67.838 8.13 422.1 4.72 95.3
9/13/2021 9:45:00 AM 19.95 67.91 8.14 422.3 4.09 96.1
9/13/2021 10:00:00 AM 19.99 67.982 8.14 422.4 4.97 97.2
9/13/2021 10:15:00 AM 20.03 68.054 8.15 422.7 4.59 98.1
9/13/2021 10:30:00 AM 20.08 68.144 8.15 422.9 4.79 98.6
9/13/2021 10:45:00 AM 20.14 68.252 8.16 423.2 4.83 99.9
9/13/2021 11:00:00 AM 20.2 68.36 8.16 423.3 4.95 100
9/13/2021 11:15:00 AM 20.25 68.45 8.17 423.6 4.88 100.9
9/13/2021 11:30:00 AM 20.32 68.576 8.17 423.8 4.27 101.4
9/13/2021 11:45:00 AM 20.41 68.738 8.17 424 4.39 102.4
9/13/2021 12:00:00 PM 20.54 68.972 8.18 424.5 4.75 102.9
9/13/2021 12:15:00 PM 20.68 69.224 8.18 424.6 4.26 103.8
9/13/2021 12:30:00 PM 20.78 69.404 8.18 425.1 4.42 104.5
9/13/2021 12:45:00 PM 20.83 69.494 8.18 425.5 4.61 104.5
9/13/2021 1:00:00 PM 20.85 69.53 8.18 425.6 4.72 104.1
9/13/2021 1:15:00 PM 20.85 69.53 8.18 425.9 4.23 103.5
9/13/2021 1:30:00 PM 20.83 69.494 8.17 426.4 4.14 102.8
9/13/2021 1:45:00 PM 20.83 69.494 8.16 426.6 4.55 101.5
9/13/2021 2:00:00 PM 20.75 69.35 8.15 427.2 4.26 100.6
9/13/2021 2:15:00 PM 20.75 69.35 8.15 427.4 4.66 98.6
9/13/2021 2:30:00 PM 20.79 69.422 8.15 427.7 4.92 100.5
9/13/2021 2:45:00 PM 20.95 69.71 8.14 428.1 5.19 100.4
9/13/2021 3:00:00 PM 21.02 69.836 8.16 428.3 4.45 100.3
9/13/2021 3:15:00 PM 21.11 69.998 8.17 428.5 4.81 102.3
9/13/2021 3:30:00 PM 21.32 70.376 8.17 428.9 4.65 104.5
9/13/2021 3:45:00 PM 21.45 70.61 8.18 429.1 5.01 106.2
9/13/2021 4:00:00 PM 21.56 70.808 8.19 429.3 4.99 106.7
9/13/2021 4:15:00 PM 21.64 70.952 8.19 429.4 4.86 107.2
9/13/2021 4:30:00 PM 21.69 71.042 8.19 429.6 5.28 107
9/13/2021 4:45:00 PM 21.66 70.988 8.19 429.8 4.97 108.1
9/13/2021 5:00:00 PM 21.63 70.934 8.19 430.4 4.86 107.4
9/13/2021 5:15:00 PM 21.57 70.826 8.18 430.4 5.32 106.7
9/13/2021 5:30:00 PM 21.48 70.664 8.17 430.9 5.23 105.4
9/13/2021 5:45:00 PM 21.38 70.484 8.17 431.6 6.14 103.4
9/13/2021 6:00:00 PM 21.3 70.34 8.16 431.8 4.96 102.4
9/13/2021 6:15:00 PM 21.21 70.17799 8.16 432 4.92 100.5
9/13/2021 6:30:00 PM 21.12 70.016 8.15 432.4 5.86 98
9/13/2021 6:45:00 PM 21.06 69.908 8.15 432.5 6.13 97.9
9/13/2021 7:00:00 PM 20.99 69.782 8.14 432.7 4.98 96.6
9/13/2021 7:15:00 PM 20.93 69.674 8.13 432.7 4.87 92.8
9/13/2021 7:30:00 PM 20.87 69.566 8.12 432.8 12.8 94.8
9/13/2021 7:45:00 PM 20.82 69.476 8.12 432.7 2.9 93.8
9/13/2021 8:00:00 PM 20.78 69.404 8.12 432.9 2.65 92.8
9/13/2021 8:15:00 PM 20.74 69.332 8.11 433.2 3.05 92.3
9/13/2021 8:30:00 PM 20.71 69.278 8.11 433.4 4.03 91.9
9/13/2021 8:45:00 PM 20.69 69.242 8.1 433.9 14.58 91.8
9/13/2021 9:00:00 PM 20.67 69.206 8.12 433.9 4.25 91.2
9/13/2021 9:15:00 PM 20.66 69.188 8.12 434 13.71 90.5
9/13/2021 9:30:00 PM 20.65 69.17 8.12 434 8.9 91.1
9/13/2021 9:45:00 PM 20.65 69.17 8.11 434.1 5.11 90.8
9/13/2021 10:00:00 PM 20.64 69.152 8.11 434.1 2.92 89.3
9/13/2021 10:15:00 PM 20.65 69.17 8.11 434 3.82 82.1
9/13/2021 10:30:00 PM 20.65 69.17 8.11 434.2 2.76 87.9
9/13/2021 10:45:00 PM 20.65 69.17 8.12 434.1 4.2 89.6
9/13/2021 11:00:00 PM 20.65 69.17 8.12 434.2 2.79 91.2
9/13/2021 11:15:00 PM 20.66 69.188 8.11 434.1 4.19 91.5
9/13/2021 11:30:00 PM 20.67 69.206 8.12 434.8 2.97 92.2
9/13/2021 11:45:00 PM 20.68 69.224 8.13 434.3 56.31 91.6
9/14/2021 12:00:00 AM 20.69 69.242 8.14 434.6 6.39 91.7
9/14/2021 12:15:00 AM 20.7 69.26 8.14 434.7 3.63 92.6
9/14/2021 12:30:00 AM 20.71 69.278 8.14 434.2 9.31 91.8
9/14/2021 12:45:00 AM 20.73 69.314 8.14 434.3 13.37 92.4
9/14/2021 1:00:00 AM 20.75 69.35 8.14 434.2 7.82 92.9
9/14/2021 1:15:00 AM 20.76 69.368 8.13 434.4 34.04 92.2
9/14/2021 1:30:00 AM 20.78 69.404 8.13 434.2 9.12 93.3
9/14/2021 1:45:00 AM 20.8 69.44 8.15 434 5.19 93.3
9/14/2021 2:00:00 AM 20.81 69.458 8.16 434.4 12.44 93.5
9/14/2021 2:15:00 AM 20.83 69.494 8.16 434.2 10.76 93.7
9/14/2021 2:30:00 AM 20.84 69.512 8.17 434.5 5.03 93.4
9/14/2021 2:45:00 AM 20.84 69.512 8.18 434.4 6.3 93.8
9/14/2021 3:00:00 AM 20.85 69.53 8.18 434.2 5.89 93.8
9/14/2021 3:15:00 AM 20.86 69.548 8.18 434.2 4.64 93.6
9/14/2021 3:30:00 AM 20.86 69.548 8.19 434.6 10.3 94
9/14/2021 3:45:00 AM 20.86 69.548 8.19 434.6 11.83 93.7
9/14/2021 4:00:00 AM 20.86 69.548 8.19 435 11.45 93.4
9/14/2021 4:15:00 AM 20.86 69.548 8.2 434.7 11.05 93.7
9/14/2021 4:30:00 AM 20.86 69.548 8.19 434.9 11.06 93.4
9/14/2021 4:45:00 AM 20.85 69.53 8.18 435.1 11.06 93.5
9/14/2021 5:00:00 AM 20.85 69.53 8.19 435.1 11.51 93.2
9/14/2021 5:15:00 AM 20.84 69.512 8.18 435.3 11.2 93
9/14/2021 5:30:00 AM 20.82 69.476 8.17 435.4 11.77 93.2
9/14/2021 5:45:00 AM 20.81 69.458 8.18 435.5 10.07 92.7
9/14/2021 6:00:00 AM 20.8 69.44 8.17 435.6 11.54 92.3
9/14/2021 6:15:00 AM 20.79 69.422 8.17 435.9 5.46 92.6
9/14/2021 6:30:00 AM 20.77 69.386 8.17 435.7 4.75 92.1
9/14/2021 6:45:00 AM 20.75 69.35 8.18 435.7 4.16 92.2
9/14/2021 7:00:00 AM 20.74 69.332 8.16 435.8 6.1 91.9
9/14/2021 7:15:00 AM 20.72 69.296 8.17 436.2 4.47 92.1
9/14/2021 7:30:00 AM 20.71 69.278 8.17 435.7 5.22 91.1
9/14/2021 7:45:00 AM 20.71 69.278 8.16 435.5 4.64 92.1
9/14/2021 8:00:00 AM 20.7 69.26 8.15 435.5 4.78 92.2
9/14/2021 8:15:00 AM 20.71 69.278 8.16 436 5.48 92.7
9/14/2021 8:30:00 AM 20.73 69.314 8.15 436 4.83 93.1
9/14/2021 8:45:00 AM 20.75 69.35 8.16 435.8 4.44 94.2
9/14/2021 9:00:00 AM 20.79 69.422 8.16 435.8 4.15 95.5
9/14/2021 9:15:00 AM 20.82 69.476 8.17 435.8 4.49 96.4
9/14/2021 9:30:00 AM 20.86 69.548 8.18 435.6 4.59 97.3
9/14/2021 9:45:00 AM 20.91 69.638 8.19 435.5 4.35 98.8
9/14/2021 10:00:00 AM 20.95 69.71 8.19 435.8 4.62 99.6
9/14/2021 10:15:00 AM 20.99 69.782 8.19 435.6 5.25 100.9
9/14/2021 10:30:00 AM 21.05 69.89 8.2 435.8 4.61 101.6
9/14/2021 10:45:00 AM 21.09 69.962 8.22 435.8 4.35 103
9/14/2021 11:00:00 AM 21.13 70.034 8.22 435.8 4.33 103.4
9/14/2021 11:15:00 AM 21.18 70.124 8.23 436.1 4.37 103.8
9/14/2021 11:30:00 AM 21.23 70.214 8.24 436 4.03 104.4
9/14/2021 11:45:00 AM 21.3 70.34 8.22 436.3 4.11 104.7
9/14/2021 12:00:00 PM 21.4 70.52 8.23 436.3 4.16 106
9/14/2021 12:15:00 PM 21.51 70.718 8.24 436.4 4.35 105.7
9/14/2021 12:30:00 PM 21.61 70.898 8.24 436.7 4.17 107.4
9/14/2021 12:45:00 PM 21.65 70.97 8.23 436.8 4.7 107.2
9/14/2021 1:00:00 PM 21.75 71.15 8.23 437.1 4.68 108
9/14/2021 1:15:00 PM 21.94 71.492 8.24 436.8 3.58 108.9
9/14/2021 1:30:00 PM 22.02 71.636 8.24 437.3 3.24 108.5
9/14/2021 1:45:00 PM 22.05 71.69 8.24 437.4 3.8 109.4
9/14/2021 2:00:00 PM 22.1 71.78 8.23 437.3 4.06 107.3
9/14/2021 2:15:00 PM 22.09 71.762 8.23 437.7 2.82 108.9
9/14/2021 2:30:00 PM 22.15 71.87 8.23 437.6 2.55 108.3
9/14/2021 2:45:00 PM 22.16 71.888 8.23 438 2.92 108.1
9/14/2021 3:00:00 PM 22.15 71.87 8.22 438 3 106.9
9/14/2021 3:15:00 PM 22.14 71.852 8.22 438 3 105.7
9/14/2021 3:30:00 PM 22.12 71.816 8.22 438.1 3.04 107.2
9/14/2021 3:45:00 PM 22.18 71.924 8.23 438.4 2.4 108.7
9/14/2021 4:00:00 PM 22.16 71.888 8.23 438.5 2.88 108.3
9/14/2021 4:15:00 PM 22.14 71.852 8.22 438.6 2.61 107.9
9/14/2021 4:30:00 PM 22.14 71.852 8.21 438.5 2.38 107.9
9/14/2021 4:45:00 PM 22.15 71.87 8.22 438.6 2.54 107.3
9/14/2021 5:00:00 PM 22.12 71.816 8.22 438.7 3.64 106.2
9/14/2021 5:15:00 PM 22.09 71.762 8.21 439.1 2.49 106.3
9/14/2021 5:30:00 PM 22.1 71.78 8.22 439.2 2.29 106.1
9/14/2021 5:45:00 PM 22.04 71.672 8.2 439.4 7.25 105.4
9/14/2021 6:00:00 PM 21.97 71.546 8.2 439.8 2.56 102.3
9/14/2021 6:15:00 PM 21.92 71.456 8.19 440 5.61 100.2
9/14/2021 6:30:00 PM 21.86 71.348 8.18 440.4 3.91 101.2
9/14/2021 6:45:00 PM 21.82 71.276 8.19 440.5 2.4 100.1
9/14/2021 7:00:00 PM 21.75 71.15 8.18 440.8 4.46 94.5
9/14/2021 7:15:00 PM 21.68 71.024 8.17 441.2 11.03 94.1
9/14/2021 7:30:00 PM 21.61 70.898 8.16 441.5 8.79 93.4
9/14/2021 7:45:00 PM 21.56 70.808 8.14 441.7 2.23 93.4
9/14/2021 8:00:00 PM 21.5 70.7 8.14 442 3.11 92.8
9/14/2021 8:15:00 PM 21.45 70.61 8.12 442.4 2.62 92.1
9/14/2021 8:30:00 PM 21.41 70.538 8.11 442.7 2.2 91.1
9/14/2021 8:45:00 PM 21.37 70.466 8.1 442.7 3.48 90.7
9/14/2021 9:00:00 PM 21.35 70.43 8.1 442.7 2.52 88.8
9/14/2021 9:15:00 PM 21.33 70.394 8.1 442.7 9.3 89.8
9/14/2021 9:30:00 PM 21.31 70.358 8.1 442.8 15.92 89.8
9/14/2021 9:45:00 PM 21.3 70.34 8.1 442.6 2.89 88.4
9/14/2021 10:00:00 PM 21.29 70.32201 8.12 442.2 2.34 89.6
9/14/2021 10:15:00 PM 21.29 70.32201 8.11 442.4 24.13 89.8
9/14/2021 10:30:00 PM 21.28 70.304 8.12 442.2 2.92 90.8
9/14/2021 10:45:00 PM 21.28 70.304 8.12 442 2.63 90.6
9/14/2021 11:00:00 PM 21.28 70.304 8.12 442.2 19.18 90.5
9/14/2021 11:15:00 PM 21.29 70.32201 8.13 442.1 3.29 90.7
9/14/2021 11:30:00 PM 21.29 70.32201 8.13 441.9 3.42 91
9/14/2021 11:45:00 PM 21.3 70.34 8.14 441.4 3.46 91.3
9/15/2021 12:00:00 AM 21.31 70.358 8.14 441.1 5.28 91.6
9/15/2021 12:15:00 AM 21.32 70.376 8.15 441.3 3.75 91.6
9/15/2021 12:30:00 AM 21.33 70.394 8.15 440.9 8.52 92
9/15/2021 12:45:00 AM 21.34 70.412 8.16 440.8 16.31 92
9/15/2021 1:00:00 AM 21.36 70.448 8.16 440.4 7.95 91.8
9/15/2021 1:15:00 AM 21.38 70.484 8.17 440.3 2.54 92.7
9/15/2021 1:30:00 AM 21.39 70.502 8.17 440.5 3.66 92.6
9/15/2021 1:45:00 AM 21.4 70.52 8.17 440.1 974.9 92.1
9/15/2021 2:00:00 AM 21.41 70.538 8.18 439.9 4.47 91.7
9/15/2021 2:15:00 AM 21.42 70.556 8.18 440.2 5.32 92.5
9/15/2021 2:30:00 AM 21.43 70.574 8.18 440.1 5.41 92.7
9/15/2021 2:45:00 AM 21.44 70.592 8.19 440.2 2.62 92.7
9/15/2021 3:00:00 AM 21.45 70.61 8.19 440 6.12 92.4
9/15/2021 3:15:00 AM 21.45 70.61 8.19 440 6.25 92.7
9/15/2021 3:30:00 AM 21.45 70.61 8.19 440.1 3.4 92.5
9/15/2021 3:45:00 AM 21.45 70.61 8.2 440.2 12.83 92.7
9/15/2021 4:00:00 AM 21.45 70.61 8.2 440.2 7.37 92.9
9/15/2021 4:15:00 AM 21.45 70.61 8.2 440.5 11.22 93.1
9/15/2021 4:30:00 AM 21.45 70.61 8.21 440.5 9.76 92.8
9/15/2021 4:45:00 AM 21.45 70.61 8.2 440.5 5.35 92.6
9/15/2021 5:00:00 AM 21.44 70.592 8.2 440.7 5.17 92.9
9/15/2021 5:15:00 AM 21.43 70.574 8.2 440.9 4.27 92.8
9/15/2021 5:30:00 AM 21.42 70.556 8.19 441 6.24 92.5
9/15/2021 5:45:00 AM 21.4 70.52 8.19 440.9 4.86 92.4
9/15/2021 6:00:00 AM 21.39 70.502 8.18 441.1 3.91 92.5
9/15/2021 6:15:00 AM 21.38 70.484 8.2 441.2 3.3 92.2
9/15/2021 6:30:00 AM 21.35 70.43 8.2 441.3 4.46 92.2
9/15/2021 6:45:00 AM 21.34 70.412 8.19 441.2 2.7 92.1
9/15/2021 7:00:00 AM 21.32 70.376 8.18 441.6 3.4 91.9
9/15/2021 7:15:00 AM 21.3 70.34 8.19 441.4 2.91 90.3
9/15/2021 7:30:00 AM 21.29 70.32201 8.18 441.3 4.88 91.8
9/15/2021 7:45:00 AM 21.28 70.304 8.18 441.4 2.49 92
9/15/2021 8:00:00 AM 21.28 70.304 8.17 441.6 2.78 92.3
9/15/2021 8:15:00 AM 21.29 70.32201 8.17 441.2 2.92 93.3
9/15/2021 8:30:00 AM 21.31 70.358 8.18 441.5 3.2 93.6
9/15/2021 8:45:00 AM 21.33 70.394 8.18 441.4 2.46 94.7
9/15/2021 9:00:00 AM 21.36 70.448 8.19 441.3 2.71 95.6
9/15/2021 9:15:00 AM 21.38 70.484 8.19 441.3 2.67 96.3
9/15/2021 9:30:00 AM 21.42 70.556 8.19 441.5 2.59 97.7
9/15/2021 9:45:00 AM 21.44 70.592 8.2 441.4 3.01 98.2
9/15/2021 10:00:00 AM 21.46 70.628 8.21 441.5 2.73 99.1
9/15/2021 10:15:00 AM 21.5 70.7 8.21 441.5 2.34 100.1
9/15/2021 10:30:00 AM 21.53 70.754 8.21 441.6 2.67 100.8
9/15/2021 10:45:00 AM 21.63 70.934 8.22 441.4 2.82 102
9/15/2021 11:00:00 AM 21.71 71.078 8.23 441.5 2.42 103.3
9/15/2021 11:15:00 AM 21.77 71.186 8.23 441.5 3.16 104.1
9/15/2021 11:30:00 AM 21.85 71.33 8.24 441.5 2.36 104.9
9/15/2021 11:45:00 AM 21.97 71.546 8.24 441.6 2.53 105.5
9/15/2021 12:00:00 PM 22.12 71.816 8.25 441.5 2.66 106.7
9/15/2021 12:15:00 PM 22.29 72.122 8.26 441.7 3.11 106.2
9/15/2021 12:30:00 PM 22.44 72.392 8.26 441.6 2.44 108.8
9/15/2021 12:45:00 PM 22.65 72.77 8.25 441.8 2.73 110
9/15/2021 1:00:00 PM 22.82 73.076 8.26 441.5 2.52 111.4
9/15/2021 1:15:00 PM 22.89 73.202 8.25 442 2.82 111.1
9/15/2021 1:30:00 PM 22.94 73.292 8.25 442 2.48 111.1
9/15/2021 1:45:00 PM 23.1 73.58 8.26 441.9 2.97 112.3
9/15/2021 2:00:00 PM 23.29 73.922 8.26 441.8 2.75 113.3
9/15/2021 2:15:00 PM 23.48 74.264 8.26 442.3 2.56 114.8
9/15/2021 2:30:00 PM 23.62 74.516 8.26 442.2 2.8 115.1
9/15/2021 2:45:00 PM 23.73 74.714 8.26 442.6 2.96 115.4
9/15/2021 3:00:00 PM 23.72 74.696 8.26 442.8 2.52 115.4
9/15/2021 3:15:00 PM 23.68 74.624 8.25 442.6 2.9 113.4
9/15/2021 3:30:00 PM 23.6 74.48 8.25 442.8 2.37 113.2
9/15/2021 3:45:00 PM 23.59 74.462 8.24 442.5 2.87 112.7
9/15/2021 4:00:00 PM 23.46 74.228 8.23 443 3.3 110.5
9/15/2021 4:15:00 PM 23.42 74.156 8.23 443.1 2.77 109.2
9/15/2021 4:30:00 PM 23.46 74.228 8.24 443 2.58 110
9/15/2021 4:45:00 PM 23.34 74.012 8.23 443.3 2.58 108.3
9/15/2021 5:00:00 PM 23.26 73.868 8.21 443.8 2.42 105.5
9/15/2021 5:15:00 PM 23.12 73.616 8.2 444 3.31 103.9
9/15/2021 5:30:00 PM 22.96 73.328 8.19 444.5 2.61 100.5
9/15/2021 5:45:00 PM 22.82 73.076 8.18 444.8 12.99 98.8
9/15/2021 6:00:00 PM 22.72 72.896 8.17 444.9 8.43 97.3
9/15/2021 6:15:00 PM 22.59 72.662 8.16 444.7 4.09 95.4
9/15/2021 6:30:00 PM 22.47 72.446 8.14 439.6 4.4 93.4
9/15/2021 6:45:00 PM 22.36 72.248 8.12 438.7 10.33 91
9/15/2021 7:00:00 PM 22.32 72.176 8.1 437.1 63.1 89.6
9/15/2021 7:15:00 PM 22.23 72.014 8.1 438.2 4.04 89
9/15/2021 7:30:00 PM 22.16 71.888 8.1 437.5 4.96 88.3
9/15/2021 7:45:00 PM 22.13 71.834 8.09 435.6 3.6 87.7
9/15/2021 8:00:00 PM 22.09 71.762 8.09 436.5 4.13 87.8
9/15/2021 8:15:00 PM 22.06 71.708 8.08 438.1 6.31 87.8
9/15/2021 8:30:00 PM 22.05 71.69 8.07 439 3.8 87.3
9/15/2021 8:45:00 PM 22.03 71.654 8.07 439.8 3.9 87
9/15/2021 9:00:00 PM 22.03 71.654 8.07 440.9 3.94 87.3
9/15/2021 9:15:00 PM 22.03 71.654 8.08 442 4.78 87.2
9/15/2021 9:30:00 PM 22.03 71.654 8.08 442.8 2.94 88.3
9/15/2021 9:45:00 PM 22.04 71.672 8.08 443.6 17.12 88.3
9/15/2021 10:00:00 PM 22.04 71.672 8.09 444.1 3.13 88.2
9/15/2021 10:15:00 PM 22.05 71.69 8.09 444.4 197.8 88.4
9/15/2021 10:30:00 PM 22.05 71.69 8.09 444.7 214 89.1
9/15/2021 10:45:00 PM 22.06 71.708 8.1 444.9 11.98 89.2
9/15/2021 11:00:00 PM 22.07 71.726 8.1 445 11.23 89.6
9/15/2021 11:15:00 PM 22.08 71.744 8.11 445 21.37 89.5
9/15/2021 11:30:00 PM 22.09 71.762 8.12 445 5.61 90.1
9/15/2021 11:45:00 PM 22.1 71.78 8.13 444.8 6.51 90.4
9/16/2021 12:00:00 AM 22.12 71.816 8.13 444.7 385.2 90.8
9/16/2021 12:15:00 AM 22.14 71.852 8.13 444 6.62 91
9/16/2021 12:30:00 AM 22.17 71.906 8.14 443.2 8.23 91.6
9/16/2021 12:45:00 AM 22.17 71.906 8.14 440.4 6.25 91.4
9/16/2021 1:00:00 AM 22.2 71.96 8.14 440.8 127.1 91.8
9/16/2021 1:15:00 AM 22.23 72.014 8.15 439 15.47 91.8
9/16/2021 1:30:00 AM 22.26 72.068 8.15 439.5 3.26 91.6
9/16/2021 1:45:00 AM 22.28 72.104 8.16 438.9 5.66 92.2
9/16/2021 2:00:00 AM 22.3 72.14 8.15 437.9 4.66 91.9
9/16/2021 2:15:00 AM 22.32 72.176 8.17 438.5 2.38 91.9
9/16/2021 2:30:00 AM 22.35 72.23 8.17 437.6 2.52 92.1
9/16/2021 2:45:00 AM 22.37 72.266 8.17 437.9 21.52 92.1
9/16/2021 3:00:00 AM 22.4 72.32 8.17 438.2 59.1 92.2
9/16/2021 3:15:00 AM 22.41 72.338 8.17 438 32.24 92.5
9/16/2021 3:30:00 AM 22.43 72.374 8.17 437.6 3.07 92.1
9/16/2021 3:45:00 AM 22.45 72.41 8.18 437.7 49.27 92.7
9/16/2021 4:00:00 AM 22.46 72.42799 8.17 436.9 40.32 92.6
9/16/2021 4:15:00 AM 22.46 72.42799 8.17 436.6 75 92.5
9/16/2021 4:30:00 AM 22.46 72.42799 8.17 436.4 46.61 92.5
9/16/2021 4:45:00 AM 22.46 72.42799 8.16 436.4 27.6 92.2
9/16/2021 5:00:00 AM 22.45 72.41 8.16 436.5 27.75 92
9/16/2021 5:15:00 AM 22.45 72.41 8.16 436.8 180.8 92.2
9/16/2021 5:30:00 AM 22.44 72.392 8.16 436.6 145.1 92
9/16/2021 5:45:00 AM 22.42 72.356 8.16 436.9 30.7 91.9
9/16/2021 6:00:00 AM 22.41 72.338 8.16 437.2 4.73 92
9/16/2021 6:15:00 AM 22.38 72.284 8.16 437.2 5.9 91.3
9/16/2021 6:30:00 AM 22.34 72.212 8.15 437.4 3.53 91.6
9/16/2021 6:45:00 AM 22.31 72.158 8.15 437.2 2.27 91.2
9/16/2021 7:00:00 AM 22.26 72.068 8.14 437.2 1.95 91.2
9/16/2021 7:15:00 AM 22.22 71.996 8.14 437.4 11.62 91.1
9/16/2021 7:30:00 AM 22.17 71.906 8.13 437 3.99 90.8
9/16/2021 7:45:00 AM 22.13 71.834 8.13 436.7 2.1 90.8
9/16/2021 8:00:00 AM 22.1 71.78 8.11 436.2 3.2 90.8
9/16/2021 8:15:00 AM 22.06 71.708 8.11 435.8 2.51 90.9
9/16/2021 8:30:00 AM 22.02 71.636 8.1 435.5 2.46 91.2
9/16/2021 8:45:00 AM 21.98 71.564 8.1 435.1 2.73 91.4
9/16/2021 9:00:00 AM 21.95 71.51 8.1 434.8 2.45 91.7
9/16/2021 9:15:00 AM 21.92 71.456 8.09 434.5 2.58 92.1
9/16/2021 9:30:00 AM 21.9 71.42 8.09 434.4 3.09 92.7
9/16/2021 9:45:00 AM 21.91 71.438 8.09 434.1 2.79 93.6
9/16/2021 10:00:00 AM 21.9 71.42 8.09 433.9 3.12 93.9
9/16/2021 10:15:00 AM 21.91 71.438 8.09 433.7 3.3 94.7
9/16/2021 10:30:00 AM 21.92 71.456 8.1 433.4 2.08 95.3
9/16/2021 10:45:00 AM 21.93 71.474 8.1 433.2 2.41 95.7
9/16/2021 11:00:00 AM 21.94 71.492 8.1 433 2.22 96.4
9/16/2021 11:15:00 AM 21.95 71.51 8.1 432.9 2.58 96.8
9/16/2021 11:30:00 AM 21.93 71.474 8.1 433 2.22 96.9
9/16/2021 11:45:00 AM 21.93 71.474 8.09 433.3 2.73 97.1
9/16/2021 12:00:00 PM 21.97 71.546 8.09 433.4 2.88 97.6
9/16/2021 12:15:00 PM 21.98 71.564 8.09 433.4 2.8 98.1
9/16/2021 12:30:00 PM 22.01 71.618 8.09 433.6 3.12 98.6
9/16/2021 12:45:00 PM 22.05 71.69 8.1 433.7 2.23 99
9/16/2021 1:00:00 PM 22.04 71.672 8.1 433.9 1.82 99.2
9/16/2021 1:15:00 PM 22.08 71.744 8.11 433.8 2.34 99.5
9/16/2021 1:30:00 PM 22.16 71.888 8.11 433.6 2.37 100.4
9/16/2021 1:45:00 PM 22.2 71.96 8.11 433.2 2.56 101.1
9/16/2021 2:00:00 PM 22.2 71.96 8.11 433 2.68 101.3
9/16/2021 2:15:00 PM 22.19 71.942 8.11 432.8 2.2 101.2
9/16/2021 2:30:00 PM 22.18 71.924 8.12 432.3 2.29 101.3
9/16/2021 2:45:00 PM 22.18 71.924 8.12 432 2.07 101.2
9/16/2021 3:00:00 PM 22.16 71.888 8.12 431.4 2.23 100.9
9/16/2021 3:15:00 PM 22.21 71.978 8.13 430.6 2.68 101.4
9/16/2021 3:30:00 PM 22.32 72.176 8.13 429.6 2.32 102.1
9/16/2021 3:45:00 PM 22.39 72.302 8.13 428.3 2.58 102.5
9/16/2021 4:00:00 PM 22.4 72.32 8.14 427.1 1.94 102.6
9/16/2021 4:15:00 PM 22.41 72.338 8.14 425.6 2.03 103.2
9/16/2021 4:30:00 PM 22.37 72.266 8.16 424.6 2.54 102.4
9/16/2021 4:45:00 PM 22.35 72.23 8.15 423.3 2.1 101.5
9/16/2021 5:00:00 PM 22.33 72.194 8.15 421.9 2.89 101.2
9/16/2021 5:15:00 PM 22.29 72.122 8.15 420.8 4.35 100.6
9/16/2021 5:30:00 PM 22.27 72.086 8.15 420 7.33 99.9
9/16/2021 5:45:00 PM 22.25 72.05 8.16 418.7 3.7 99.8
9/16/2021 6:00:00 PM 22.22 71.996 8.16 418.6 2.51 98.9
9/16/2021 6:15:00 PM 22.2 71.96 8.15 417.8 4.87 98
9/16/2021 6:30:00 PM 22.18 71.924 8.16 417.3 2.75 97.4
9/16/2021 6:45:00 PM 22.15 71.87 8.15 416.9 7.38 96.4
9/16/2021 7:00:00 PM 22.13 71.834 8.14 416.6 4.23 95.3
9/16/2021 7:15:00 PM 22.12 71.816 8.14 415.7 4.61 94.4
9/16/2021 7:30:00 PM 22.1 71.78 8.15 412.3 18.76 94.2
9/16/2021 7:45:00 PM 22.1 71.78 8.14 414.5 2.19 93.9
9/16/2021 8:00:00 PM 22.09 71.762 8.15 413.5 3.88 93.2
9/16/2021 8:15:00 PM 22.09 71.762 8.14 412.6 6.02 92.9
9/16/2021 8:30:00 PM 22.1 71.78 8.15 411.8 3.13 93.4
9/16/2021 8:45:00 PM 22.1 71.78 8.15 411.1 25.53 93.1
9/16/2021 9:00:00 PM 22.1 71.78 8.15 410.2 11.44 93.2
9/16/2021 9:15:00 PM 22.1 71.78 8.15 409.1 8.7 90.9
9/16/2021 9:30:00 PM 22.11 71.798 8.16 408.2 6.36 93.2
9/16/2021 9:45:00 PM 22.11 71.798 8.16 408 6.68 93
9/16/2021 10:00:00 PM 22.11 71.798 8.16 407.9 11.78 93.3
9/16/2021 10:15:00 PM 22.11 71.798 8.16 407.3 1760 93.4
9/16/2021 10:30:00 PM 22.11 71.798 8.16 406.7 8.54 93.7
9/16/2021 10:45:00 PM 22.12 71.816 8.16 406.8 8.26 94.1
9/16/2021 11:00:00 PM 22.11 71.798 8.16 406.5 3.16 93.7
9/16/2021 11:15:00 PM 22.11 71.798 8.16 405.1 3.69 93.3
9/16/2021 11:30:00 PM 22.1 71.78 8.16 404.6 21.96 93.3
9/16/2021 11:45:00 PM 22.1 71.78 8.15 404 18.34 93.3
9/17/2021 12:00:00 AM 22.09 71.762 8.16 403.7 5.61 93.6
9/17/2021 12:15:00 AM 22.07 71.726 8.15 403.4 22.13 93.5
9/17/2021 12:30:00 AM 22.06 71.708 8.16 402.4 2.69 91.9
9/17/2021 12:45:00 AM 22.04 71.672 8.15 401.7 70.76 92.9
9/17/2021 1:00:00 AM 22.03 71.654 8.15 401.5 25.18 92.9
9/17/2021 1:15:00 AM 22.01 71.618 8.15 400.5 104.5 92.7
9/17/2021 1:30:00 AM 21.99 71.582 8.14 399.7 3.99 92.5
9/17/2021 1:45:00 AM 21.97 71.546 8.14 398.9 6.95 92.2
9/17/2021 2:00:00 AM 21.96 71.528 8.13 398 4.19 92.3
9/17/2021 2:15:00 AM 21.94 71.492 8.12 396.4 4.64 91.9
9/17/2021 2:30:00 AM 21.92 71.456 8.12 395.3 12.44 91.7
9/17/2021 2:45:00 AM 21.9 71.42 8.11 393.3 6.78 91.5
9/17/2021 3:00:00 AM 21.89 71.402 8.11 392.3 9.39 91.3
9/17/2021 3:15:00 AM 21.87 71.366 8.1 390.6 6.73 91
9/17/2021 3:30:00 AM 21.85 71.33 8.09 389.5 6.83 90.9
9/17/2021 3:45:00 AM 21.83 71.294 8.08 390.2 6.72 90.7
9/17/2021 4:00:00 AM 21.81 71.258 8.07 386.2 7.75 90.3
9/17/2021 4:15:00 AM 21.79 71.222 8.07 385.9 7.8 85.3
9/17/2021 4:30:00 AM 21.77 71.186 8.06 383.6 5.68 89.5
9/17/2021 4:45:00 AM 21.75 71.15 8.06 381.3 4.75 89
9/17/2021 5:00:00 AM 21.72 71.096 8.06 380.9 18.82 88.8
9/17/2021 5:15:00 AM 21.7 71.06 8.04 378.8 7.25 89.2
9/17/2021 5:30:00 AM 21.67 71.006 8.05 378.1 9.25 89
9/17/2021 5:45:00 AM 21.65 70.97 8.03 377.4 11.21 89.1
9/17/2021 6:00:00 AM 21.63 70.934 8.05 376 4.87 88.9
9/17/2021 6:15:00 AM 21.61 70.898 8.02 374.9 10.15 88.6
9/17/2021 6:30:00 AM 21.59 70.862 8.01 374.4 7.07 88.1
9/17/2021 6:45:00 AM 21.57 70.826 8.06 372.7 5.22 88
9/17/2021 7:00:00 AM 21.54 70.772 8.04 372.7 4.58 87.6
9/17/2021 7:15:00 AM 21.52 70.736 8.03 371.3 4.64 85.8
9/17/2021 7:30:00 AM 21.5 70.7 8.01 370 5.92 85.6
9/17/2021 7:45:00 AM 21.49 70.682 8.02 369.5 4.98 86.7
9/17/2021 8:00:00 AM 21.47 70.646 8.01 369.3 6.01 87.4
9/17/2021 8:15:00 AM 21.47 70.646 7.99 368.9 6.33 87.7
9/17/2021 8:30:00 AM 21.46 70.628 8 368.4 4.17 87.9
9/17/2021 8:45:00 AM 21.48 70.664 8.02 368.4 4.31 89
9/17/2021 9:00:00 AM 21.49 70.682 7.99 368.1 5.58 89.6
9/17/2021 9:15:00 AM 21.51 70.718 7.99 368.1 4.12 90.3
9/17/2021 9:30:00 AM 21.52 70.736 8.02 368.2 4.87 91.1
9/17/2021 9:45:00 AM 21.52 70.736 8.01 368.3 4.68 91.7
9/17/2021 10:00:00 AM 21.52 70.736 8.01 368.5 4.3 92
9/17/2021 10:15:00 AM 21.52 70.736 8.01 368.8 4.71 92.1
9/17/2021 10:30:00 AM 21.52 70.736 8.01 369.2 4.33 92.2
9/17/2021 10:45:00 AM 21.55 70.79 8.01 369.5 4.16 92.9
9/17/2021 11:00:00 AM 21.57 70.826 8.02 370.1 4.59 93.4
9/17/2021 11:15:00 AM 21.6 70.88 8.02 370.5 3.65 94.2
9/17/2021 11:30:00 AM 21.66 70.988 8.02 371 4.52 95.7
9/17/2021 11:45:00 AM 21.67 71.006 8.03 371.3 4.08 96
9/17/2021 12:00:00 PM 21.67 71.006 8.04 371.8 3.84 96.4
9/17/2021 12:15:00 PM 21.69 71.042 8.05 372.1 3.61 96.9
9/17/2021 12:30:00 PM 21.73 71.114 8.05 372.3 4.15 97.4
9/17/2021 12:45:00 PM 21.79 71.222 8.05 372.6 4.46 97.9
9/17/2021 1:00:00 PM 21.8 71.24 8.06 372.9 3.53 98.4
9/17/2021 1:15:00 PM 21.95 71.51 8.08 373.1 3.58 99.7
9/17/2021 1:30:00 PM 22.11 71.798 8.08 373.3 3.52 101.6
9/17/2021 1:45:00 PM 22.12 71.816 8.08 373.8 3.7 101.7
9/17/2021 2:00:00 PM 22.16 71.888 8.09 374.2 3.64 102.8
9/17/2021 2:15:00 PM 22.2 71.96 8.09 374.4 3.66 102.8
9/17/2021 2:30:00 PM 22.18 71.924 8.1 374.7 3.83 103
9/17/2021 2:45:00 PM 22.16 71.888 8.08 375 4.25 102.2
9/17/2021 3:00:00 PM 22.14 71.852 8.08 375.3 3.78 55.2
9/17/2021 3:15:00 PM 22.11 71.798 8.08 375.6 3.76 95.2
9/17/2021 3:30:00 PM 22.1 71.78 8.07 376 4.17 100.8
9/17/2021 3:45:00 PM 22.11 71.798 8.08 376.2 3.95 100.7
9/17/2021 4:00:00 PM 22.19 71.942 8.1 376.4 39.03 101.2
9/17/2021 4:15:00 PM 22.24 72.032 8.09 376.6 3.78 102.4
9/17/2021 4:30:00 PM 22.24 72.032 8.1 376.9 3.4 102.4
9/17/2021 4:45:00 PM 22.3 72.14 8.1 377 3.71 102.9
9/17/2021 5:00:00 PM 22.37 72.266 8.1 377.3 3.53 103.6
9/17/2021 5:15:00 PM 22.37 72.266 8.1 377.5 3.71 102.8
9/17/2021 5:30:00 PM 22.31 72.158 8.14 378 3.49 102.1
9/17/2021 5:45:00 PM 22.26 72.068 8.12 378.4 3.73 101.2
9/17/2021 6:00:00 PM 22.21 71.978 8.08 378.8 3.99 100
9/17/2021 6:15:00 PM 22.12 71.816 8.07 379.4 3.87 98.4
9/17/2021 6:30:00 PM 22.05 71.69 8.06 379.8 3.87 96.7
9/17/2021 6:45:00 PM 21.99 71.582 8.06 380.2 3.38 95.2
9/17/2021 7:00:00 PM 21.92 71.456 8.03 380.7 3.81 93.9
9/17/2021 7:15:00 PM 21.88 71.384 8.03 381.1 3.28 92.6
9/17/2021 7:30:00 PM 21.83 71.294 8.03 382 3.57 91.3
9/17/2021 7:45:00 PM 21.79 71.222 8.01 380.9 23.16 90.7
9/17/2021 8:00:00 PM 21.76 71.168 8.01 382.7 7.53 90
9/17/2021 8:15:00 PM 21.74 71.132 8 380.7 9.98 89.3
9/17/2021 8:30:00 PM 21.71 71.078 7.99 383.7 13.39 88.7
9/17/2021 8:45:00 PM 21.69 71.042 8 384.2 4.8 88.6
9/17/2021 9:00:00 PM 21.68 71.024 8.01 384.5 5.54 88.6
9/17/2021 9:15:00 PM 21.66 70.988 8.01 383.6 5.26 88.6
9/17/2021 9:30:00 PM 21.65 70.97 8.01 385.1 5.87 88.5
9/17/2021 9:45:00 PM 21.64 70.952 8.02 385.3 26.93 88.9
9/17/2021 10:00:00 PM 21.62 70.916 8.01 385.8 3.48 88.7
9/17/2021 10:15:00 PM 21.61 70.898 8.02 386.1 8.67 89.1
9/17/2021 10:30:00 PM 21.6 70.88 8.02 386.5 44.76 89.6
9/17/2021 10:45:00 PM 21.59 70.862 8.04 387 3.4 89.4
9/17/2021 11:00:00 PM 21.58 70.844 8.05 385.1 17.62 89.9
9/17/2021 11:15:00 PM 21.57 70.826 8.05 387.1 21.53 89.9
9/17/2021 11:30:00 PM 21.57 70.826 8.04 386.6 20.99 90.3
9/17/2021 11:45:00 PM 21.56 70.808 7.93 376.9 17.6 90.3
9/18/2021 12:00:00 AM 21.56 70.808 8.06 387.3 22.84 90.9
9/18/2021 12:15:00 AM 21.57 70.826 8.07 387.8 11.51 90.6
9/18/2021 12:30:00 AM 21.58 70.844 8.08 388.3 9.3 90.7
9/18/2021 12:45:00 AM 21.59 70.862 8.08 388.8 8.39 91.1
9/18/2021 1:00:00 AM 21.6 70.88 8.07 386.3 3.33 91.3
9/18/2021 1:15:00 AM 21.62 70.916 8.09 387.3 9.86 91.5
9/18/2021 1:30:00 AM 21.64 70.952 8.1 389.6 20.85 91.3
9/18/2021 1:45:00 AM 21.65 70.97 8.1 390 15.74 91.8
9/18/2021 2:00:00 AM 21.66 70.988 8.1 390.7 28.25 91.7
9/18/2021 2:15:00 AM 21.66 70.988 8.11 391 20.67 92.2
9/18/2021 2:30:00 AM 21.66 70.988 8.11 390.6 29.03 92.1
9/18/2021 2:45:00 AM 21.65 70.97 8.11 390.8 40.63 92.1
9/18/2021 3:00:00 AM 21.64 70.952 8.11 391.4 40.48 91.7
9/18/2021 3:15:00 AM 21.62 70.916 8.11 392.4 25.94 92.3
9/18/2021 3:30:00 AM 21.6 70.88 8.11 393 9.72 92.1
9/18/2021 3:45:00 AM 21.59 70.862 8.11 393.2 8.98 92.2
9/18/2021 4:00:00 AM 21.58 70.844 8.11 393.8 10.68 92.1
9/18/2021 4:15:00 AM 21.56 70.808 8.11 394.2 10.83 92
9/18/2021 4:30:00 AM 21.55 70.79 8.1 394.9 6.84 91.6
9/18/2021 4:45:00 AM 21.54 70.772 8.1 395.3 10.55 91.8
9/18/2021 5:00:00 AM 21.52 70.736 8.08 395.7 10.25 91.9
9/18/2021 5:15:00 AM 21.51 70.718 8.1 396 11.73 91.5
9/18/2021 5:30:00 AM 21.49 70.682 8.09 396.4 40.94 91.3
9/18/2021 5:45:00 AM 21.48 70.664 8.09 396.8 16.66 91.4
9/18/2021 6:00:00 AM 21.45 70.61 8.09 397.4 7.18 91.1
9/18/2021 6:15:00 AM 21.43 70.574 8.08 398 10.07 91
9/18/2021 6:30:00 AM 21.4 70.52 8.08 394.4 5.37 90.9
9/18/2021 6:45:00 AM 21.37 70.466 8.07 399.3 3.33 90.9
9/18/2021 7:00:00 AM 21.34 70.412 8.07 399.9 4.43 90.5
9/18/2021 7:15:00 AM 21.3 70.34 8.07 400.5 2.68 90.4
9/18/2021 7:30:00 AM 21.28 70.304 8.07 401 2.88 90.4
9/18/2021 7:45:00 AM 21.27 70.286 8.06 401.5 2.84 90.3
9/18/2021 8:00:00 AM 21.25 70.25 8.07 402 2.61 90.5
9/18/2021 8:15:00 AM 21.25 70.25 8.06 402.7 2.58 90.6
9/18/2021 8:30:00 AM 21.26 70.268 8.07 403.1 3.05 91.2
9/18/2021 8:45:00 AM 21.26 70.268 8.06 403.7 3.18 91.9
9/18/2021 9:00:00 AM 21.28 70.304 8.07 404.2 2.73 92.6
9/18/2021 9:15:00 AM 21.29 70.32201 8.08 404.7 2.75 93.7
9/18/2021 9:30:00 AM 21.31 70.358 8.09 405.3 2.36 94.7
9/18/2021 9:45:00 AM 21.34 70.412 8.09 405.7 2.51 95.9
9/18/2021 10:00:00 AM 21.4 70.52 8.12 406.2 2.43 97.5
9/18/2021 10:15:00 AM 21.43 70.574 8.12 406.8 2.29 98.3
9/18/2021 10:30:00 AM 21.42 70.556 8.13 407.7 2.39 99
9/18/2021 10:45:00 AM 21.46 70.628 8.13 408.2 2.77 99.8
9/18/2021 11:00:00 AM 21.48 70.664 8.14 408.7 2.14 100.7
9/18/2021 11:15:00 AM 21.55 70.79 8.15 409.3 2.17 101.9
9/18/2021 11:30:00 AM 21.62 70.916 8.15 409.6 2.28 102.2
9/18/2021 11:45:00 AM 21.72 71.096 8.16 410.2 2.06 103.3
9/18/2021 12:00:00 PM 21.86 71.348 8.17 410.6 2.42 104.7
9/18/2021 12:15:00 PM 21.96 71.528 8.17 411 1.89 105.7
9/18/2021 12:30:00 PM 22.18 71.924 8.19 411.3 3.89 106.9
9/18/2021 12:45:00 PM 22.3 72.14 8.18 411.9 2.67 107.7
9/18/2021 1:00:00 PM 22.33 72.194 8.18 412.7 2.13 108
9/18/2021 1:15:00 PM 22.35 72.23 8.18 413.1 2.19 107.8
9/18/2021 1:30:00 PM 22.53 72.554 8.18 413.4 2.14 108.7
9/18/2021 1:45:00 PM 22.62 72.716 8.19 413.5 2.07 109
9/18/2021 2:00:00 PM 22.66 72.788 8.2 414.1 1.96 109.1
9/18/2021 2:15:00 PM 22.83 73.094 8.19 414.6 2.19 109.6
9/18/2021 2:30:00 PM 22.99 73.382 8.2 414.4 11.49 110.1
9/18/2021 2:45:00 PM 23.07 73.526 8.18 414.9 2.32 110.1
9/18/2021 3:00:00 PM 23.21 73.778 8.18 415.2 2.49 110
9/18/2021 3:15:00 PM 23.31 73.958 8.2 414.9 2.46 110.4
9/18/2021 3:30:00 PM 23.31 73.958 8.2 414.9 2.74 109.9
9/18/2021 3:45:00 PM 23.31 73.958 8.19 414.7 2.13 108.7
9/18/2021 4:00:00 PM 23.38 74.084 8.19 414.5 2.36 109.2
9/18/2021 4:15:00 PM 23.4 74.12 8.2 414.3 2.59 109
9/18/2021 4:30:00 PM 23.42 74.156 8.2 414.2 2.26 108.8
9/18/2021 4:45:00 PM 23.43 74.174 8.19 414.1 1.96 108.6
9/18/2021 5:00:00 PM 23.38 74.084 8.19 413.8 2.3 107.8
9/18/2021 5:15:00 PM 23.27 73.886 8.18 413.9 1.92 106.5
9/18/2021 5:30:00 PM 23.14 73.652 8.17 413.9 2.31 104.9
9/18/2021 5:45:00 PM 22.99 73.382 8.16 413.8 2.17 102.7
9/18/2021 6:00:00 PM 22.85 73.13 8.14 413.9 2.53 101
9/18/2021 6:15:00 PM 22.72 72.896 8.14 413.5 2.3 98.4
9/18/2021 6:30:00 PM 22.62 72.716 8.12 413.8 2.42 97.4
9/18/2021 6:45:00 PM 22.5 72.5 8.11 413.7 2.18 96
9/18/2021 7:00:00 PM 22.42 72.356 8.1 414 8.05 94.6
9/18/2021 7:15:00 PM 22.34 72.212 8.09 414.1 8.6 93.4
9/18/2021 7:30:00 PM 22.27 72.086 8.1 401.8 36.81 92
9/18/2021 7:45:00 PM 22.22 71.996 8.07 413.4 12.53 91.3
9/18/2021 8:00:00 PM 22.17 71.906 8.07 413.2 8.41 90.6
9/18/2021 8:15:00 PM 22.13 71.834 8.06 413.3 11.88 90.1
9/18/2021 8:30:00 PM 22.09 71.762 8.07 413.1 9.76 89.5
9/18/2021 8:45:00 PM 22.07 71.726 8.06 412.9 7.56 89.1
9/18/2021 9:00:00 PM 22.04 71.672 8.06 413.2 5.12 88.8
9/18/2021 9:15:00 PM 22.02 71.636 8.07 412.7 7.14 89.1
9/18/2021 9:30:00 PM 22 71.6 8.06 412.7 19.24 89.2
9/18/2021 9:45:00 PM 21.98 71.564 8.06 412.1 3.43 89.1
9/18/2021 10:00:00 PM 21.97 71.546 8.05 411.8 196.4 89.3
9/18/2021 10:15:00 PM 21.97 71.546 8.06 411.3 4.69 89.3
9/18/2021 10:30:00 PM 21.97 71.546 8.07 410.8 20.16 89.4
9/18/2021 10:45:00 PM 21.97 71.546 8.07 409 6.36 89.4
9/18/2021 11:00:00 PM 21.97 71.546 8.08 409.3 23.9 90.2
9/18/2021 11:15:00 PM 21.98 71.564 8.09 409.6 10.72 90.3
9/18/2021 11:30:00 PM 21.99 71.582 8.09 408.5 13.72 90.5
9/18/2021 11:45:00 PM 22 71.6 8.1 408.2 2.31 90.6
9/19/2021 12:00:00 AM 22.02 71.636 8.11 407.1 15.85 91.1
9/19/2021 12:15:00 AM 22.04 71.672 8.12 407.1 3.6 90.7
9/19/2021 12:30:00 AM 22.06 71.708 8.12 407 3.06 91.4
9/19/2021 12:45:00 AM 22.08 71.744 8.14 405.8 411.6 92.1
9/19/2021 1:00:00 AM 22.1 71.78 8.14 405.5 2.83 92
9/19/2021 1:15:00 AM 22.12 71.816 8.15 405 1.71 92.2
9/19/2021 1:30:00 AM 22.14 71.852 8.16 404.9 23.53 92.1
9/19/2021 1:45:00 AM 22.16 71.888 8.16 404.9 26.04 92.3
9/19/2021 2:00:00 AM 22.18 71.924 8.17 396.9 3.58 92.8
9/19/2021 2:15:00 AM 22.19 71.942 8.16 404 17.57 92.6
9/19/2021 2:30:00 AM 22.2 71.96 8.17 403.9 9.74 92.8
9/19/2021 2:45:00 AM 22.21 71.978 8.18 403.1 18.1 92.4
9/19/2021 3:00:00 AM 22.21 71.978 8.18 403.9 8.91 90.4
9/19/2021 3:15:00 AM 22.2 71.96 8.18 404.1 2.26 92.5
9/19/2021 3:30:00 AM 22.21 71.978 8.19 403.3 7.07 92.7
9/19/2021 3:45:00 AM 22.19 71.942 8.18 403.8 749.5 92.5
9/19/2021 4:00:00 AM 22.17 71.906 8.18 403.6 3.69 92.4
9/19/2021 4:15:00 AM 22.16 71.888 8.19 403.5 3.03 91.8
9/19/2021 4:30:00 AM 22.16 71.888 8.19 403.3 7.42 92.5
9/19/2021 4:45:00 AM 22.14 71.852 8.19 403.4 6.62 92.3
9/19/2021 5:00:00 AM 22.12 71.816 8.19 403.5 15.02 92.1
9/19/2021 5:15:00 AM 22.09 71.762 8.18 403.7 126 92
9/19/2021 5:30:00 AM 22.06 71.708 8.17 403.5 39.64 91.8
9/19/2021 5:45:00 AM 22.03 71.654 8.18 403.6 6.18 91.7
9/19/2021 6:00:00 AM 21.99 71.582 8.17 403.6 7.01 91.3
9/19/2021 6:15:00 AM 21.96 71.528 8.17 403.8 2.64 91.2
9/19/2021 6:30:00 AM 21.92 71.456 8.16 404 2.53 91
9/19/2021 6:45:00 AM 21.87 71.366 8.16 403.9 1.94 90.8
9/19/2021 7:00:00 AM 21.83 71.294 8.16 404.3 3.33 90.4
9/19/2021 7:15:00 AM 21.78 71.204 8.15 404.4 3.19 90.3
9/19/2021 7:30:00 AM 21.76 71.168 8.15 404.7 2.97 90.2
9/19/2021 7:45:00 AM 21.72 71.096 8.15 404.9 2.07 90.6
9/19/2021 8:00:00 AM 21.69 71.042 8.15 405.2 1.99 90.6
9/19/2021 8:15:00 AM 21.67 71.006 8.16 405.2 2.06 91.2
9/19/2021 8:30:00 AM 21.65 70.97 8.16 405.4 2.14 91.4
9/19/2021 8:45:00 AM 21.63 70.934 8.16 405.7 1.93 91.9
9/19/2021 9:00:00 AM 21.62 70.916 8.15 405.7 2.05 92.4
9/19/2021 9:15:00 AM 21.6 70.88 8.14 406.1 1.81 92.5
9/19/2021 9:30:00 AM 21.58 70.844 8.14 406.3 2.14 93.1
9/19/2021 9:45:00 AM 21.57 70.826 8.15 406.3 1.92 93.5
9/19/2021 10:00:00 AM 21.56 70.808 8.15 406.8 1.97 93.5
9/19/2021 10:15:00 AM 21.55 70.79 8.15 406.9 1.75 94
9/19/2021 10:30:00 AM 21.55 70.79 8.15 407.3 2.21 94.9
9/19/2021 10:45:00 AM 21.57 70.826 8.16 407.4 2.03 95.6
9/19/2021 11:00:00 AM 21.61 70.898 8.16 407.8 1.88 96.7
9/19/2021 11:15:00 AM 21.65 70.97 8.17 408 1.65 97.2
9/19/2021 11:30:00 AM 21.71 71.078 8.18 408.3 1.91 98.4
9/19/2021 11:45:00 AM 21.79 71.222 8.18 408.5 1.78 99.3
9/19/2021 12:00:00 PM 21.92 71.456 8.19 408.8 1.51 101.1
9/19/2021 12:15:00 PM 22.05 71.69 8.2 409.1 3.62 102.4
9/19/2021 12:30:00 PM 22.19 71.942 8.2 409.6 4.89 103.6
9/19/2021 12:45:00 PM 22.36 72.248 8.21 409.9 4.5 104.8
9/19/2021 1:00:00 PM 22.55 72.59 8.21 409.9 1.77 106.3
9/19/2021 1:15:00 PM 22.71 72.878 8.21 410.3 2.38 107.6
9/19/2021 1:30:00 PM 22.87 73.166 8.22 410.8 2.93 108.7
9/19/2021 1:45:00 PM 23.04 73.472 8.22 410.9 3.3 109.9
9/19/2021 2:00:00 PM 23.22 73.796 8.23 411.2 2.1 111
9/19/2021 2:15:00 PM 23.39 74.102 8.24 411.6 3.65 111.6
9/19/2021 2:30:00 PM 23.5 74.3 8.24 411.8 1.92 112.3
9/19/2021 2:45:00 PM 23.62 74.516 8.26 412.6 1.57 113.4
9/19/2021 3:00:00 PM 23.74 74.732 8.26 412.9 1.7 113.5
9/19/2021 3:15:00 PM 23.82 74.876 8.29 413.4 1.8 113.5
9/19/2021 3:30:00 PM 23.88 74.984 8.28 413.4 1.89 114
9/19/2021 3:45:00 PM 23.9 75.02 8.26 413.6 1.87 113.9
9/19/2021 4:00:00 PM 23.9 75.02 8.26 414 1.87 113.5
9/19/2021 4:15:00 PM 23.85 74.93 8.26 414.3 1.98 113.1
9/19/2021 4:30:00 PM 23.77 74.786 8.24 414.9 1.81 112.5
9/19/2021 4:45:00 PM 23.69 74.642 8.24 415.4 1.68 111.4
9/19/2021 5:00:00 PM 23.54 74.372 8.24 415.4 2.16 109.8
9/19/2021 5:15:00 PM 23.34 74.012 8.23 415.9 1.52 107.2
9/19/2021 5:30:00 PM 23.13 73.634 8.21 416.1 1.61 105.2
9/19/2021 5:45:00 PM 22.92 73.256 8.2 416.5 1.69 102.4
9/19/2021 6:00:00 PM 22.74 72.932 8.19 416.8 1.93 99.7
9/19/2021 6:15:00 PM 22.59 72.662 8.17 417.2 4.68 97.1
9/19/2021 6:30:00 PM 22.48 72.464 8.16 417.5 41.56 95.9
9/19/2021 6:45:00 PM 22.36 72.248 8.14 418.2 3.88 94.1
9/19/2021 7:00:00 PM 22.25 72.05 8.12 418.5 1.63 93.1
9/19/2021 7:15:00 PM 22.15 71.87 8.13 419.1 19.11 91.9
9/19/2021 7:30:00 PM 22.06 71.708 8.12 409.2 1.65 90.7
9/19/2021 7:45:00 PM 21.97 71.546 8.12 419.8 36.28 89.6
9/19/2021 8:00:00 PM 21.9 71.42 8.11 420 14.23 88.9
9/19/2021 8:15:00 PM 21.83 71.294 8.11 420.6 2.64 88.5
9/19/2021 8:30:00 PM 21.76 71.168 8.1 420.9 11.86 88
9/19/2021 8:45:00 PM 21.7 71.06 8.09 421.4 2.01 87.7
9/19/2021 9:00:00 PM 21.63 70.934 8.09 421.9 13.89 87.4
9/19/2021 9:15:00 PM 21.59 70.862 8.09 422.3 2.11 87.7
9/19/2021 9:30:00 PM 21.54 70.772 8.09 422.6 1.88 87.7
9/19/2021 9:45:00 PM 21.5 70.7 8.09 422.8 12.39 87.4
9/19/2021 10:00:00 PM 21.46 70.628 8.19 423.2 1.65 87.7
9/19/2021 10:15:00 PM 21.43 70.574 8.26 423.3 1.89 87.8
9/19/2021 10:30:00 PM 21.4 70.52 8.18 423.4 2.56 88
9/19/2021 10:45:00 PM 21.37 70.466 8.17 423.4 2.69 88.2
9/19/2021 11:00:00 PM 21.34 70.412 8.18 423.5 19.59 88.4
9/19/2021 11:15:00 PM 21.31 70.358 8.17 423.6 1.58 88.6
9/19/2021 11:30:00 PM 21.29 70.32201 8.18 423.6 2.34 88.7
9/19/2021 11:45:00 PM 21.26 70.268 8.17 423.6 12.11 88.6
9/20/2021 12:00:00 AM 21.23 70.214 8.17 423.8 5.05 89.1
9/20/2021 12:15:00 AM 21.21 70.17799 8.18 420.9 65.53 89.6
9/20/2021 12:30:00 AM 21.19 70.142 8.18 423.9 9.09 89.7
9/20/2021 12:45:00 AM 21.17 70.106 8.18 424 39.12 90
9/20/2021 1:00:00 AM 21.15 70.07 8.2 424 41.76 90.2
9/20/2021 1:15:00 AM 21.13 70.034 8.2 423.7 20.39 90.5
9/20/2021 1:30:00 AM 21.12 70.016 8.2 424 22.25 90.9
9/20/2021 1:45:00 AM 21.1 69.98 8.21 423.6 39.86 90.8
9/20/2021 2:00:00 AM 21.1 69.98 8.22 423.4 35.8 91.5
9/20/2021 2:15:00 AM 21.08 69.944 8.21 423.6 38.47 91.4
9/20/2021 2:30:00 AM 21.06 69.908 8.22 423.6 47.26 91.4
9/20/2021 2:45:00 AM 21.07 69.926 8.22 423.5 26.17 91.6
9/20/2021 3:00:00 AM 21.06 69.908 8.23 423.5 7.29 91.8
9/20/2021 3:15:00 AM 21.05 69.89 8.24 423.7 2.36 91.4
9/20/2021 3:30:00 AM 21.05 69.89 8.23 423.8 6.72 92.4
9/20/2021 3:45:00 AM 21.02 69.836 8.25 423.9 1.82 92.1
9/20/2021 4:00:00 AM 21.01 69.818 8.25 424 47.71 92.3
9/20/2021 4:15:00 AM 21.01 69.818 8.24 424.1 23.84 92.5
9/20/2021 4:30:00 AM 20.98 69.764 8.25 419.4 25.49 92.4
9/20/2021 4:45:00 AM 20.96 69.728 8.24 424.6 23.71 92.5
9/20/2021 5:00:00 AM 20.94 69.692 8.25 414.5 24.87 92.5
9/20/2021 5:15:00 AM 20.92 69.656 8.24 425 21.8 92.3
9/20/2021 5:30:00 AM 20.9 69.62 8.24 425.1 5.97 91.7
9/20/2021 5:45:00 AM 20.87 69.566 8.23 425.4 8.6 92.1
9/20/2021 6:00:00 AM 20.85 69.53 8.23 425.4 145.9 92.1
9/20/2021 6:15:00 AM 20.83 69.494 8.23 425.7 6.93 91.8
9/20/2021 6:30:00 AM 20.8 69.44 8.23 425.8 3.89 91.9
9/20/2021 6:45:00 AM 20.78 69.404 8.22 426.2 3.47 91.6
9/20/2021 7:00:00 AM 20.75 69.35 8.23 426.1 20.91 91.7
9/20/2021 7:15:00 AM 20.74 69.332 8.21 426.3 3.73 91.4
9/20/2021 7:30:00 AM 20.74 69.332 8.21 426.3 97.93 91.9
9/20/2021 7:45:00 AM 20.74 69.332 8.22 426.5 25.04 91.8
9/20/2021 8:00:00 AM 20.73 69.314 8.22 426.6 2.34 92.2
9/20/2021 8:15:00 AM 20.73 69.314 8.22 426.6 2.53 92.7
9/20/2021 8:30:00 AM 20.74 69.332 8.22 426.6 2.8 93.8
9/20/2021 8:45:00 AM 20.74 69.332 8.23 426.8 2.12 94.5
9/20/2021 9:00:00 AM 20.76 69.368 8.24 426.9 3.02 95.3
9/20/2021 9:15:00 AM 20.77 69.386 8.23 427.2 2.33 95.9
9/20/2021 9:30:00 AM 20.78 69.404 8.24 427.4 3.19 96.4
9/20/2021 9:45:00 AM 20.79 69.422 8.24 427.5 2.18 96.8
9/20/2021 10:00:00 AM 20.78 69.404 8.24 427.7 1.92 97.2
9/20/2021 10:15:00 AM 20.79 69.422 8.24 427.9 2.08 97.8
9/20/2021 10:30:00 AM 20.82 69.476 8.25 427.9 2.49 98.4
9/20/2021 10:45:00 AM 20.85 69.53 8.24 428.1 2.15 99
9/20/2021 11:00:00 AM 20.91 69.638 8.24 428.2 2.01 99.9
9/20/2021 11:15:00 AM 20.94 69.692 8.25 428.5 1.88 100.8
9/20/2021 11:30:00 AM 21 69.8 8.25 428.7 1.98 101.7
9/20/2021 11:45:00 AM 21.09 69.962 8.25 428.5 2.51 102.8
9/20/2021 12:00:00 PM 21.22 70.196 8.26 428.7 2.16 104.4
9/20/2021 12:15:00 PM 21.34 70.412 8.27 428.6 2.04 105.6
9/20/2021 12:30:00 PM 21.49 70.682 8.28 428.9 2.15 107.4
9/20/2021 12:45:00 PM 21.67 71.006 8.28 429.1 2.08 109
9/20/2021 1:00:00 PM 21.81 71.258 8.28 428.9 1.71 110.3
9/20/2021 1:15:00 PM 21.86 71.348 8.28 429 1.99 111.2
9/20/2021 1:30:00 PM 21.97 71.546 8.29 429.1 1.93 112
9/20/2021 1:45:00 PM 22.19 71.942 8.29 429.1 1.68 113.7
9/20/2021 2:00:00 PM 22.35 72.23 8.29 429 1.92 114.8
9/20/2021 2:15:00 PM 22.47 72.446 8.29 430.1 2 115.2
9/20/2021 2:30:00 PM 22.61 72.698 8.29 430.2 1.75 115.8
9/20/2021 2:45:00 PM 22.74 72.932 8.29 430.7 2.33 116.8
9/20/2021 3:00:00 PM 22.88 73.184 8.29 430.7 107 117.3
9/20/2021 3:15:00 PM 22.84 73.112 8.28 430 1.86 116.5
9/20/2021 3:30:00 PM 22.86 73.148 8.28 431 1.97 116.3
9/20/2021 3:45:00 PM 22.71 72.878 8.27 431.1 2.1 115
9/20/2021 4:00:00 PM 22.6 72.68 8.27 431.8 2.15 113.8
9/20/2021 4:15:00 PM 22.39 72.302 8.26 431.7 1.73 111.5
9/20/2021 4:30:00 PM 22.22 71.996 8.25 432.2 1.97 109.2
9/20/2021 4:45:00 PM 22.27 72.086 8.25 432.2 1.77 109.7
9/20/2021 5:00:00 PM 22.04 71.672 8.25 432.8 1.81 108.2
9/20/2021 5:15:00 PM 21.87 71.366 8.26 433 16.78 105.9
9/20/2021 5:30:00 PM 21.79 71.222 8.26 432.8 1.61 105.2
9/20/2021 5:45:00 PM 21.61 70.898 8.23 433.5 1.69 103.2
9/20/2021 6:00:00 PM 21.52 70.736 8.24 433.6 1.68 102.1
9/20/2021 6:15:00 PM 21.4 70.52 8.22 434 41.82 100.8
9/20/2021 6:30:00 PM 21.29 70.32201 8.21 434.1 2.5 99
9/20/2021 6:45:00 PM 21.18 70.124 8.2 434.4 1.65 97.4
9/20/2021 7:00:00 PM 21.08 69.944 8.19 434.2 1.74 95.8
9/20/2021 7:15:00 PM 20.99 69.782 8.17 435.2 8.36 94.1
9/20/2021 7:30:00 PM 20.91 69.638 8.15 434.9 1.58 92.6
9/20/2021 7:45:00 PM 20.84 69.512 8.14 435.3 2.07 91.4
9/20/2021 8:00:00 PM 20.77 69.386 8.14 435.5 1.57 90.1
9/20/2021 8:15:00 PM 20.72 69.296 8.12 435.8 1.55 89.4
9/20/2021 8:30:00 PM 20.66 69.188 8.14 436 2.96 87.2
9/20/2021 8:45:00 PM 20.61 69.098 8.13 436.3 50.32 88.6
9/20/2021 9:00:00 PM 20.56 69.008 8.1 436.8 2.72 88.5
9/20/2021 9:15:00 PM 20.52 68.936 8.1 436.8 2.22 88.4
9/20/2021 9:30:00 PM 20.48 68.864 8.11 437.1 2.7 88.5
9/20/2021 9:45:00 PM 20.44 68.792 8.1 437.3 1.92 88.5
9/20/2021 10:00:00 PM 20.41 68.738 8.11 437.5 1.81 88.5
9/20/2021 10:15:00 PM 20.37 68.666 8.1 437.5 3.33 88.7
9/20/2021 10:30:00 PM 20.34 68.612 8.1 437.6 2.24 88.5
9/20/2021 10:45:00 PM 20.32 68.576 8.1 437.5 1.82 88.6
9/20/2021 11:00:00 PM 20.29 68.522 8.11 437.2 2.66 89.1
9/20/2021 11:15:00 PM 20.25 68.45 8.11 437.3 2.26 89.2
9/20/2021 11:30:00 PM 20.23 68.414 8.12 436.9 2.13 89.2
9/20/2021 11:45:00 PM 20.2 68.36 8.12 436.6 3.56 89.7
9/21/2021 12:00:00 AM 20.17 68.306 8.13 436.5 1.89 90.1
9/21/2021 12:15:00 AM 20.15 68.27 8.13 436.2 2.77 90.2
9/21/2021 12:30:00 AM 20.12 68.216 8.14 436.1 2.45 90.8
9/21/2021 12:45:00 AM 20.1 68.18 8.15 436.3 2.07 90.7
9/21/2021 1:00:00 AM 20.09 68.162 8.17 436.2 2.15 90.9
9/21/2021 1:15:00 AM 20.08 68.144 8.15 435.9 2.88 90.9
9/21/2021 1:30:00 AM 20.08 68.144 8.16 435.4 17.65 91.2
9/21/2021 1:45:00 AM 20.08 68.144 8.16 426.3 1.94 91.4
9/21/2021 2:00:00 AM 20.1 68.18 8.18 434.8 1.8 91.9
9/21/2021 2:15:00 AM 20.11 68.198 8.19 434.5 3.43 92.3
9/21/2021 2:30:00 AM 20.12 68.216 8.19 434.2 3.4 92.4
9/21/2021 2:45:00 AM 20.13 68.234 8.21 434.2 2.61 92.2
9/21/2021 3:00:00 AM 20.13 68.234 8.21 434 2.33 92.9
9/21/2021 3:15:00 AM 20.16 68.288 8.21 433.9 2.36 93.2
9/21/2021 3:30:00 AM 20.17 68.306 8.23 433.5 2.64 93.6
9/21/2021 3:45:00 AM 20.18 68.324 8.23 433.4 4.22 93.6
9/21/2021 4:00:00 AM 20.18 68.324 8.23 433.6 26.83 93.8
9/21/2021 4:15:00 AM 20.2 68.36 8.24 433.4 2.18 93.8
9/21/2021 4:30:00 AM 20.21 68.378 8.25 433.6 2.02 94
9/21/2021 4:45:00 AM 20.23 68.414 8.24 433.6 5.99 94.3
9/21/2021 5:00:00 AM 20.24 68.432 8.26 433.8 45.54 94.1
9/21/2021 5:15:00 AM 20.25 68.45 8.25 433.9 9.89 93.8
9/21/2021 5:30:00 AM 20.24 68.432 8.26 434.4 10.1 94.1
9/21/2021 5:45:00 AM 20.23 68.414 8.26 430.3 8.83 94
9/21/2021 6:00:00 AM 20.22 68.396 8.26 434.3 2.02 93.8
9/21/2021 6:15:00 AM 20.22 68.396 8.24 434.4 3.05 93.9
9/21/2021 6:30:00 AM 20.21 68.378 8.25 434.6 2.25 94
9/21/2021 6:45:00 AM 20.2 68.36 8.27 434.8 18.27 94.2
9/21/2021 7:00:00 AM 20.18 68.324 8.26 435 5.93 93.9
9/21/2021 7:15:00 AM 20.17 68.306 8.25 435.3 2.61 93.7
9/21/2021 7:30:00 AM 20.18 68.324 8.25 435 2.03 94
9/21/2021 7:45:00 AM 20.19 68.342 8.25 435.1 1.69 94.3
9/21/2021 8:00:00 AM 20.19 68.342 8.26 435 1.86 94.7
9/21/2021 8:15:00 AM 20.19 68.342 8.25 435.5 2.32 95
9/21/2021 8:30:00 AM 20.22 68.396 8.26 435.1 1.83 95.7
9/21/2021 8:45:00 AM 20.24 68.432 8.26 434.8 1.61 96.8
9/21/2021 9:00:00 AM 20.27 68.486 8.28 435.1 1.33 97.6
9/21/2021 9:15:00 AM 20.31 68.558 8.29 434.8 1.72 98.9
9/21/2021 9:30:00 AM 20.35 68.63 8.28 435 1.86 100.5
9/21/2021 9:45:00 AM 20.39 68.702 8.29 435 2.7 102.1
9/21/2021 10:00:00 AM 20.4 68.72 8.28 435.1 1.54 102
9/21/2021 10:15:00 AM 20.42 68.756 8.29 435.5 1.98 103.2
9/21/2021 10:30:00 AM 20.47 68.846 8.3 435 1.78 104.1
9/21/2021 10:45:00 AM 20.56 69.008 8.3 435.1 1.67 106.5
9/21/2021 11:00:00 AM 20.57 69.026 8.31 435.5 1.71 107.4
9/21/2021 11:15:00 AM 20.57 69.026 8.31 435.8 1.57 107.7
9/21/2021 11:30:00 AM 20.58 69.044 8.31 435.7 1.43 108
9/21/2021 11:45:00 AM 20.59 69.062 8.31 436 2.08 108.4
9/21/2021 12:00:00 PM 20.61 69.098 8.31 436 1.43 109
9/21/2021 12:15:00 PM 20.66 69.188 8.31 436.1 1.75 109.9
9/21/2021 12:30:00 PM 20.65 69.17 8.31 436.5 1.65 110.4
9/21/2021 12:45:00 PM 20.62 69.116 8.3 436.7 1.7 109.3
9/21/2021 1:00:00 PM 20.61 69.098 8.29 436.9 1.63 109.3
9/21/2021 1:15:00 PM 20.7 69.26 8.31 436.7 1.64 111
9/21/2021 1:30:00 PM 20.67 69.206 8.29 437.3 1.53 110.8
9/21/2021 1:45:00 PM 20.66 69.188 8.29 437.6 1.6 110.3
9/21/2021 2:00:00 PM 20.7 69.26 8.3 437.5 1.71 111.1
9/21/2021 2:15:00 PM 20.75 69.35 8.29 437.7 1.65 111.6
9/21/2021 2:30:00 PM 21.08 69.944 8.29 438.1 1.67 113.3
9/21/2021 2:45:00 PM 21.2 70.16 8.28 438.3 2.03 114.1
9/21/2021 3:00:00 PM 21.24 70.232 8.29 438.8 1.84 114.5
9/21/2021 3:15:00 PM 21.4 70.52 8.29 438.6 1.79 115.5
9/21/2021 3:30:00 PM 21.48 70.664 8.3 438.6 1.95 116.2
9/21/2021 3:45:00 PM 21.54 70.772 8.3 438.7 1.56 116.1
9/21/2021 4:00:00 PM 21.67 71.006 8.31 438.9 1.86 116.6
9/21/2021 4:15:00 PM 21.56 70.808 8.3 439.4 2.07 115.3
9/21/2021 4:30:00 PM 21.39 70.502 8.3 440.2 1.89 113
9/21/2021 4:45:00 PM 21.28 70.304 8.29 440.5 1.57 111.2
9/21/2021 5:00:00 PM 21.13 70.034 8.28 440.7 8.94 108.8
9/21/2021 5:15:00 PM 21.02 69.836 8.25 441.2 1.52 107.1
9/21/2021 5:30:00 PM 20.89 69.602 8.25 441.7 3.28 105.4
9/21/2021 5:45:00 PM 20.79 69.422 8.23 442.2 1.61 102.9
9/21/2021 6:00:00 PM 20.69 69.242 8.21 442.7 4.9 100.6
9/21/2021 6:15:00 PM 20.59 69.062 8.2 443 12.7 99.1
9/21/2021 6:30:00 PM 20.52 68.936 8.18 443.4 1.87 97.5
9/21/2021 6:45:00 PM 20.45 68.81 8.19 444 1.63 96.1
9/21/2021 7:00:00 PM 20.39 68.702 8.17 444.4 11.28 94.6
9/21/2021 7:15:00 PM 20.33 68.594 8.15 444.1 12.95 93.1
9/21/2021 7:30:00 PM 20.29 68.522 8.13 445.3 1.95 92
9/21/2021 7:45:00 PM 20.24 68.432 8.12 445.1 3.66 90.7
9/21/2021 8:00:00 PM 20.2 68.36 8.11 445.3 1.93 90
9/21/2021 8:15:00 PM 20.17 68.306 8.1 445.7 2.51 89.3
9/21/2021 8:30:00 PM 20.15 68.27 8.09 445.9 2.31 88.7
9/21/2021 8:45:00 PM 20.12 68.216 8.09 446.1 1.97 88.6
9/21/2021 9:00:00 PM 20.09 68.162 8.09 446.4 114.9 88.1
9/21/2021 9:15:00 PM 20.07 68.126 8.09 446.5 1.6 88.2
9/21/2021 9:30:00 PM 20.04 68.07201 8.09 446.5 1.56 88.2
9/21/2021 9:45:00 PM 20.02 68.036 8.09 446.6 1.9 87.9
9/21/2021 10:00:00 PM 20 68 8.09 446.5 1.26 88.1
9/21/2021 10:15:00 PM 19.98 67.964 8.09 446.5 1.78 88.1
9/21/2021 10:30:00 PM 19.96 67.92799 8.09 446.7 1.53 88
9/21/2021 10:45:00 PM 19.94 67.892 8.09 446.8 12.9 88.5
9/21/2021 11:00:00 PM 19.92 67.856 8.09 447.2 19.91 88.3
9/21/2021 11:15:00 PM 19.91 67.838 8.09 447.1 1.75 88.5
9/21/2021 11:30:00 PM 19.89 67.802 8.09 447.5 1.34 88.7
9/21/2021 11:45:00 PM 19.88 67.784 8.1 447.6 1.26 89
9/22/2021 12:00:00 AM 19.86 67.748 8.1 448.3 1.88 89
9/22/2021 12:15:00 AM 19.85 67.73 8.1 448.4 1.9 89.3
9/22/2021 12:30:00 AM 19.83 67.694 8.11 448.4 1.7 89.5
9/22/2021 12:45:00 AM 19.82 67.676 8.11 448.5 6.25 89.8
9/22/2021 1:00:00 AM 19.82 67.676 8.12 440.3 5.25 89.8
9/22/2021 1:15:00 AM 19.81 67.658 8.12 448.4 1.73 89.5
9/22/2021 1:30:00 AM 19.81 67.658 8.12 447.3 1.95 89.4
9/22/2021 1:45:00 AM 19.81 67.658 8.12 447.9 1.78 90.3
9/22/2021 2:00:00 AM 19.81 67.658 8.13 447.7 1.57 90.8
9/22/2021 2:15:00 AM 19.81 67.658 8.13 447.7 1.55 91.3
9/22/2021 2:30:00 AM 19.81 67.658 8.14 447.1 1.97 91.3
9/22/2021 2:45:00 AM 19.82 67.676 8.14 447.1 25.08 91.4
9/22/2021 3:00:00 AM 19.82 67.676 8.15 446.7 2.09 91.5
9/22/2021 3:15:00 AM 19.83 67.694 8.16 446.8 16.79 91.8
9/22/2021 3:30:00 AM 19.83 67.694 8.16 445.4 1.75 91.5
9/22/2021 3:45:00 AM 19.83 67.694 8.16 446.3 15.63 91.8
9/22/2021 4:00:00 AM 19.84 67.712 8.17 446.3 1.53 92.4
9/22/2021 4:15:00 AM 19.84 67.712 8.17 446 3.4 92.7
9/22/2021 4:30:00 AM 19.85 67.73 8.18 445.6 4.7 92.5
9/22/2021 4:45:00 AM 19.85 67.73 8.19 445.5 1.86 92.9
9/22/2021 5:00:00 AM 19.85 67.73 8.19 445.5 1.77 92.9
9/22/2021 5:15:00 AM 19.86 67.748 8.19 445.1 8.71 92.7
9/22/2021 5:30:00 AM 19.87 67.766 8.2 444.9 11.26 93.2
9/22/2021 5:45:00 AM 19.88 67.784 8.2 444.9 10.82 93.1
9/22/2021 6:00:00 AM 19.88 67.784 8.2 444.5 1.65 93.3
9/22/2021 6:15:00 AM 19.89 67.802 8.2 444.4 2.11 93.3
9/22/2021 6:30:00 AM 19.9 67.82 8.2 444.4 1.96 93.7
9/22/2021 6:45:00 AM 19.9 67.82 8.21 444.1 1.45 93.5
9/22/2021 7:00:00 AM 19.91 67.838 8.21 444.1 1.59 93.6
9/22/2021 7:15:00 AM 19.91 67.838 8.21 444 2.05 93.5
9/22/2021 7:30:00 AM 19.92 67.856 8.22 444.1 2.17 93.8
9/22/2021 7:45:00 AM 19.93 67.874 8.21 444.5 2.09 93.4
9/22/2021 8:00:00 AM 19.93 67.874 8.21 444.6 2.16 93.5
9/22/2021 8:15:00 AM 19.95 67.91 8.21 444.6 2.51 93.6
9/22/2021 8:30:00 AM 19.96 67.92799 8.22 444.2 1.5 94.1
9/22/2021 8:45:00 AM 19.98 67.964 8.22 443.6 1.48 94.7
9/22/2021 9:00:00 AM 20 68 8.22 443.8 1.51 95.3
9/22/2021 9:15:00 AM 20.02 68.036 8.22 443.9 1.69 95.8
9/22/2021 9:30:00 AM 20.06 68.108 8.23 443.7 1.64 97.4
9/22/2021 9:45:00 AM 20.1 68.18 8.24 443.7 28.93 98.2
9/22/2021 10:00:00 AM 20.13 68.234 8.24 443.7 1.45 98.9
9/22/2021 10:15:00 AM 20.18 68.324 8.25 443.2 1.86 100.1
9/22/2021 10:30:00 AM 20.23 68.414 8.25 442.9 1.51 101.6
9/22/2021 10:45:00 AM 20.25 68.45 8.26 443 1.89 102.2
9/22/2021 11:00:00 AM 20.3 68.54 8.28 443 1.58 103.3
9/22/2021 11:15:00 AM 20.34 68.612 8.27 443 1.52 104.7
9/22/2021 11:30:00 AM 20.38 68.684 8.28 443.1 1.49 105.9
9/22/2021 11:45:00 AM 20.39 68.702 8.29 443.4 1.48 106.2
9/22/2021 12:00:00 PM 20.38 68.684 8.3 443.7 1.68 105.8
9/22/2021 12:15:00 PM 20.37 68.666 8.29 443.8 1.57 104.9
9/22/2021 12:30:00 PM 20.35 68.63 8.29 443.1 1.54 103.9
9/22/2021 12:45:00 PM 20.35 68.63 8.28 443.1 1.41 103.8
9/22/2021 1:00:00 PM 20.35 68.63 8.27 442.3 1.41 103.5
9/22/2021 1:15:00 PM 20.35 68.63 8.26 443.2 1.63 103.7
9/22/2021 1:30:00 PM 20.33 68.594 8.26 443.7 1.52 102.8
9/22/2021 1:45:00 PM 20.31 68.558 8.24 444.2 1.79 101.9
9/22/2021 2:00:00 PM 20.28 68.504 8.23 444.3 2.08 101.5
9/22/2021 2:15:00 PM 20.25 68.45 8.23 445 2.4 100.8
9/22/2021 2:30:00 PM 20.24 68.432 8.22 445.4 1.93 100.7
9/22/2021 2:45:00 PM 20.21 68.378 8.21 444.6 1.9 99.7
9/22/2021 3:00:00 PM 20.21 68.378 8.21 444.8 2.23 99.4
9/22/2021 3:15:00 PM 20.19 68.342 8.2 445.1 1.81 99.2
9/22/2021 3:30:00 PM 20.15 68.27 8.19 445.2 1.56 97.7
9/22/2021 3:45:00 PM 20.15 68.27 8.18 445.3 1.73 96.8
9/22/2021 4:00:00 PM 20.14 68.252 8.18 445.4 1.8 97
9/22/2021 4:15:00 PM 20.13 68.234 8.17 445.2 2.15 95.9
9/22/2021 4:30:00 PM 20.12 68.216 8.16 445.1 1.9 95.3
9/22/2021 4:45:00 PM 20.11 68.198 8.15 445.4 1.78 94.7
9/22/2021 5:00:00 PM 20.09 68.162 8.15 445.6 2.01 93.9
9/22/2021 5:15:00 PM 20.09 68.162 8.14 445.7 1.74 93.2
9/22/2021 5:30:00 PM 20.1 68.18 8.14 444.7 2.44 92.8
9/22/2021 5:45:00 PM 20.07 68.126 8.12 443.8 5.1 91.7
9/22/2021 6:00:00 PM 20.06 68.108 8.11 442.1 3.49 90.5
9/22/2021 6:15:00 PM 20.03 68.054 8.11 443.2 2.13 90
9/22/2021 6:30:00 PM 20.01 68.018 8.1 443.5 11.29 89
9/22/2021 6:45:00 PM 20 68 8.09 443.8 2.71 88.7
9/22/2021 7:00:00 PM 19.98 67.964 8.08 444.2 2.49 88.3
9/22/2021 7:15:00 PM 19.97 67.946 8.08 445 2.26 88.2
9/22/2021 7:30:00 PM 19.95 67.91 8.07 445.9 25.73 87.7
9/22/2021 7:45:00 PM 19.93 67.874 8.07 447.2 3.73 87.4
9/22/2021 8:00:00 PM 19.92 67.856 8.06 448.6 5.83 87.3
9/22/2021 8:15:00 PM 19.91 67.838 8.06 449.7 2.66 87
9/22/2021 8:30:00 PM 19.9 67.82 8.06 450.2 19.69 86.4
9/22/2021 8:45:00 PM 19.89 67.802 8.06 451.1 10.76 86.5
9/22/2021 9:00:00 PM 19.89 67.802 8.05 452 2.49 86.2
9/22/2021 9:15:00 PM 19.87 67.766 8.05 452.7 3.39 86
9/22/2021 9:30:00 PM 19.86 67.748 8.05 453.3 4.7 86.1
9/22/2021 9:45:00 PM 19.85 67.73 8.05 453.6 1.82 85.4
9/22/2021 10:00:00 PM 19.83 67.694 8.05 453.7 2.1 84.8
9/22/2021 10:15:00 PM 19.82 67.676 8.05 454 2.12 86.5
9/22/2021 10:30:00 PM 19.82 67.676 8.06 454.2 3.8 86.5
9/22/2021 10:45:00 PM 19.82 67.676 8.05 454.4 1.83 86.4
9/22/2021 11:00:00 PM 19.82 67.676 8.04 454.4 2.53 86.5
9/22/2021 11:15:00 PM 19.81 67.658 8.06 454.4 2.82 86.6
9/22/2021 11:30:00 PM 19.81 67.658 8.06 454.6 16.43 87
9/22/2021 11:45:00 PM 19.81 67.658 8.06 454.8 3.53 87
9/23/2021 12:00:00 AM 19.8 67.64 8.06 455.2 2.62 86.8
9/23/2021 12:15:00 AM 19.8 67.64 8.06 455.5 2.64 87.3
9/23/2021 12:30:00 AM 19.8 67.64 8.07 455.5 2.79 87.6
9/23/2021 12:45:00 AM 19.8 67.64 8.07 455.6 4.56 87.4
9/23/2021 1:00:00 AM 19.8 67.64 8.08 455.6 2.81 87.3
9/23/2021 1:15:00 AM 19.8 67.64 8.08 455.5 4.62 88
9/23/2021 1:30:00 AM 19.8 67.64 8.08 455.3 5.91 88.5
9/23/2021 1:45:00 AM 19.81 67.658 8.08 455.1 5.96 88.4
9/23/2021 2:00:00 AM 19.81 67.658 8.09 452.1 2.49 88.8
9/23/2021 2:15:00 AM 19.81 67.658 8.09 452.1 3.41 88.9
9/23/2021 2:30:00 AM 19.82 67.676 8.09 455 3.58 89.2
9/23/2021 2:45:00 AM 19.82 67.676 8.1 454.6 3.37 89.5
9/23/2021 3:00:00 AM 19.82 67.676 8.11 454.6 3.47 89.7
9/23/2021 3:15:00 AM 19.78 67.604 8.11 454.2 46.91 89.9
9/23/2021 3:30:00 AM 19.74 67.532 8.12 452.2 2.18 88.5
9/23/2021 3:45:00 AM 19.7 67.46 8.13 449.6 12.92 90.9
9/23/2021 4:00:00 AM 19.67 67.406 8.12 446.1 41.78 90.8
9/23/2021 4:15:00 AM 19.57 67.226 8.14 437.5 12.31 91.7
9/23/2021 4:30:00 AM 19.45 67.01 8.15 416.6 31.96 92.2
9/23/2021 4:45:00 AM 19.35 66.83 8.14 399.2 8.72 92.3
9/23/2021 5:00:00 AM 19.29 66.722 8.12 384 20.74 92.4
9/23/2021 5:15:00 AM 19.21 66.578 8.09 365.7 37.94 92.3
9/23/2021 5:30:00 AM 19.16 66.488 8.07 354.1 27.86 91.9
9/23/2021 5:45:00 AM 19.15 66.47 8.05 353.2 28.17 91.4
9/23/2021 6:00:00 AM 19.13 66.434 8.04 356.1 26.67 91.3
9/23/2021 6:15:00 AM 19.06 66.308 8.04 357.1 22.56 91.2
9/23/2021 6:30:00 AM 18.96 66.128 8.03 347.7 31.89 91.5
9/23/2021 6:45:00 AM 18.94 66.092 8.01 348.5 33.25 91.2
9/23/2021 7:00:00 AM 18.9 66.02 7.99 346.2 43.59 91.1
9/23/2021 7:15:00 AM 18.89 66.002 7.98 350.7 27.87 90.9
9/23/2021 7:30:00 AM 18.89 66.002 7.98 361.3 47 90.9
9/23/2021 7:45:00 AM 18.89 66.002 7.99 373.7 40.6 91
9/23/2021 8:00:00 AM 18.88 65.984 8 383.3 30.33 91.5
9/23/2021 8:15:00 AM 18.84 65.912 8.01 385.8 35.59 91.9
9/23/2021 8:30:00 AM 18.78 65.804 8 380.6 29.8 92.2
9/23/2021 8:45:00 AM 18.72 65.696 7.99 369.6 34.44 92.4
9/23/2021 9:00:00 AM 18.65 65.57 7.97 354.7 48.53 92.4
9/23/2021 9:15:00 AM 18.6 65.48 7.94 340.8 45.94 92.1
9/23/2021 9:30:00 AM 18.55 65.39 7.9 323.6 60.55 91.8
9/23/2021 9:45:00 AM 18.5 65.3 7.85 310.1 69.68 91
9/23/2021 10:00:00 AM 18.46 65.228 7.82 299.7 84.31 90.8
9/23/2021 10:15:00 AM 18.43 65.174 7.79 291.4 69 90.7
9/23/2021 10:30:00 AM 18.43 65.174 7.76 283.7 82.01 90.7
9/23/2021 10:45:00 AM 18.46 65.228 7.74 275.2 98.7 90.9
9/23/2021 11:00:00 AM 18.51 65.318 7.71 264.7 88.58 91
9/23/2021 11:15:00 AM 18.59 65.462 7.68 253.8 112.6 91.1
9/23/2021 11:30:00 AM 18.68 65.624 7.66 236.3 110.9 91.1
9/23/2021 11:45:00 AM 18.75 65.75 7.64 235.3 119.8 91.1
9/23/2021 12:00:00 PM 18.84 65.912 7.61 222.9 101.3 91.1
9/23/2021 12:15:00 PM 18.92 66.056 7.6 216.6 102.6 91
9/23/2021 12:30:00 PM 19 66.2 7.58 211.1 82.04 91.3
9/23/2021 12:45:00 PM 19.06 66.308 7.57 206.2 100.3 91.1
9/23/2021 1:00:00 PM 19.1 66.38 7.57 204.1 99.57 91.3
9/23/2021 1:15:00 PM 19.13 66.434 7.57 204.6 103.2 91.1
9/23/2021 1:30:00 PM 19.16 66.488 7.56 203.8 91.18 91
9/23/2021 1:45:00 PM 19.17 66.506 7.56 202.3 84.44 91.1
9/23/2021 2:00:00 PM 19.19 66.542 7.56 201.2 94.82 90.5
9/23/2021 2:15:00 PM 19.22 66.596 7.55 198.3 135.6 90.6
9/23/2021 2:30:00 PM 19.26 66.668 7.55 196.9 111.5 90.4
9/23/2021 2:45:00 PM 19.26 66.668 7.54 193.1 96.96 90.1
9/23/2021 3:00:00 PM 19.27 66.686 7.53 192.9 102.4 89.2
9/23/2021 3:15:00 PM 19.29 66.722 7.53 192 113.5 89.9
9/23/2021 3:30:00 PM 19.29 66.722 7.52 190.7 122.7 89.6
9/23/2021 3:45:00 PM 19.29 66.722 7.51 189.6 90.97 89
9/23/2021 4:00:00 PM 19.28 66.704 7.5 186.7 80.64 88.4
9/23/2021 4:15:00 PM 19.28 66.704 7.49 182.4 106.4 89.1
9/23/2021 4:30:00 PM 19.28 66.704 7.48 182.2 138.7 88.6
9/23/2021 4:45:00 PM 19.26 66.668 7.47 182 84.6 88
9/23/2021 5:00:00 PM 19.23 66.614 7.47 182.7 88.31 87.2
9/23/2021 5:15:00 PM 19.21 66.578 7.47 186.5 82.44 87.9
9/23/2021 5:30:00 PM 19.19 66.542 7.47 184.9 74.53 87.4
9/23/2021 5:45:00 PM 19.17 66.506 7.46 188.7 72.22 88.4
9/23/2021 6:00:00 PM 19.14 66.452 7.46 188 83.89 89.6
9/23/2021 6:15:00 PM 19.12 66.416 7.46 190.1 74.41 89.2
9/23/2021 6:30:00 PM 19.09 66.362 7.46 190.2 74.79 89.1
9/23/2021 6:45:00 PM 19.07 66.326 7.46 187.5 94.87 89.7
9/23/2021 7:00:00 PM 19.05 66.29 7.46 187.2 83.06 89.3
9/23/2021 7:15:00 PM 19.02 66.236 7.46 189.8 85.88 89.4
9/23/2021 7:30:00 PM 19 66.2 7.45 185.3 88.4 89.3
9/23/2021 7:45:00 PM 18.98 66.164 7.46 186.3 88.19 89.5
9/23/2021 8:00:00 PM 18.97 66.146 7.46 186.1 93.35 89.4
9/23/2021 8:15:00 PM 18.95 66.11 7.45 186.5 75.33 89.6
9/23/2021 8:30:00 PM 18.93 66.074 7.45 186.3 123.8 89.7
9/23/2021 8:45:00 PM 18.91 66.038 7.45 188.6 90.53 89.8
9/23/2021 9:00:00 PM 18.89 66.002 7.45 188.7 75.9 89.5
9/23/2021 9:15:00 PM 18.87 65.966 7.45 191.2 78.89 89.4
9/23/2021 9:30:00 PM 18.85 65.93 7.45 190.3 96.64 88.8
9/23/2021 9:45:00 PM 18.85 65.93 7.44 191 132.9 88.3
9/23/2021 10:00:00 PM 18.82 65.876 7.45 189.7 90.34 88.9
9/23/2021 10:15:00 PM 18.8 65.84 7.45 190.5 69.34 88.7
9/23/2021 10:30:00 PM 18.78 65.804 7.45 191.8 70.55 89.1
9/23/2021 10:45:00 PM 18.76 65.768 7.45 190.7 73.85 89.4
9/23/2021 11:00:00 PM 18.74 65.732 7.44 191.3 58.58 89
9/23/2021 11:15:00 PM 18.72 65.696 7.44 193.3 71.46 88.9
9/23/2021 11:30:00 PM 18.71 65.67799 7.44 194.6 54.61 88.4
9/23/2021 11:45:00 PM 18.68 65.624 7.44 197.6 65.67 88.5
9/24/2021 12:00:00 AM 18.66 65.588 7.44 194.4 61.62 88.8
9/24/2021 12:15:00 AM 18.64 65.552 7.44 193.9 64.38 88.6
9/24/2021 12:30:00 AM 18.61 65.498 7.44 196.1 66.29 88.8
9/24/2021 12:45:00 AM 18.58 65.444 7.44 195.8 59.82 88.7
9/24/2021 1:00:00 AM 18.55 65.39 7.44 197.3 72.26 89.1
9/24/2021 1:15:00 AM 18.52 65.336 7.45 194.8 64.24 88.2
9/24/2021 1:30:00 AM 18.48 65.264 7.44 194.8 66.23 88.7
9/24/2021 1:45:00 AM 18.44 65.192 7.44 196.8 58.7 88.8
9/24/2021 2:00:00 AM 18.4 65.12 7.44 198.5 65.77 88.6
9/24/2021 2:15:00 AM 18.36 65.048 7.44 198.4 59.19 88.5
9/24/2021 2:30:00 AM 18.32 64.976 7.44 202.3 53.44 88.3
9/24/2021 2:45:00 AM 18.27 64.886 7.44 200 49.77 88.2
9/24/2021 3:00:00 AM 18.22 64.796 7.44 203.2 44.79 87.8
9/24/2021 3:15:00 AM 18.18 64.724 7.44 201.2 50.21 87.9
9/24/2021 3:30:00 AM 18.13 64.634 7.43 200.3 51.13 87.7
9/24/2021 3:45:00 AM 18.09 64.562 7.43 203.2 46.56 87.7
9/24/2021 4:00:00 AM 18.04 64.472 7.44 202.9 42.58 87.6
9/24/2021 4:15:00 AM 17.99 64.382 7.44 203.2 50.61 87.5
9/24/2021 4:30:00 AM 17.94 64.292 7.43 200.4 45.88 87.7
9/24/2021 4:45:00 AM 17.89 64.202 7.44 202 42.79 88
9/24/2021 5:00:00 AM 17.85 64.13 7.44 204.4 47.13 88.1
9/24/2021 5:15:00 AM 17.8 64.04 7.44 205.1 47.91 88.2
9/24/2021 5:30:00 AM 17.76 63.968 7.45 201.7 42.31 88.7
9/24/2021 5:45:00 AM 17.71 63.878 7.45 201.8 43.32 88.9
9/24/2021 6:00:00 AM 17.67 63.806 7.44 201.5 43.82 88.6
9/24/2021 6:15:00 AM 17.63 63.734 7.44 202.2 42.52 88.8
9/24/2021 6:30:00 AM 17.58 63.644 7.45 202.7 74.7 88.7
9/24/2021 6:45:00 AM 17.53 63.554 7.45 202.9 46.61 88.7
9/24/2021 7:00:00 AM 17.49 63.482 7.45 204 40.06 89
9/24/2021 7:15:00 AM 17.44 63.392 7.45 205.6 45.16 89.1
9/24/2021 7:30:00 AM 17.39 63.302 7.46 205.4 38.85 89
9/24/2021 7:45:00 AM 17.34 63.212 7.46 205.7 42.63 89.3
9/24/2021 8:00:00 AM 17.3 63.14 7.46 206.4 38.4 89.5
9/24/2021 8:15:00 AM 17.25 63.05 7.46 207.5 40.73 89.5
9/24/2021 8:30:00 AM 17.21 62.978 7.48 207.3 37.01 89.6
9/24/2021 8:45:00 AM 17.17 62.906 7.47 208.6 43.56 89.9
9/24/2021 9:00:00 AM 17.13 62.834 7.47 207.2 34.56 89.8
9/24/2021 9:15:00 AM 17.1 62.78 7.48 206.5 39.53 89.9
9/24/2021 9:30:00 AM 17.06 62.708 7.48 205.2 40.63 90.1
9/24/2021 9:45:00 AM 17.04 62.672 7.48 206.4 40.43 90.3
9/24/2021 10:00:00 AM 17.01 62.618 7.48 206.5 37.85 90.4
9/24/2021 10:15:00 AM 17 62.6 7.49 206.5 37.77 90.8
9/24/2021 10:30:00 AM 16.99 62.582 7.49 206 44.2 90.7
9/24/2021 10:45:00 AM 16.99 62.582 7.49 206.1 41.22 91.1
9/24/2021 11:00:00 AM 16.99 62.582 7.49 207.2 39.06 91.3
9/24/2021 11:15:00 AM 17 62.6 7.5 207.2 31.71 91.5
9/24/2021 11:30:00 AM 17.01 62.618 7.5 207.6 33.8 91.5
9/24/2021 11:45:00 AM 17.03 62.654 7.5 208.1 35.17 91.8
9/24/2021 12:00:00 PM 17.05 62.69 7.51 209.8 35.46 92
9/24/2021 12:15:00 PM 17.08 62.744 7.51 210.5 35.08 92.1
9/24/2021 12:30:00 PM 17.1 62.78 7.52 209.7 34.58 92.3
9/24/2021 12:45:00 PM 17.14 62.852 7.52 210 35.83 92.5
9/24/2021 1:00:00 PM 17.18 62.924 7.52 210.6 32.58 92.7
9/24/2021 1:15:00 PM 17.22 62.996 7.52 210.5 32.94 93.1
9/24/2021 1:30:00 PM 17.26 63.068 7.52 211.5 31.44 93.2
9/24/2021 1:45:00 PM 17.3 63.14 7.53 211.5 31.68 93.3
9/24/2021 2:00:00 PM 17.34 63.212 7.53 211.9 30.08 93.4
9/24/2021 2:15:00 PM 17.38 63.284 7.53 212.1 34.82 93.4
9/24/2021 2:30:00 PM 17.42 63.356 7.54 212.6 29.31 93.9
9/24/2021 2:45:00 PM 17.46 63.428 7.54 213.2 30 94
9/24/2021 3:00:00 PM 17.5 63.5 7.55 213.7 33.72 94.2
9/24/2021 3:15:00 PM 17.53 63.554 7.54 214.1 31.32 94.4
9/24/2021 3:30:00 PM 17.56 63.608 7.55 214.9 32.9 94.3
9/24/2021 3:45:00 PM 17.58 63.644 7.56 215.3 30.8 94.5
9/24/2021 4:00:00 PM 17.59 63.662 7.56 215.8 35.98 94.6
9/24/2021 4:15:00 PM 17.6 63.68 7.56 216.4 31.83 94.6
9/24/2021 4:30:00 PM 17.62 63.716 7.56 217 30.98 94.8
9/24/2021 4:45:00 PM 17.6 63.68 7.56 217.3 32.92 94.8
9/24/2021 5:00:00 PM 17.59 63.662 7.58 217.8 31.21 94.8
9/24/2021 5:15:00 PM 17.58 63.644 7.58 218.4 31.96 94.8
9/24/2021 5:30:00 PM 17.54 63.572 7.58 219.2 30.84 94.8
9/24/2021 5:45:00 PM 17.51 63.518 7.59 219.5 31.65 94.7
9/24/2021 6:00:00 PM 17.48 63.464 7.6 219.9 31.55 94.8
9/24/2021 6:15:00 PM 17.46 63.428 7.6 219.8 33.59 94.9
9/24/2021 6:30:00 PM 17.43 63.374 7.59 219.6 31.84 94.6
9/24/2021 6:45:00 PM 17.4 63.32 7.6 220.1 27.81 94.9
9/24/2021 7:00:00 PM 17.37 63.266 7.6 220.5 34.43 94.5
9/24/2021 7:15:00 PM 17.34 63.212 7.61 221.2 22.83 94.6
9/24/2021 7:30:00 PM 17.31 63.158 7.61 221.7 25.18 94.5
9/24/2021 7:45:00 PM 17.27 63.086 7.6 222.1 48.65 95.1
9/24/2021 8:00:00 PM 17.24 63.032 7.61 222.5 22.42 94.9
9/24/2021 8:15:00 PM 17.22 62.996 7.61 222.9 22.99 95
9/24/2021 8:30:00 PM 17.18 62.924 7.61 223.5 42.14 94.9
9/24/2021 8:45:00 PM 17.15 62.87 7.62 223.9 24.79 95
9/24/2021 9:00:00 PM 17.12 62.816 7.62 224.2 17.19 94.9
9/24/2021 9:15:00 PM 17.1 62.78 7.62 224.5 18.97 94.9
9/24/2021 9:30:00 PM 17.07 62.726 7.62 225 16.56 94.9
9/24/2021 9:45:00 PM 17.03 62.654 7.63 225.6 18.13 94.9
9/24/2021 10:00:00 PM 17.01 62.618 7.62 226.1 18.52 94.9
9/24/2021 10:15:00 PM 16.98 62.564 7.63 226.6 17.85 94.9
9/24/2021 10:30:00 PM 16.95 62.51 7.63 227.1 18.38 95
9/24/2021 10:45:00 PM 16.93 62.474 7.64 227.5 20.6 94.8
9/24/2021 11:00:00 PM 16.9 62.42 7.64 228.1 21.76 94.6
9/24/2021 11:15:00 PM 16.88 62.384 7.63 228.5 22.24 94.7
9/24/2021 11:30:00 PM 16.85 62.33 7.65 228.8 15.79 94.7
9/24/2021 11:45:00 PM 16.83 62.294 7.64 229.3 16.22 94.9
9/25/2021 12:00:00 AM 16.81 62.258 7.65 229.6 17.03 95
9/25/2021 12:15:00 AM 16.78 62.204 7.65 230.2 17.39 94.7
9/25/2021 12:30:00 AM 16.76 62.168 7.65 230.8 17.05 94.7
9/25/2021 12:45:00 AM 16.73 62.114 7.66 231.3 19.87 94.7
9/25/2021 1:00:00 AM 16.71 62.078 7.66 231.4 15.8 94.8
9/25/2021 1:15:00 AM 16.68 62.024 7.66 231.9 17.04 94.7
9/25/2021 1:30:00 AM 16.66 61.988 7.65 232.5 16.43 94.6
9/25/2021 1:45:00 AM 16.63 61.934 7.65 232.9 17.89 94.7
9/25/2021 2:00:00 AM 16.6 61.88 7.66 233.3 15.1 94.6
9/25/2021 2:15:00 AM 16.58 61.844 7.66 233.6 16.95 94.6
9/25/2021 2:30:00 AM 16.55 61.79 7.66 234.1 19.27 94.4
9/25/2021 2:45:00 AM 16.53 61.754 7.66 234.6 29.28 94.4
9/25/2021 3:00:00 AM 16.5 61.7 7.66 235.1 19.21 94.5
9/25/2021 3:15:00 AM 16.48 61.664 7.66 235.4 18.09 94.2
9/25/2021 3:30:00 AM 16.45 61.61 7.66 235.8 16.09 94.5
9/25/2021 3:45:00 AM 16.42 61.556 7.66 236.3 18.16 94.4
9/25/2021 4:00:00 AM 16.39 61.502 7.66 236.8 16.96 94.5
9/25/2021 4:15:00 AM 16.36 61.448 7.66 237.1 18.18 94.3
9/25/2021 4:30:00 AM 16.34 61.412 7.66 237.5 16.73 94.3
9/25/2021 4:45:00 AM 16.31 61.358 7.66 238 17.27 94.2
9/25/2021 5:00:00 AM 16.28 61.304 7.67 238.4 22.42 94.3
9/25/2021 5:15:00 AM 16.25 61.25 7.67 238.9 16.26 94.3
9/25/2021 5:30:00 AM 16.22 61.196 7.66 239.2 16.19 94.2
9/25/2021 5:45:00 AM 16.18 61.124 7.67 239.5 18.11 94.2
9/25/2021 6:00:00 AM 16.15 61.07 7.66 239.7 15.92 94.2
9/25/2021 6:15:00 AM 16.12 61.016 7.67 240.2 16.13 94.2
9/25/2021 6:30:00 AM 16.09 60.962 7.67 240.6 15.13 94.3
9/25/2021 6:45:00 AM 16.05 60.89 7.67 241.1 18.33 94.2
9/25/2021 7:00:00 AM 16.02 60.836 7.67 241.5 15.47 94
9/25/2021 7:15:00 AM 15.98 60.764 7.68 241.8 14.79 94
9/25/2021 7:30:00 AM 15.95 60.71 7.67 242.2 15.04 94.1
9/25/2021 7:45:00 AM 15.92 60.656 7.67 242.4 17.05 94.1
9/25/2021 8:00:00 AM 15.88 60.584 7.68 243 15.68 94.3
9/25/2021 8:15:00 AM 15.86 60.548 7.68 243.4 16.11 94.2
9/25/2021 8:30:00 AM 15.84 60.512 7.68 243.8 14.83 94.4
9/25/2021 8:45:00 AM 15.82 60.476 7.68 244.2 12.91 94.2
9/25/2021 9:00:00 AM 15.8 60.44 7.68 244.6 14.9 94.5
9/25/2021 9:15:00 AM 15.79 60.422 7.69 244.5 16.15 94.4
9/25/2021 9:30:00 AM 15.78 60.404 7.69 245.3 17.02 94.6
9/25/2021 9:45:00 AM 15.77 60.386 7.69 245.9 12.82 94.7
9/25/2021 10:00:00 AM 15.77 60.386 7.69 246.1 15.56 94.8
9/25/2021 10:15:00 AM 15.77 60.386 7.7 246.2 14.77 94.8
9/25/2021 10:30:00 AM 15.78 60.404 7.7 246.3 14.63 95.1
9/25/2021 10:45:00 AM 15.81 60.458 7.7 247.1 14.63 95.2
9/25/2021 11:00:00 AM 15.84 60.512 7.71 247.7 12.47 95.4
9/25/2021 11:15:00 AM 15.88 60.584 7.71 248 13.08 95.7
9/25/2021 11:30:00 AM 15.93 60.674 7.72 248.3 12.52 95.9
9/25/2021 11:45:00 AM 15.98 60.764 7.72 248.6 13.72 95.9
9/25/2021 12:00:00 PM 16.03 60.854 7.72 248.9 11.96 96.2
9/25/2021 12:15:00 PM 16.09 60.962 7.73 249.6 14.64 96.4
9/25/2021 12:30:00 PM 16.16 61.088 7.73 249.8 12.07 96.6
9/25/2021 12:45:00 PM 16.23 61.214 7.74 250.1 21.68 96.8
9/25/2021 1:00:00 PM 16.3 61.34 7.74 250.6 12.1 97.1
9/25/2021 1:15:00 PM 16.37 61.466 7.74 250.8 10.78 97.3
9/25/2021 1:30:00 PM 16.45 61.61 7.74 251.1 11.11 97.6
9/25/2021 1:45:00 PM 16.54 61.772 7.75 251.4 10.2 97.8
9/25/2021 2:00:00 PM 16.63 61.934 7.75 251.9 9.8 98
9/25/2021 2:15:00 PM 16.71 62.078 7.76 252.1 10.44 98.4
9/25/2021 2:30:00 PM 16.79 62.222 7.76 252.4 10.43 98.5
9/25/2021 2:45:00 PM 16.85 62.33 7.77 252.6 10.96 98.8
9/25/2021 3:00:00 PM 16.92 62.456 7.77 252.7 10.36 99
9/25/2021 3:15:00 PM 16.96 62.528 7.78 253 9.71 99.1
9/25/2021 3:30:00 PM 17.01 62.618 7.79 253.2 11.46 99.2
9/25/2021 3:45:00 PM 17.05 62.69 7.79 253.6 9.66 99.3
9/25/2021 4:00:00 PM 17.04 62.672 7.79 254 9.22 99.1
9/25/2021 4:15:00 PM 17.03 62.654 7.79 254.1 9.16 99
9/25/2021 4:30:00 PM 17.01 62.618 7.79 254.4 8.6 98.6
9/25/2021 4:45:00 PM 17.01 62.618 7.79 254.7 8.39 98.5
9/25/2021 5:00:00 PM 17.01 62.618 7.79 255 10.79 98.5
9/25/2021 5:15:00 PM 17.01 62.618 7.8 255.3 8.33 98.3
9/25/2021 5:30:00 PM 17.02 62.636 7.8 255.3 9.02 98.1
9/25/2021 5:45:00 PM 17.03 62.654 7.81 255.5 7.98 98.2
9/25/2021 6:00:00 PM 17.03 62.654 7.81 256 9.2 97.9
9/25/2021 6:15:00 PM 17.03 62.654 7.8 256.3 8.2 98.1
9/25/2021 6:30:00 PM 17.02 62.636 7.81 256.8 8.49 98
9/25/2021 6:45:00 PM 17.01 62.618 7.81 257.3 8.36 97.9
9/25/2021 7:00:00 PM 16.99 62.582 7.81 257.7 7.6 97.6
9/25/2021 7:15:00 PM 16.97 62.546 7.81 258.2 9 97.4
9/25/2021 7:30:00 PM 16.95 62.51 7.81 258.2 9.93 97.2
9/25/2021 7:45:00 PM 16.92 62.456 7.82 259.1 8.5 97
9/25/2021 8:00:00 PM 16.9 62.42 7.81 259.5 8.48 96.8
9/25/2021 8:15:00 PM 16.88 62.384 7.8 259.7 8.57 96.7
9/25/2021 8:30:00 PM 16.87 62.366 7.8 260 9.78 96.7
9/25/2021 8:45:00 PM 16.85 62.33 7.8 260.3 11.89 96.7
9/25/2021 9:00:00 PM 16.83 62.294 7.8 260.5 13.6 96.3
9/25/2021 9:15:00 PM 16.81 62.258 7.8 260.9 12.91 96.5
9/25/2021 9:30:00 PM 16.8 62.24 7.8 261 9.38 96.5
9/25/2021 9:45:00 PM 16.78 62.204 7.8 261.4 10.42 96.4
9/25/2021 10:00:00 PM 16.76 62.168 7.8 261.7 10.16 96.4
9/25/2021 10:15:00 PM 16.75 62.15 7.8 262 11.97 96.1
9/25/2021 10:30:00 PM 16.74 62.132 7.79 262.5 12.08 96.1
9/25/2021 10:45:00 PM 16.73 62.114 7.8 262.6 12.71 96.1
9/25/2021 11:00:00 PM 16.72 62.096 7.8 262.8 9.15 96.1
9/25/2021 11:15:00 PM 16.71 62.078 7.8 263.2 11.21 95.8
9/25/2021 11:30:00 PM 16.69 62.042 7.8 263.4 10.43 95.9
9/25/2021 11:45:00 PM 16.68 62.024 7.8 263.9 8.74 95.7
9/26/2021 12:00:00 AM 16.67 62.006 7.8 264.2 13.17 95.5
9/26/2021 12:15:00 AM 16.65 61.97 7.8 264.4 9.05 95.5
9/26/2021 12:30:00 AM 16.64 61.952 7.8 264.8 16.12 95.4
9/26/2021 12:45:00 AM 16.62 61.916 7.79 265.3 10.91 95.4
9/26/2021 1:00:00 AM 16.61 61.898 7.8 265.5 10.29 95.2
9/26/2021 1:15:00 AM 16.58 61.844 7.79 265.8 8.13 95.2
9/26/2021 1:30:00 AM 16.56 61.808 7.79 266 10.87 94.9
9/26/2021 1:45:00 AM 16.54 61.772 7.79 266.3 9.25 94.9
9/26/2021 2:00:00 AM 16.52 61.736 7.79 266.7 11.85 94.9
9/26/2021 2:15:00 AM 16.5 61.7 7.8 267 8.11 94.8
9/26/2021 2:30:00 AM 16.48 61.664 7.79 267.5 9.71 94.6
9/26/2021 2:45:00 AM 16.45 61.61 7.79 267.9 8.35 94.7
9/26/2021 3:00:00 AM 16.43 61.574 7.79 268.4 7.46 94.5
9/26/2021 3:15:00 AM 16.4 61.52 7.79 268.7 13.23 94.4
9/26/2021 3:30:00 AM 16.37 61.466 7.79 268.8 10.06 94.5
9/26/2021 3:45:00 AM 16.35 61.43 7.79 269.1 7.92 94.4
9/26/2021 4:00:00 AM 16.33 61.394 7.79 269.3 7.4 94.3
9/26/2021 4:15:00 AM 16.3 61.34 7.78 269.7 8.48 94.3
9/26/2021 4:30:00 AM 16.27 61.286 7.79 270 8.66 94.3
9/26/2021 4:45:00 AM 16.25 61.25 7.79 270.2 6.58 94.2
9/26/2021 5:00:00 AM 16.22 61.196 7.78 270.6 6.9 94.1
9/26/2021 5:15:00 AM 16.2 61.16 7.79 271 9.63 94.1
9/26/2021 5:30:00 AM 16.17 61.106 7.79 271.4 9.15 94.1
9/26/2021 5:45:00 AM 16.14 61.052 7.79 271.7 8.68 93.9
9/26/2021 6:00:00 AM 16.12 61.016 7.8 271.9 7.94 93.8
9/26/2021 6:15:00 AM 16.09 60.962 7.79 272.3 9.02 93.8
9/26/2021 6:30:00 AM 16.07 60.926 7.79 272.6 9.71 93.8
9/26/2021 6:45:00 AM 16.04 60.872 7.79 272.8 7.5 93.8
9/26/2021 7:00:00 AM 16.01 60.818 7.79 273.3 8.18 93.7
9/26/2021 7:15:00 AM 15.99 60.782 7.79 273.6 6.92 93.7
9/26/2021 7:30:00 AM 15.96 60.728 7.79 274 7.48 93.7
9/26/2021 7:45:00 AM 15.94 60.692 7.79 274.2 7.81 93.7
9/26/2021 8:00:00 AM 15.92 60.656 7.79 274.5 9.52 93.9
9/26/2021 8:15:00 AM 15.91 60.638 7.78 274.6 7 93.9
9/26/2021 8:30:00 AM 15.91 60.638 7.8 274.9 6.75 94
9/26/2021 8:45:00 AM 15.9 60.62 7.8 275.1 7.14 94
9/26/2021 9:00:00 AM 15.9 60.62 7.79 275.5 7.13 94.1
9/26/2021 9:15:00 AM 15.9 60.62 7.8 275.7 7.35 94.2
9/26/2021 9:30:00 AM 15.9 60.62 7.8 276 7.3 94.3
9/26/2021 9:45:00 AM 15.9 60.62 7.8 276.3 6.79 94.4
9/26/2021 10:00:00 AM 15.91 60.638 7.8 276.6 5.9 94.4
9/26/2021 10:15:00 AM 15.91 60.638 7.81 276.8 6.57 94.7
9/26/2021 10:30:00 AM 15.92 60.656 7.8 277.1 6.75 94.8
9/26/2021 10:45:00 AM 15.93 60.674 7.8 277.4 6.11 95
9/26/2021 11:00:00 AM 15.96 60.728 7.81 277.7 6.06 95.2
9/26/2021 11:15:00 AM 15.99 60.782 7.81 277.9 6.23 95.6
9/26/2021 11:30:00 AM 16.02 60.836 7.82 278.3 8.17 95.7
9/26/2021 11:45:00 AM 16.07 60.926 7.82 278.6 6.5 96
9/26/2021 12:00:00 PM 16.14 61.052 7.82 278.9 8.54 96.2
9/26/2021 12:15:00 PM 16.21 61.178 7.83 279.3 6.55 96.5
9/26/2021 12:30:00 PM 16.29 61.322 7.83 279.6 6.33 97
9/26/2021 12:45:00 PM 16.37 61.466 7.83 279.9 6.83 97.4
9/26/2021 1:00:00 PM 16.46 61.628 7.84 280.2 6.34 97.8
9/26/2021 1:15:00 PM 16.56 61.808 7.85 280.5 5.83 98.1
9/26/2021 1:30:00 PM 16.66 61.988 7.85 280.8 6.42 98.4
9/26/2021 1:45:00 PM 16.76 62.168 7.85 281 6.57 98.8
9/26/2021 2:00:00 PM 16.85 62.33 7.86 281.3 5.36 99
9/26/2021 2:15:00 PM 16.94 62.492 7.87 281.5 5.02 99.5
9/26/2021 2:30:00 PM 17.03 62.654 7.87 281.8 6.61 99.9
9/26/2021 2:45:00 PM 17.11 62.798 7.88 281.9 5.87 99.9
9/26/2021 3:00:00 PM 17.18 62.924 7.88 282 4.97 100.3
9/26/2021 3:15:00 PM 17.25 63.05 7.89 282.3 5.73 100.6
9/26/2021 3:30:00 PM 17.3 63.14 7.89 282.6 6.45 100.6
9/26/2021 3:45:00 PM 17.34 63.212 7.9 282.9 5.34 100.7
9/26/2021 4:00:00 PM 17.38 63.284 7.9 282.9 5.68 100.8
9/26/2021 4:15:00 PM 17.4 63.32 7.9 283.3 4.74 100.8
9/26/2021 4:30:00 PM 17.41 63.338 7.91 283.6 5.74 100.8
9/26/2021 4:45:00 PM 17.41 63.338 7.91 283.9 5.35 100.6
9/26/2021 5:00:00 PM 17.39 63.302 7.91 284.1 4.56 100.3
9/26/2021 5:15:00 PM 17.36 63.248 7.91 284.2 5.26 99.9
9/26/2021 5:30:00 PM 17.32 63.176 7.91 284.5 5.79 99.4
9/26/2021 5:45:00 PM 17.29 63.122 7.91 284.6 5.65 98.9
9/26/2021 6:00:00 PM 17.26 63.068 7.92 285 6.58 98.5
9/26/2021 6:15:00 PM 17.25 63.05 7.91 285.4 5.12 98.3
9/26/2021 6:30:00 PM 17.24 63.032 7.91 285.6 5.16 98.2
9/26/2021 6:45:00 PM 17.23 63.014 7.91 285.8 4.97 98
9/26/2021 7:00:00 PM 17.21 62.978 7.91 286.2 5.44 97.8
9/26/2021 7:15:00 PM 17.19 62.942 7.91 286.5 5.47 97.7
9/26/2021 7:30:00 PM 17.17 62.906 7.92 286.8 5.9 97.6
9/26/2021 7:45:00 PM 17.15 62.87 7.91 287 7.14 97.5
9/26/2021 8:00:00 PM 17.13 62.834 7.91 287.2 6.15 97.3
9/26/2021 8:15:00 PM 17.11 62.798 7.91 287.2 5.63 97.2
9/26/2021 8:30:00 PM 17.08 62.744 7.91 287.4 6.23 97.2
9/26/2021 8:45:00 PM 17.06 62.708 7.91 287.8 5.74 97.1
9/26/2021 9:00:00 PM 17.03 62.654 7.91 288.2 5.85 97.1
9/26/2021 9:15:00 PM 16.99 62.582 7.91 288.4 7.82 97.1
9/26/2021 9:30:00 PM 16.96 62.528 7.91 288.7 6.27 96.8
9/26/2021 9:45:00 PM 16.92 62.456 7.9 288.9 8.91 96.7
9/26/2021 10:00:00 PM 16.88 62.384 7.9 289.3 6.03 96.5
9/26/2021 10:15:00 PM 16.85 62.33 7.91 289.7 5.78 96.5
9/26/2021 10:30:00 PM 16.81 62.258 7.91 290.1 8.63 96.2
9/26/2021 10:45:00 PM 16.78 62.204 7.91 290.5 8.41 96.1
9/26/2021 11:00:00 PM 16.75 62.15 7.9 290.7 7.28 96.1
9/26/2021 11:15:00 PM 16.71 62.078 7.9 291.1 7.89 95.9
9/26/2021 11:30:00 PM 16.68 62.024 7.9 291.4 8.31 95.7
9/26/2021 11:45:00 PM 16.65 61.97 7.9 291.7 7.08 95.5
9/27/2021 12:00:00 AM 16.62 61.916 7.91 291.9 5.92 95.6
9/27/2021 12:15:00 AM 16.59 61.862 7.92 292.1 8.54 95.4
9/27/2021 12:30:00 AM 16.57 61.826 7.91 292.4 6.53 95.3
9/27/2021 12:45:00 AM 16.53 61.754 7.92 292.7 6.58 95.4
9/27/2021 1:00:00 AM 16.51 61.718 7.92 293 6.39 95.1
9/27/2021 1:15:00 AM 16.48 61.664 7.93 293.3 6.48 95
9/27/2021 1:30:00 AM 16.45 61.61 7.92 293.6 5.11 94.9
9/27/2021 1:45:00 AM 16.42 61.556 7.91 293.8 6.55 94.8
9/27/2021 2:00:00 AM 16.39 61.502 7.91 294.2 6.1 94.7
9/27/2021 2:15:00 AM 16.36 61.448 7.91 294.5 5.8 94.5
9/27/2021 2:30:00 AM 16.33 61.394 7.91 294.8 5.71 94.5
9/27/2021 2:45:00 AM 16.3 61.34 7.91 295.2 5.54 94.4
9/27/2021 3:00:00 AM 16.27 61.286 7.9 295.5 5.6 94.3
9/27/2021 3:15:00 AM 16.24 61.232 7.9 295.9 6.11 94.3
9/27/2021 3:30:00 AM 16.21 61.178 7.89 296 4.8 94.2
9/27/2021 3:45:00 AM 16.18 61.124 7.88 296.3 6.34 94.1
9/27/2021 4:00:00 AM 16.15 61.07 7.88 296.6 7.23 93.9
9/27/2021 4:15:00 AM 16.12 61.016 7.88 297 6.62 93.9
9/27/2021 4:30:00 AM 16.08 60.944 7.87 297.2 7.33 93.8
9/27/2021 4:45:00 AM 16.05 60.89 7.87 297.4 6.4 93.7
9/27/2021 5:00:00 AM 16.02 60.836 7.86 297.8 6.4 93.5
9/27/2021 5:15:00 AM 15.98 60.764 7.86 298 6.03 93.6
9/27/2021 5:30:00 AM 15.95 60.71 7.85 298.3 7.8 93.7
9/27/2021 5:45:00 AM 15.92 60.656 7.86 298.5 5.33 93.5
9/27/2021 6:00:00 AM 15.88 60.584 7.85 298.7 7.11 93.5
9/27/2021 6:15:00 AM 15.85 60.53 7.86 299 7.29 93.5
9/27/2021 6:30:00 AM 15.82 60.476 7.86 299.4 6 93.4
9/27/2021 6:45:00 AM 15.79 60.422 7.85 299.7 7.08 93.2
9/27/2021 7:00:00 AM 15.77 60.386 7.86 300 6.5 93.3
9/27/2021 7:15:00 AM 15.74 60.332 7.85 300.3 6.01 93.3
9/27/2021 7:30:00 AM 15.72 60.296 7.86 300.5 5.19 93.3
9/27/2021 7:45:00 AM 15.7 60.26 7.85 300.8 14.21 93.4
9/27/2021 8:00:00 AM 15.69 60.242 7.85 301.1 6.77 93.4
9/27/2021 8:15:00 AM 15.67 60.206 7.86 301.3 7.54 93.6
9/27/2021 8:30:00 AM 15.67 60.206 7.86 301.5 4.89 93.7
9/27/2021 8:45:00 AM 15.66 60.188 7.85 301.8 4.87 93.9
9/27/2021 9:00:00 AM 15.66 60.188 7.86 302.1 6.01 94
9/27/2021 9:15:00 AM 15.65 60.17 7.86 302.3 5.7 94.1
9/27/2021 9:30:00 AM 15.66 60.188 7.86 302.5 5.37 94.3
9/27/2021 9:45:00 AM 15.66 60.188 7.86 302.8 5.92 94.3
9/27/2021 10:00:00 AM 15.67 60.206 7.87 303.1 5.73 94.6
9/27/2021 10:15:00 AM 15.69 60.242 7.87 303.5 6.71 94.7
9/27/2021 10:30:00 AM 15.7 60.26 7.87 303.7 5.5 95
9/27/2021 10:45:00 AM 15.73 60.314 7.88 304 6.48 95.3
9/27/2021 11:00:00 AM 15.76 60.368 7.88 304.3 5.18 95.3
9/27/2021 11:15:00 AM 15.81 60.458 7.88 304.6 4.54 95.7
9/27/2021 11:30:00 AM 15.86 60.548 7.88 305 5.56 96
9/27/2021 11:45:00 AM 15.94 60.692 7.89 305.1 5.45 96.5
9/27/2021 12:00:00 PM 16.02 60.836 7.9 305.3 5.03 96.9
9/27/2021 12:15:00 PM 16.12 61.016 7.9 305.6 4.73 97.4
9/27/2021 12:30:00 PM 16.22 61.196 7.91 305.9 6.5 97.8
9/27/2021 12:45:00 PM 16.33 61.394 7.91 306.2 5.13 98.1
9/27/2021 1:00:00 PM 16.45 61.61 7.91 306.4 4.97 98.6
9/27/2021 1:15:00 PM 16.58 61.844 7.92 306.8 4.65 99.1
9/27/2021 1:30:00 PM 16.7 62.06 7.93 307 4.86 99.3
9/27/2021 1:45:00 PM 16.83 62.294 7.93 307.4 6.3 100
9/27/2021 2:00:00 PM 16.95 62.51 7.94 307.7 4.01 100.4
9/27/2021 2:15:00 PM 17.06 62.708 7.94 308 5.07 100.8
9/27/2021 2:30:00 PM 17.17 62.906 7.94 308.3 4.14 101
9/27/2021 2:45:00 PM 17.27 63.086 7.95 308.6 3.79 101.2
9/27/2021 3:00:00 PM 17.34 63.212 7.95 308.9 5.47 101.5
9/27/2021 3:15:00 PM 17.42 63.356 7.96 309.2 4.1 101.7
9/27/2021 3:30:00 PM 17.48 63.464 7.96 309.5 4.2 101.9
9/27/2021 3:45:00 PM 17.55 63.59 7.97 309.6 4.11 102.1
9/27/2021 4:00:00 PM 17.59 63.662 7.97 309.9 4.38 102
9/27/2021 4:15:00 PM 17.62 63.716 7.98 310.1 5.75 102
9/27/2021 4:30:00 PM 17.63 63.734 7.97 310.4 4.6 101.9
9/27/2021 4:45:00 PM 17.64 63.752 7.98 310.7 3.93 101.7
9/27/2021 5:00:00 PM 17.61 63.698 7.98 311.1 3.42 101.3
9/27/2021 5:15:00 PM 17.59 63.662 7.98 311.4 4.7 100.9
9/27/2021 5:30:00 PM 17.54 63.572 7.98 311.6 4.19 100.2
9/27/2021 5:45:00 PM 17.51 63.518 7.98 312 3.45 99.7
9/27/2021 6:00:00 PM 17.49 63.482 7.98 312.3 3.57 99.2
9/27/2021 6:15:00 PM 17.49 63.482 7.98 312.6 3.24 98.9
9/27/2021 6:30:00 PM 17.48 63.464 7.98 312.9 3.52 98.6
9/27/2021 6:45:00 PM 17.48 63.464 7.98 313.2 3.08 98.3
9/27/2021 7:00:00 PM 17.48 63.464 7.97 313.5 3.67 98.1
9/27/2021 7:15:00 PM 17.47 63.446 7.99 313.8 4.31 97.9
9/27/2021 7:30:00 PM 17.47 63.446 7.98 314.1 3.84 97.5
9/27/2021 7:45:00 PM 17.47 63.446 7.98 314.4 3.95 97.5
9/27/2021 8:00:00 PM 17.46 63.428 7.98 314.8 4.05 97.4
9/27/2021 8:15:00 PM 17.46 63.428 7.98 315 3.69 97.3
9/27/2021 8:30:00 PM 17.46 63.428 7.98 315.2 4.09 97.2
9/27/2021 8:45:00 PM 17.46 63.428 7.98 315 4.14 97.2
9/27/2021 9:00:00 PM 17.45 63.41 7.99 315.4 4.44 97.2
9/27/2021 9:15:00 PM 17.44 63.392 8 315.7 4.29 97.2
9/27/2021 9:30:00 PM 17.43 63.374 8 315.8 4.49 97.1
9/27/2021 9:45:00 PM 17.42 63.356 8 316 4.76 97.1
9/27/2021 10:00:00 PM 17.4 63.32 7.99 316.1 5.45 97
9/27/2021 10:15:00 PM 17.37 63.266 8 316.3 3.87 96.8
9/27/2021 10:30:00 PM 17.34 63.212 7.99 316.6 6.61 96.8
9/27/2021 10:45:00 PM 17.31 63.158 7.99 316.7 4.13 96.6
9/27/2021 11:00:00 PM 17.28 63.104 7.99 316.8 3.48 96.7
9/27/2021 11:15:00 PM 17.25 63.05 7.98 317 5.44 96.4
9/27/2021 11:30:00 PM 17.22 62.996 7.98 317.2 5.23 96.3
9/27/2021 11:45:00 PM 17.19 62.942 7.98 317.4 6.06 96
9/28/2021 12:00:00 AM 17.16 62.888 7.97 317.6 5.06 95.9
9/28/2021 12:15:00 AM 17.12 62.816 7.97 317.8 9.5 95.8
9/28/2021 12:30:00 AM 17.09 62.762 7.97 318 11.69 95.7
9/28/2021 12:45:00 AM 17.06 62.708 7.96 318.2 5.27 95.5
9/28/2021 1:00:00 AM 17.03 62.654 7.96 318.4 4.46 95.3
9/28/2021 1:15:00 AM 17 62.6 7.96 318.7 5.33 95.2
9/28/2021 1:30:00 AM 16.97 62.546 7.95 318.8 8.63 94.9
9/28/2021 1:45:00 AM 16.94 62.492 7.94 319.1 4.79 94.7
9/28/2021 2:00:00 AM 16.92 62.456 7.95 319.3 4.3 94.7
9/28/2021 2:15:00 AM 16.89 62.402 7.93 319.6 5.71 94.5
9/28/2021 2:30:00 AM 16.87 62.366 7.93 319.8 5.72 94.3
9/28/2021 2:45:00 AM 16.85 62.33 7.94 320 4.62 94.2
9/28/2021 3:00:00 AM 16.84 62.312 7.93 320.4 3.76 93.8
9/28/2021 3:15:00 AM 16.82 62.276 7.93 320.6 5.37 93.9
9/28/2021 3:30:00 AM 16.81 62.258 7.93 320.8 5.12 93.8
9/28/2021 3:45:00 AM 16.8 62.24 7.92 321 4.16 93.7
9/28/2021 4:00:00 AM 16.79 62.222 7.93 321.3 4.8 93.4
9/28/2021 4:15:00 AM 16.77 62.186 7.92 321.5 5.08 93.5
9/28/2021 4:30:00 AM 16.76 62.168 7.92 321.8 4.75 93.3
9/28/2021 4:45:00 AM 16.75 62.15 7.91 322.1 10.01 93.2
9/28/2021 5:00:00 AM 16.73 62.114 7.92 322.3 3.77 93.2
9/28/2021 5:15:00 AM 16.72 62.096 7.91 322.6 4.08 93
9/28/2021 5:30:00 AM 16.7 62.06 7.91 322.8 5.62 92.9
9/28/2021 5:45:00 AM 16.69 62.042 7.91 323 4.83 92.9
9/28/2021 6:00:00 AM 16.67 62.006 7.91 323.3 4.98 92.7
9/28/2021 6:15:00 AM 16.66 61.988 7.91 323.5 6.27 92.5
9/28/2021 6:30:00 AM 16.64 61.952 7.9 323.7 4.49 92.6
9/28/2021 6:45:00 AM 16.62 61.916 7.91 324 4.95 92.6
9/28/2021 7:00:00 AM 16.61 61.898 7.91 324.1 5.06 92.4
9/28/2021 7:15:00 AM 16.59 61.862 7.9 323.7 6.73 92.4
9/28/2021 7:30:00 AM 16.57 61.826 7.89 323.8 7.27 92.4
9/28/2021 7:45:00 AM 16.55 61.79 7.89 323.8 7.03 92.1
9/28/2021 8:00:00 AM 16.54 61.772 7.89 323.9 5.25 92
9/28/2021 8:15:00 AM 16.53 61.754 7.89 324.2 5.93 92.1
9/28/2021 8:30:00 AM 16.52 61.736 7.89 324.6 4.68 92.1
9/28/2021 8:45:00 AM 16.51 61.718 7.89 325.1 5.46 92
9/28/2021 9:00:00 AM 16.5 61.7 7.89 325.5 6.74 92.1
9/28/2021 9:15:00 AM 16.49 61.682 7.9 325.3 3.7 92
9/28/2021 9:30:00 AM 16.49 61.682 7.9 325.1 6.63 92.1
9/28/2021 9:45:00 AM 16.48 61.664 7.9 325.2 3.81 92.1
9/28/2021 10:00:00 AM 16.48 61.664 7.9 325.2 4.79 92.4
9/28/2021 10:15:00 AM 16.48 61.664 7.91 325.7 3.77 92.4
9/28/2021 10:30:00 AM 16.48 61.664 7.9 326.2 5.64 92.6
9/28/2021 10:45:00 AM 16.5 61.7 7.89 326.4 5.73 93
9/28/2021 11:00:00 AM 16.53 61.754 7.9 326.7 4.78 93.5
9/28/2021 11:15:00 AM 16.56 61.808 7.91 327.2 4.58 93.9
9/28/2021 11:30:00 AM 16.58 61.844 7.91 327.4 10.81 94.4
9/28/2021 11:45:00 AM 16.61 61.898 7.91 327.5 4.51 94.9
9/28/2021 12:00:00 PM 16.64 61.952 7.92 327.8 4.51 95.2
9/28/2021 12:15:00 PM 16.66 61.988 7.92 328.3 4.09 95.6
9/28/2021 12:30:00 PM 16.66 61.988 7.92 328.6 4.7 95.5
9/28/2021 12:45:00 PM 16.67 62.006 7.93 329 3.89 95.4
9/28/2021 1:00:00 PM 16.69 62.042 7.92 329.1 4.52 95.5
9/28/2021 1:15:00 PM 16.69 62.042 7.92 329.4 3.79 95.3
9/28/2021 1:30:00 PM 16.7 62.06 7.92 329.6 3.77 95.2
9/28/2021 1:45:00 PM 16.7 62.06 7.92 329.8 4.17 95
9/28/2021 2:00:00 PM 16.7 62.06 7.92 329.9 4.09 94.7
9/28/2021 2:15:00 PM 16.71 62.078 7.92 330.1 3.38 94.7
9/28/2021 2:30:00 PM 16.77 62.186 7.93 330.1 3.3 95
9/28/2021 2:45:00 PM 16.88 62.384 7.92 330.3 3.36 95.7
9/28/2021 3:00:00 PM 16.91 62.438 7.92 330.4 4.02 95.8
9/28/2021 3:15:00 PM 17.07 62.726 7.93 330.3 3.53 96.9
9/28/2021 3:30:00 PM 17.25 63.05 7.94 330.5 5.54 98.3
9/28/2021 3:45:00 PM 17.36 63.248 7.95 330.6 3.19 98.5
9/28/2021 4:00:00 PM 17.39 63.302 7.95 330.9 3.73 98.8
9/28/2021 4:15:00 PM 17.45 63.41 7.96 331.1 3.7 98.9
9/28/2021 4:30:00 PM 17.49 63.482 7.97 331.2 3.45 99.3
9/28/2021 4:45:00 PM 17.45 63.41 7.96 331.4 3.47 99.1
9/28/2021 5:00:00 PM 17.39 63.302 7.96 331.5 3.58 98.4
9/28/2021 5:15:00 PM 17.36 63.248 7.97 331.6 3.3 98
9/28/2021 5:30:00 PM 17.31 63.158 7.97 331.8 3.86 97.3
9/28/2021 5:45:00 PM 17.29 63.122 7.97 331.9 5.86 96.8
9/28/2021 6:00:00 PM 17.27 63.086 7.97 332 3.37 96.3
9/28/2021 6:15:00 PM 17.26 63.068 7.97 332.1 3.22 96.3
9/28/2021 6:30:00 PM 17.24 63.032 7.96 332.2 4.09 95.7
9/28/2021 6:45:00 PM 17.23 63.014 7.97 332.4 4.16 95.3
9/28/2021 7:00:00 PM 17.21 62.978 7.96 332.6 6.35 94.8
9/28/2021 7:15:00 PM 17.2 62.96 7.95 332.9 3.53 94.6
9/28/2021 7:30:00 PM 17.18 62.924 7.96 333 4.74 94.1
9/28/2021 7:45:00 PM 17.17 62.906 7.95 333.2 8.15 94.2
9/28/2021 8:00:00 PM 17.16 62.888 7.94 333.2 3.99 94.2
9/28/2021 8:15:00 PM 17.16 62.888 7.94 333.4 3.99 94
9/28/2021 8:30:00 PM 17.15 62.87 7.95 333.4 3.54 94.1
9/28/2021 8:45:00 PM 17.16 62.888 7.95 333.7 4.45 94.3
9/28/2021 9:00:00 PM 17.16 62.888 7.96 333.7 4.03 94.4
9/28/2021 9:15:00 PM 17.17 62.906 7.96 334 3.97 94.4
9/28/2021 9:30:00 PM 17.19 62.942 7.96 334 5.32 94.6
9/28/2021 9:45:00 PM 17.2 62.96 7.96 334.2 4.06 95
9/28/2021 10:00:00 PM 17.19 62.942 7.98 334.4 4.34 94.8
9/28/2021 10:15:00 PM 17.19 62.942 7.97 334.4 3.63 94.9
9/28/2021 10:30:00 PM 17.17 62.906 7.97 334.4 3.81 94.9
9/28/2021 10:45:00 PM 17.15 62.87 7.97 334.4 4.61 95.1
9/28/2021 11:00:00 PM 17.13 62.834 7.98 334.6 4.51 95.1
9/28/2021 11:15:00 PM 17.1 62.78 7.98 334.8 3.81 95
9/28/2021 11:30:00 PM 17.08 62.744 7.98 335 4.18 95
9/28/2021 11:45:00 PM 17.05 62.69 7.98 335.3 4.54 95.1
9/29/2021 12:00:00 AM 17.02 62.636 7.97 335.5 4.58 94.9
9/29/2021 12:15:00 AM 17 62.6 7.98 335.7 3.67 94.8
9/29/2021 12:30:00 AM 16.97 62.546 7.96 335.8 4.77 94.7
9/29/2021 12:45:00 AM 16.95 62.51 7.97 335.9 3.8 94.5
9/29/2021 1:00:00 AM 16.92 62.456 7.97 336.2 4.34 94.6
9/29/2021 1:15:00 AM 16.9 62.42 7.96 336.3 4.66 94.5
9/29/2021 1:30:00 AM 16.87 62.366 7.96 336.4 8.12 94.1
9/29/2021 1:45:00 AM 16.83 62.294 7.96 336.5 3.96 94.2
9/29/2021 2:00:00 AM 16.8 62.24 7.95 336.8 4.03 94
9/29/2021 2:15:00 AM 16.77 62.186 7.95 336.9 5.98 93.9
9/29/2021 2:30:00 AM 16.73 62.114 7.95 337 5.27 93.8
9/29/2021 2:45:00 AM 16.7 62.06 7.95 337.1 4.92 93.7
9/29/2021 3:00:00 AM 16.66 61.988 7.95 337.3 4.55 93.4
9/29/2021 3:15:00 AM 16.63 61.934 7.94 337.5 4.56 93.4
9/29/2021 3:30:00 AM 16.59 61.862 7.95 337.5 5.56 93.5
9/29/2021 3:45:00 AM 16.56 61.808 7.95 337.3 4.75 93.3
9/29/2021 4:00:00 AM 16.52 61.736 7.95 337.3 4.97 93.2
9/29/2021 4:15:00 AM 16.49 61.682 7.95 337.3 3.78 92.9
9/29/2021 4:30:00 AM 16.46 61.628 7.95 337.2 4.82 93.1
9/29/2021 4:45:00 AM 16.44 61.592 7.94 337.3 4.17 92.8
9/29/2021 5:00:00 AM 16.41 61.538 7.94 337.3 4.93 92.8
9/29/2021 5:15:00 AM 16.38 61.484 7.94 337.5 4.23 92.7
9/29/2021 5:30:00 AM 16.36 61.448 7.93 337.6 3.86 92.7
9/29/2021 5:45:00 AM 16.33 61.394 7.94 337.7 4.2 92.7
9/29/2021 6:00:00 AM 16.29 61.322 7.94 337.9 6 92.4
9/29/2021 6:15:00 AM 16.26 61.268 7.94 338 5.68 92.5
9/29/2021 6:30:00 AM 16.22 61.196 7.93 338.1 4.64 92.4
9/29/2021 6:45:00 AM 16.18 61.124 7.93 338.6 6.22 92.3
9/29/2021 7:00:00 AM 16.15 61.07 7.93 338.7 5.2 92.2
9/29/2021 7:15:00 AM 16.12 61.016 7.93 338.9 4.06 92.2
9/29/2021 7:30:00 AM 16.09 60.962 7.93 339.2 4.09 92.3
9/29/2021 7:45:00 AM 16.07 60.926 7.93 339.5 4.52 92.1
9/29/2021 8:00:00 AM 16.04 60.872 7.93 339.7 3.73 92.2
9/29/2021 8:15:00 AM 16.03 60.854 7.93 339.9 3.66 92.5
9/29/2021 8:30:00 AM 16.03 60.854 7.93 340 4 92.7
9/29/2021 8:45:00 AM 16.04 60.872 7.93 340.2 4.01 92.8
9/29/2021 9:00:00 AM 16.02 60.836 7.93 340.4 4.8 93.2
9/29/2021 9:15:00 AM 16.02 60.836 7.93 340.5 4.67 93.6
9/29/2021 9:30:00 AM 16.02 60.836 7.94 340.6 4.37 94
9/29/2021 9:45:00 AM 16.02 60.836 7.95 340.8 3.87 94.2
9/29/2021 10:00:00 AM 16.03 60.854 7.95 341.1 4.71 94.8
9/29/2021 10:15:00 AM 16.05 60.89 7.96 341.5 3.76 95.2
9/29/2021 10:30:00 AM 16.05 60.89 7.96 342.1 3.67 95.3
9/29/2021 10:45:00 AM 16.05 60.89 7.97 342.1 3.13 95.7
9/29/2021 11:00:00 AM 16.07 60.926 7.97 342.1 3.66 96.1
9/29/2021 11:15:00 AM 16.11 60.998 7.97 342.2 3.47 96.5
9/29/2021 11:30:00 AM 16.14 61.052 7.97 342.3 3.43 96.2
9/29/2021 11:45:00 AM 16.2 61.16 7.97 342.4 3.76 97
9/29/2021 12:00:00 PM 16.27 61.286 7.98 342.8 3.95 97.5
9/29/2021 12:15:00 PM 16.36 61.448 7.98 342.8 3.72 97.8
9/29/2021 12:30:00 PM 16.45 61.61 7.98 343.1 3.41 98.3
9/29/2021 12:45:00 PM 16.56 61.808 7.98 343 3.88 98.9
9/29/2021 1:00:00 PM 16.68 62.024 8 343.1 3.65 99.7
9/29/2021 1:15:00 PM 16.79 62.222 7.99 343.3 4.31 100.2
9/29/2021 1:30:00 PM 16.93 62.474 8 343.3 3.68 100.7
9/29/2021 1:45:00 PM 16.99 62.582 8 343.8 3.57 100.9
9/29/2021 2:00:00 PM 17.11 62.798 8.01 343.7 3.78 101.3
9/29/2021 2:15:00 PM 17.25 63.05 8.01 344.4 3.75 101.8
9/29/2021 2:30:00 PM 17.36 63.248 8.02 344.4 5.29 102.3
9/29/2021 2:45:00 PM 17.46 63.428 8.02 344.4 3.57 102.8
9/29/2021 3:00:00 PM 17.54 63.572 8.03 344.6 3.39 103.1
9/29/2021 3:15:00 PM 17.62 63.716 8.03 344.7 4.23 103.3
9/29/2021 3:30:00 PM 17.66 63.788 8.04 345.1 2.99 103.3
9/29/2021 3:45:00 PM 17.67 63.806 8.04 345.2 5.48 103.2
9/29/2021 4:00:00 PM 17.7 63.86 8.05 345.3 3.78 103.3
9/29/2021 4:15:00 PM 17.74 63.932 8.05 345.3 6.02 103.1
9/29/2021 4:30:00 PM 17.73 63.914 8.05 345.2 3.5 103
9/29/2021 4:45:00 PM 17.72 63.896 8.05 345.5 3.55 102.8
9/29/2021 5:00:00 PM 17.66 63.788 8.05 345.6 4.56 102.1
9/29/2021 5:15:00 PM 17.59 63.662 8.05 345.8 3.49 101.7
9/29/2021 5:30:00 PM 17.51 63.518 8.04 345.7 4.17 100.8
9/29/2021 5:45:00 PM 17.47 63.446 8.04 346.1 3 99.8
9/29/2021 6:00:00 PM 17.44 63.392 8.04 346.2 4.21 99.3
9/29/2021 6:15:00 PM 17.42 63.356 8.05 346.3 4.68 98.9
9/29/2021 6:30:00 PM 17.4 63.32 8.05 346.5 2.77 98.3
9/29/2021 6:45:00 PM 17.38 63.284 8.04 346.6 2.62 98
9/29/2021 7:00:00 PM 17.37 63.266 8.05 346.9 2.91 97.7
9/29/2021 7:15:00 PM 17.35 63.23 8.04 347 3.59 97.2
9/29/2021 7:30:00 PM 17.34 63.212 8.05 347.4 3.01 97
9/29/2021 7:45:00 PM 17.32 63.176 8.05 347.7 2.78 96.9
9/29/2021 8:00:00 PM 17.32 63.176 8.05 347.9 2.82 96.7
9/29/2021 8:15:00 PM 17.31 63.158 8.05 348.6 2.87 96.6
9/29/2021 8:30:00 PM 17.31 63.158 8.06 348.8 2.56 96.6
9/29/2021 8:45:00 PM 17.31 63.158 8.05 349 3.58 96.7
9/29/2021 9:00:00 PM 17.31 63.158 8.06 349.4 5.3 96.8
9/29/2021 9:15:00 PM 17.31 63.158 8.06 349.5 3.19 96.7
9/29/2021 9:30:00 PM 17.31 63.158 8.07 349.7 2.77 97
9/29/2021 9:45:00 PM 17.29 63.122 8.06 350 4.09 96.8
9/29/2021 10:00:00 PM 17.29 63.122 8.07 350.1 2.78 96.9
9/29/2021 10:15:00 PM 17.27 63.086 8.07 350.3 3.39 97.1
9/29/2021 10:30:00 PM 17.25 63.05 8.06 350.6 3.11 97.1
9/29/2021 10:45:00 PM 17.23 63.014 8.07 350.7 4.06 96.9
9/29/2021 11:00:00 PM 17.21 62.978 8.07 351 3.07 96.9
9/29/2021 11:15:00 PM 17.18 62.924 8.07 351.4 3.48 96.7
9/29/2021 11:30:00 PM 17.15 62.87 8.07 351.7 3.01 96.7
9/29/2021 11:45:00 PM 17.13 62.834 8.06 351.8 2.84 96.6
9/30/2021 12:00:00 AM 17.09 62.762 8.06 351.9 2.96 96.4
9/30/2021 12:15:00 AM 17.04 62.672 8.06 352.1 3.34 96.4
9/30/2021 12:30:00 AM 17 62.6 8.06 352.3 3.45 96.1
9/30/2021 12:45:00 AM 16.95 62.51 8.06 352.5 3.37 95.8
9/30/2021 1:00:00 AM 16.9 62.42 8.06 352.8 2.96 95.9
9/30/2021 1:15:00 AM 16.86 62.348 8.05 352.9 3.98 95.6
9/30/2021 1:30:00 AM 16.81 62.258 8.05 353 6.02 95.6
9/30/2021 1:45:00 AM 16.76 62.168 8.05 353.2 3.56 95.6
9/30/2021 2:00:00 AM 16.71 62.078 8.04 353.4 3.46 95.3
9/30/2021 2:15:00 AM 16.67 62.006 8.04 353.7 3.2 95
9/30/2021 2:30:00 AM 16.62 61.916 8.03 353.9 4.14 94.9
9/30/2021 2:45:00 AM 16.57 61.826 8.03 354.2 3.29 94.8
9/30/2021 3:00:00 AM 16.52 61.736 8.03 354.7 2.82 94.6
9/30/2021 3:15:00 AM 16.47 61.646 8.03 355 4.05 94.4
9/30/2021 3:30:00 AM 16.42 61.556 8.02 355.2 3.15 94.3
9/30/2021 3:45:00 AM 16.37 61.466 8.02 355.6 4.72 94.1
9/30/2021 4:00:00 AM 16.32 61.376 8.09 355.8 4.78 93.9
9/30/2021 4:15:00 AM 16.27 61.286 8.01 356.3 2.99 93.8
9/30/2021 4:30:00 AM 16.22 61.196 8.01 356.5 3.42 93.4
9/30/2021 4:45:00 AM 16.18 61.124 8.03 356.7 3.59 93.3
9/30/2021 5:00:00 AM 16.13 61.034 8 356.8 3.21 93.2
9/30/2021 5:15:00 AM 16.09 60.962 8 357.2 3.82 93.2
9/30/2021 5:30:00 AM 16.05 60.89 7.99 357.5 3.58 93.1
9/30/2021 5:45:00 AM 16.01 60.818 8.01 357.6 3.09 92.9
9/30/2021 6:00:00 AM 15.97 60.746 8 357.7 4.55 92.9
9/30/2021 6:15:00 AM 15.93 60.674 8.04 357.9 3.74 92.6
9/30/2021 6:30:00 AM 15.89 60.602 7.99 358.1 3.55 92.6
9/30/2021 6:45:00 AM 15.85 60.53 8.01 358.5 3.64 92.5
9/30/2021 7:00:00 AM 15.81 60.458 8 358.7 3.38 92.4
9/30/2021 7:15:00 AM 15.78 60.404 8.01 359.1 3.31 92.1
9/30/2021 7:30:00 AM 15.75 60.35 8 359.3 3.47 92.1
9/30/2021 7:45:00 AM 15.72 60.296 7.99 359.6 3.46 92.1
9/30/2021 8:00:00 AM 15.69 60.242 8.01 359.7 4.27 92.4
9/30/2021 8:15:00 AM 15.67 60.206 8 359.8 3.27 92.3
9/30/2021 8:30:00 AM 15.67 60.206 8.01 359.9 5.4 92.6
9/30/2021 8:45:00 AM 15.66 60.188 8.02 360.1 3.34 92.6
9/30/2021 9:00:00 AM 15.66 60.188 8.06 360.1 3.99 92.9
9/30/2021 9:15:00 AM 15.66 60.188 8.01 360.2 3.03 93.5
9/30/2021 9:30:00 AM 15.66 60.188 8 360.2 3.18 93.8
9/30/2021 9:45:00 AM 15.66 60.188 8.01 360.5 3.19 94.1
9/30/2021 10:00:00 AM 15.66 60.188 8.04 360.7 3.17 94.2
9/30/2021 10:15:00 AM 15.66 60.188 8.02 360.7 2.88 94.7